<?xml version="1.0" encoding="UTF-8" standalone="no" ?>
<gpx xmlns="http://www.topografix.com/GPX/1/1" xmlns:xsi="http://www.w3.org/2001/XMLSchema-instance" xsi:schemaLocation="http://www.topografix.com/GPX/1/1 http://www.topografix.com/GPX/1/1/gpx.xsd" version="1.1" creator="VisuGPX - https://www.visugpx.com">
  <metadata>
    <name>83-Me-Roquebrune sur Argens</name>
    <desc><![CDATA[83-Me-Roquebrune sur Argens  : Sainte Candie
2020-10-07]]></desc>
  </metadata>
  <trk>
    <name><![CDATA[2020-10-07-roquebrune]]></name>
    <trkseg>
      <trkpt lat="43.4491" lon="6.58008">
        <ele>175.8</ele>
        <time>2020-10-07T12:15:52Z</time>
      </trkpt>
      <trkpt lat="43.44912" lon="6.57998">
        <ele>175.3</ele>
        <time>2020-10-07T12:16:06Z</time>
      </trkpt>
      <trkpt lat="43.44915" lon="6.57994">
        <ele>175.1</ele>
        <time>2020-10-07T12:16:12Z</time>
      </trkpt>
      <trkpt lat="43.44919" lon="6.57992">
        <ele>174.7</ele>
        <time>2020-10-07T12:16:20Z</time>
      </trkpt>
      <trkpt lat="43.44923" lon="6.57992">
        <ele>174.3</ele>
        <time>2020-10-07T12:16:30Z</time>
      </trkpt>
      <trkpt lat="43.44927" lon="6.57992">
        <ele>173.9</ele>
        <time>2020-10-07T12:16:34Z</time>
      </trkpt>
      <trkpt lat="43.44931" lon="6.57992">
        <ele>173.8</ele>
        <time>2020-10-07T12:16:37Z</time>
      </trkpt>
      <trkpt lat="43.44935" lon="6.5799">
        <ele>173.6</ele>
        <time>2020-10-07T12:16:41Z</time>
      </trkpt>
      <trkpt lat="43.44938" lon="6.57986">
        <ele>173.1</ele>
        <time>2020-10-07T12:16:46Z</time>
      </trkpt>
      <trkpt lat="43.44941" lon="6.57982">
        <ele>173.1</ele>
        <time>2020-10-07T12:16:51Z</time>
      </trkpt>
      <trkpt lat="43.44944" lon="6.57979">
        <ele>173</ele>
        <time>2020-10-07T12:16:56Z</time>
      </trkpt>
      <trkpt lat="43.44945" lon="6.57978">
        <ele>173</ele>
        <time>2020-10-07T12:16:57Z</time>
      </trkpt>
      <trkpt lat="43.44951" lon="6.57973">
        <ele>172.7</ele>
        <time>2020-10-07T12:17:05Z</time>
      </trkpt>
      <trkpt lat="43.44954" lon="6.57969">
        <ele>172.5</ele>
        <time>2020-10-07T12:17:09Z</time>
      </trkpt>
      <trkpt lat="43.44957" lon="6.57966">
        <ele>172.2</ele>
        <time>2020-10-07T12:17:13Z</time>
      </trkpt>
      <trkpt lat="43.44961" lon="6.57963">
        <ele>172</ele>
        <time>2020-10-07T12:17:18Z</time>
      </trkpt>
      <trkpt lat="43.44965" lon="6.57961">
        <ele>171.8</ele>
        <time>2020-10-07T12:17:22Z</time>
      </trkpt>
      <trkpt lat="43.44969" lon="6.57962">
        <ele>171.8</ele>
        <time>2020-10-07T12:17:26Z</time>
      </trkpt>
      <trkpt lat="43.44972" lon="6.57962">
        <ele>171.5</ele>
        <time>2020-10-07T12:17:31Z</time>
      </trkpt>
      <trkpt lat="43.44976" lon="6.57963">
        <ele>171.3</ele>
        <time>2020-10-07T12:17:35Z</time>
      </trkpt>
      <trkpt lat="43.44979" lon="6.57965">
        <ele>170.9</ele>
        <time>2020-10-07T12:17:39Z</time>
      </trkpt>
      <trkpt lat="43.44982" lon="6.5797">
        <ele>171</ele>
        <time>2020-10-07T12:17:44Z</time>
      </trkpt>
      <trkpt lat="43.44983" lon="6.57974">
        <ele>171.1</ele>
        <time>2020-10-07T12:17:48Z</time>
      </trkpt>
      <trkpt lat="43.44986" lon="6.5798">
        <ele>170.9</ele>
        <time>2020-10-07T12:17:54Z</time>
      </trkpt>
      <trkpt lat="43.44988" lon="6.57985">
        <ele>170.4</ele>
        <time>2020-10-07T12:17:59Z</time>
      </trkpt>
      <trkpt lat="43.44988" lon="6.57986">
        <ele>170.4</ele>
        <time>2020-10-07T12:18:00Z</time>
      </trkpt>
      <trkpt lat="43.44991" lon="6.57994">
        <ele>170.7</ele>
        <time>2020-10-07T12:18:07Z</time>
      </trkpt>
      <trkpt lat="43.44994" lon="6.57998">
        <ele>170.7</ele>
        <time>2020-10-07T12:18:12Z</time>
      </trkpt>
      <trkpt lat="43.44997" lon="6.57999">
        <ele>170.6</ele>
        <time>2020-10-07T12:18:15Z</time>
      </trkpt>
      <trkpt lat="43.45001" lon="6.58">
        <ele>170.4</ele>
        <time>2020-10-07T12:18:19Z</time>
      </trkpt>
      <trkpt lat="43.45005" lon="6.58001">
        <ele>170.4</ele>
        <time>2020-10-07T12:18:22Z</time>
      </trkpt>
      <trkpt lat="43.45008" lon="6.58002">
        <ele>170.5</ele>
        <time>2020-10-07T12:18:25Z</time>
      </trkpt>
      <trkpt lat="43.45012" lon="6.58004">
        <ele>170.4</ele>
        <time>2020-10-07T12:18:29Z</time>
      </trkpt>
      <trkpt lat="43.45016" lon="6.58005">
        <ele>170</ele>
        <time>2020-10-07T12:18:33Z</time>
      </trkpt>
      <trkpt lat="43.45021" lon="6.58006">
        <ele>169.2</ele>
        <time>2020-10-07T12:18:38Z</time>
      </trkpt>
      <trkpt lat="43.45025" lon="6.58007">
        <ele>168.7</ele>
        <time>2020-10-07T12:18:43Z</time>
      </trkpt>
      <trkpt lat="43.45028" lon="6.58007">
        <ele>168.5</ele>
        <time>2020-10-07T12:18:47Z</time>
      </trkpt>
      <trkpt lat="43.45032" lon="6.58008">
        <ele>168.4</ele>
        <time>2020-10-07T12:18:51Z</time>
      </trkpt>
      <trkpt lat="43.45036" lon="6.58009">
        <ele>167.7</ele>
        <time>2020-10-07T12:18:55Z</time>
      </trkpt>
      <trkpt lat="43.4504" lon="6.58011">
        <ele>167.6</ele>
        <time>2020-10-07T12:18:59Z</time>
      </trkpt>
      <trkpt lat="43.45044" lon="6.58013">
        <ele>167.4</ele>
        <time>2020-10-07T12:19:03Z</time>
      </trkpt>
      <trkpt lat="43.45044" lon="6.58013">
        <ele>167.4</ele>
        <time>2020-10-07T12:19:04Z</time>
      </trkpt>
      <trkpt lat="43.45051" lon="6.58017">
        <ele>167.4</ele>
        <time>2020-10-07T12:19:12Z</time>
      </trkpt>
      <trkpt lat="43.45054" lon="6.58018">
        <ele>167.4</ele>
        <time>2020-10-07T12:19:16Z</time>
      </trkpt>
      <trkpt lat="43.45058" lon="6.58021">
        <ele>167.3</ele>
        <time>2020-10-07T12:19:20Z</time>
      </trkpt>
      <trkpt lat="43.45061" lon="6.58023">
        <ele>167.1</ele>
        <time>2020-10-07T12:19:24Z</time>
      </trkpt>
      <trkpt lat="43.45064" lon="6.58025">
        <ele>167.1</ele>
        <time>2020-10-07T12:19:27Z</time>
      </trkpt>
      <trkpt lat="43.45068" lon="6.58027">
        <ele>167.1</ele>
        <time>2020-10-07T12:19:31Z</time>
      </trkpt>
      <trkpt lat="43.45072" lon="6.58027">
        <ele>166.8</ele>
        <time>2020-10-07T12:19:35Z</time>
      </trkpt>
      <trkpt lat="43.45076" lon="6.58024">
        <ele>167</ele>
        <time>2020-10-07T12:19:40Z</time>
      </trkpt>
      <trkpt lat="43.4508" lon="6.58023">
        <ele>167.2</ele>
        <time>2020-10-07T12:19:45Z</time>
      </trkpt>
      <trkpt lat="43.45084" lon="6.58023">
        <ele>167</ele>
        <time>2020-10-07T12:19:50Z</time>
      </trkpt>
      <trkpt lat="43.45088" lon="6.58023">
        <ele>167.5</ele>
        <time>2020-10-07T12:19:54Z</time>
      </trkpt>
      <trkpt lat="43.45091" lon="6.58024">
        <ele>167.9</ele>
        <time>2020-10-07T12:19:57Z</time>
      </trkpt>
      <trkpt lat="43.45095" lon="6.58025">
        <ele>168.5</ele>
        <time>2020-10-07T12:20:01Z</time>
      </trkpt>
      <trkpt lat="43.45098" lon="6.5803">
        <ele>169.6</ele>
        <time>2020-10-07T12:20:07Z</time>
      </trkpt>
      <trkpt lat="43.45098" lon="6.58031">
        <ele>169.7</ele>
        <time>2020-10-07T12:20:08Z</time>
      </trkpt>
      <trkpt lat="43.45099" lon="6.58041">
        <ele>169.6</ele>
        <time>2020-10-07T12:20:15Z</time>
      </trkpt>
      <trkpt lat="43.451" lon="6.58045">
        <ele>169.9</ele>
        <time>2020-10-07T12:20:18Z</time>
      </trkpt>
      <trkpt lat="43.45102" lon="6.5805">
        <ele>170.2</ele>
        <time>2020-10-07T12:20:22Z</time>
      </trkpt>
      <trkpt lat="43.45105" lon="6.58055">
        <ele>170.3</ele>
        <time>2020-10-07T12:20:26Z</time>
      </trkpt>
      <trkpt lat="43.45108" lon="6.58059">
        <ele>170.5</ele>
        <time>2020-10-07T12:20:30Z</time>
      </trkpt>
      <trkpt lat="43.45112" lon="6.58062">
        <ele>170.8</ele>
        <time>2020-10-07T12:20:35Z</time>
      </trkpt>
      <trkpt lat="43.45116" lon="6.58063">
        <ele>171.1</ele>
        <time>2020-10-07T12:20:40Z</time>
      </trkpt>
      <trkpt lat="43.4512" lon="6.58065">
        <ele>171.6</ele>
        <time>2020-10-07T12:20:45Z</time>
      </trkpt>
      <trkpt lat="43.45123" lon="6.58067">
        <ele>171.8</ele>
        <time>2020-10-07T12:20:49Z</time>
      </trkpt>
      <trkpt lat="43.45127" lon="6.58069">
        <ele>172</ele>
        <time>2020-10-07T12:20:53Z</time>
      </trkpt>
      <trkpt lat="43.4513" lon="6.58071">
        <ele>172.3</ele>
        <time>2020-10-07T12:20:57Z</time>
      </trkpt>
      <trkpt lat="43.45134" lon="6.58074">
        <ele>172.6</ele>
        <time>2020-10-07T12:21:01Z</time>
      </trkpt>
      <trkpt lat="43.45137" lon="6.58076">
        <ele>172.8</ele>
        <time>2020-10-07T12:21:06Z</time>
      </trkpt>
      <trkpt lat="43.45141" lon="6.58079">
        <ele>173.3</ele>
        <time>2020-10-07T12:21:11Z</time>
      </trkpt>
      <trkpt lat="43.45142" lon="6.58079">
        <ele>173.2</ele>
        <time>2020-10-07T12:21:12Z</time>
      </trkpt>
      <trkpt lat="43.45148" lon="6.58084">
        <ele>173.8</ele>
        <time>2020-10-07T12:21:21Z</time>
      </trkpt>
      <trkpt lat="43.45152" lon="6.58087">
        <ele>174.2</ele>
        <time>2020-10-07T12:21:26Z</time>
      </trkpt>
      <trkpt lat="43.45155" lon="6.5809">
        <ele>175</ele>
        <time>2020-10-07T12:21:31Z</time>
      </trkpt>
      <trkpt lat="43.45159" lon="6.58093">
        <ele>175.7</ele>
        <time>2020-10-07T12:21:36Z</time>
      </trkpt>
      <trkpt lat="43.45162" lon="6.58097">
        <ele>176</ele>
        <time>2020-10-07T12:21:41Z</time>
      </trkpt>
      <trkpt lat="43.45165" lon="6.58101">
        <ele>176.8</ele>
        <time>2020-10-07T12:21:46Z</time>
      </trkpt>
      <trkpt lat="43.45167" lon="6.58104">
        <ele>177.6</ele>
        <time>2020-10-07T12:21:51Z</time>
      </trkpt>
      <trkpt lat="43.4517" lon="6.58108">
        <ele>178.2</ele>
        <time>2020-10-07T12:21:55Z</time>
      </trkpt>
      <trkpt lat="43.45173" lon="6.58111">
        <ele>178.6</ele>
        <time>2020-10-07T12:21:59Z</time>
      </trkpt>
      <trkpt lat="43.45175" lon="6.58115">
        <ele>179.2</ele>
        <time>2020-10-07T12:22:04Z</time>
      </trkpt>
      <trkpt lat="43.45179" lon="6.58119">
        <ele>179.6</ele>
        <time>2020-10-07T12:22:10Z</time>
      </trkpt>
      <trkpt lat="43.45183" lon="6.58121">
        <ele>180.1</ele>
        <time>2020-10-07T12:22:16Z</time>
      </trkpt>
      <trkpt lat="43.45183" lon="6.5812">
        <ele>180.2</ele>
        <time>2020-10-07T12:22:17Z</time>
      </trkpt>
      <trkpt lat="43.4519" lon="6.58115">
        <ele>183.5</ele>
        <time>2020-10-07T12:22:46Z</time>
      </trkpt>
      <trkpt lat="43.45189" lon="6.58121">
        <ele>183.8</ele>
        <time>2020-10-07T12:23:27Z</time>
      </trkpt>
      <trkpt lat="43.45189" lon="6.58122">
        <ele>183.7</ele>
        <time>2020-10-07T12:23:28Z</time>
      </trkpt>
      <trkpt lat="43.45195" lon="6.58128">
        <ele>183.2</ele>
        <time>2020-10-07T12:23:40Z</time>
      </trkpt>
      <trkpt lat="43.45199" lon="6.58128">
        <ele>183.5</ele>
        <time>2020-10-07T12:23:46Z</time>
      </trkpt>
      <trkpt lat="43.45203" lon="6.58129">
        <ele>183.8</ele>
        <time>2020-10-07T12:23:52Z</time>
      </trkpt>
      <trkpt lat="43.45207" lon="6.58131">
        <ele>184.6</ele>
        <time>2020-10-07T12:24:00Z</time>
      </trkpt>
      <trkpt lat="43.45211" lon="6.58133">
        <ele>185.5</ele>
        <time>2020-10-07T12:24:09Z</time>
      </trkpt>
      <trkpt lat="43.45216" lon="6.58133">
        <ele>186.7</ele>
        <time>2020-10-07T12:24:19Z</time>
      </trkpt>
      <trkpt lat="43.4522" lon="6.58133">
        <ele>187.6</ele>
        <time>2020-10-07T12:24:25Z</time>
      </trkpt>
      <trkpt lat="43.45223" lon="6.5813">
        <ele>188.4</ele>
        <time>2020-10-07T12:24:32Z</time>
      </trkpt>
      <trkpt lat="43.45224" lon="6.5813">
        <ele>188.5</ele>
        <time>2020-10-07T12:24:33Z</time>
      </trkpt>
      <trkpt lat="43.45231" lon="6.58129">
        <ele>190.4</ele>
        <time>2020-10-07T12:24:49Z</time>
      </trkpt>
      <trkpt lat="43.45235" lon="6.5813">
        <ele>191.2</ele>
        <time>2020-10-07T12:24:58Z</time>
      </trkpt>
      <trkpt lat="43.4524" lon="6.58131">
        <ele>192.7</ele>
        <time>2020-10-07T12:25:09Z</time>
      </trkpt>
      <trkpt lat="43.45244" lon="6.58132">
        <ele>194</ele>
        <time>2020-10-07T12:25:18Z</time>
      </trkpt>
      <trkpt lat="43.45247" lon="6.58136">
        <ele>194.9</ele>
        <time>2020-10-07T12:25:24Z</time>
      </trkpt>
      <trkpt lat="43.45248" lon="6.58142">
        <ele>195.5</ele>
        <time>2020-10-07T12:25:29Z</time>
      </trkpt>
      <trkpt lat="43.45249" lon="6.58147">
        <ele>195.4</ele>
        <time>2020-10-07T12:25:33Z</time>
      </trkpt>
      <trkpt lat="43.45249" lon="6.58149">
        <ele>195.5</ele>
        <time>2020-10-07T12:25:34Z</time>
      </trkpt>
      <trkpt lat="43.45251" lon="6.58158">
        <ele>194.8</ele>
        <time>2020-10-07T12:25:41Z</time>
      </trkpt>
      <trkpt lat="43.45251" lon="6.58163">
        <ele>194.7</ele>
        <time>2020-10-07T12:25:45Z</time>
      </trkpt>
      <trkpt lat="43.45251" lon="6.58169">
        <ele>194.4</ele>
        <time>2020-10-07T12:25:49Z</time>
      </trkpt>
      <trkpt lat="43.45251" lon="6.58175">
        <ele>194.7</ele>
        <time>2020-10-07T12:25:53Z</time>
      </trkpt>
      <trkpt lat="43.4525" lon="6.58181">
        <ele>194.5</ele>
        <time>2020-10-07T12:25:58Z</time>
      </trkpt>
      <trkpt lat="43.4525" lon="6.58187">
        <ele>194.6</ele>
        <time>2020-10-07T12:26:03Z</time>
      </trkpt>
      <trkpt lat="43.45249" lon="6.58192">
        <ele>194.5</ele>
        <time>2020-10-07T12:26:07Z</time>
      </trkpt>
      <trkpt lat="43.45249" lon="6.58197">
        <ele>194.4</ele>
        <time>2020-10-07T12:26:11Z</time>
      </trkpt>
      <trkpt lat="43.45249" lon="6.58203">
        <ele>194.3</ele>
        <time>2020-10-07T12:26:15Z</time>
      </trkpt>
      <trkpt lat="43.45249" lon="6.58208">
        <ele>194.2</ele>
        <time>2020-10-07T12:26:18Z</time>
      </trkpt>
      <trkpt lat="43.45249" lon="6.58213">
        <ele>194.1</ele>
        <time>2020-10-07T12:26:22Z</time>
      </trkpt>
      <trkpt lat="43.45249" lon="6.58219">
        <ele>194.1</ele>
        <time>2020-10-07T12:26:25Z</time>
      </trkpt>
      <trkpt lat="43.45248" lon="6.58224">
        <ele>194</ele>
        <time>2020-10-07T12:26:28Z</time>
      </trkpt>
      <trkpt lat="43.45248" lon="6.58229">
        <ele>194</ele>
        <time>2020-10-07T12:26:32Z</time>
      </trkpt>
      <trkpt lat="43.45248" lon="6.58235">
        <ele>193.5</ele>
        <time>2020-10-07T12:26:36Z</time>
      </trkpt>
      <trkpt lat="43.45248" lon="6.58237">
        <ele>193.3</ele>
        <time>2020-10-07T12:26:37Z</time>
      </trkpt>
      <trkpt lat="43.45247" lon="6.58245">
        <ele>193.2</ele>
        <time>2020-10-07T12:26:42Z</time>
      </trkpt>
      <trkpt lat="43.45247" lon="6.58251">
        <ele>193</ele>
        <time>2020-10-07T12:26:46Z</time>
      </trkpt>
      <trkpt lat="43.45246" lon="6.58256">
        <ele>192.5</ele>
        <time>2020-10-07T12:26:50Z</time>
      </trkpt>
      <trkpt lat="43.45246" lon="6.58261">
        <ele>192.4</ele>
        <time>2020-10-07T12:26:54Z</time>
      </trkpt>
      <trkpt lat="43.45247" lon="6.58267">
        <ele>192.5</ele>
        <time>2020-10-07T12:26:58Z</time>
      </trkpt>
      <trkpt lat="43.45248" lon="6.58273">
        <ele>192.4</ele>
        <time>2020-10-07T12:27:02Z</time>
      </trkpt>
      <trkpt lat="43.45249" lon="6.58279">
        <ele>192.3</ele>
        <time>2020-10-07T12:27:06Z</time>
      </trkpt>
      <trkpt lat="43.45248" lon="6.58285">
        <ele>192.1</ele>
        <time>2020-10-07T12:27:10Z</time>
      </trkpt>
      <trkpt lat="43.45249" lon="6.5829">
        <ele>192.3</ele>
        <time>2020-10-07T12:27:14Z</time>
      </trkpt>
      <trkpt lat="43.4525" lon="6.58295">
        <ele>192.4</ele>
        <time>2020-10-07T12:27:18Z</time>
      </trkpt>
      <trkpt lat="43.4525" lon="6.58301">
        <ele>192.2</ele>
        <time>2020-10-07T12:27:21Z</time>
      </trkpt>
      <trkpt lat="43.45251" lon="6.58306">
        <ele>192.1</ele>
        <time>2020-10-07T12:27:25Z</time>
      </trkpt>
      <trkpt lat="43.45251" lon="6.58311">
        <ele>192</ele>
        <time>2020-10-07T12:27:30Z</time>
      </trkpt>
      <trkpt lat="43.45252" lon="6.58316">
        <ele>191.8</ele>
        <time>2020-10-07T12:27:34Z</time>
      </trkpt>
      <trkpt lat="43.45254" lon="6.58322">
        <ele>191.8</ele>
        <time>2020-10-07T12:27:39Z</time>
      </trkpt>
      <trkpt lat="43.45255" lon="6.58323">
        <ele>191.9</ele>
        <time>2020-10-07T12:27:40Z</time>
      </trkpt>
      <trkpt lat="43.45258" lon="6.58332">
        <ele>191.8</ele>
        <time>2020-10-07T12:27:51Z</time>
      </trkpt>
      <trkpt lat="43.45259" lon="6.58338">
        <ele>191.5</ele>
        <time>2020-10-07T12:27:57Z</time>
      </trkpt>
      <trkpt lat="43.45259" lon="6.58343">
        <ele>191.3</ele>
        <time>2020-10-07T12:28:01Z</time>
      </trkpt>
      <trkpt lat="43.45259" lon="6.58348">
        <ele>191.2</ele>
        <time>2020-10-07T12:28:04Z</time>
      </trkpt>
      <trkpt lat="43.45258" lon="6.58353">
        <ele>191.1</ele>
        <time>2020-10-07T12:28:07Z</time>
      </trkpt>
      <trkpt lat="43.45257" lon="6.58358">
        <ele>191.2</ele>
        <time>2020-10-07T12:28:10Z</time>
      </trkpt>
      <trkpt lat="43.45256" lon="6.58364">
        <ele>190.8</ele>
        <time>2020-10-07T12:28:14Z</time>
      </trkpt>
      <trkpt lat="43.45255" lon="6.58369">
        <ele>191.1</ele>
        <time>2020-10-07T12:28:19Z</time>
      </trkpt>
      <trkpt lat="43.45253" lon="6.58374">
        <ele>191.3</ele>
        <time>2020-10-07T12:28:23Z</time>
      </trkpt>
      <trkpt lat="43.45252" lon="6.58378">
        <ele>191.4</ele>
        <time>2020-10-07T12:28:26Z</time>
      </trkpt>
      <trkpt lat="43.45249" lon="6.58382">
        <ele>191.4</ele>
        <time>2020-10-07T12:28:29Z</time>
      </trkpt>
      <trkpt lat="43.45246" lon="6.58387">
        <ele>191.1</ele>
        <time>2020-10-07T12:28:32Z</time>
      </trkpt>
      <trkpt lat="43.45244" lon="6.58391">
        <ele>190.9</ele>
        <time>2020-10-07T12:28:35Z</time>
      </trkpt>
      <trkpt lat="43.45241" lon="6.58396">
        <ele>190.8</ele>
        <time>2020-10-07T12:28:39Z</time>
      </trkpt>
      <trkpt lat="43.45238" lon="6.584">
        <ele>190.9</ele>
        <time>2020-10-07T12:28:42Z</time>
      </trkpt>
      <trkpt lat="43.45238" lon="6.58401">
        <ele>190.9</ele>
        <time>2020-10-07T12:28:43Z</time>
      </trkpt>
      <trkpt lat="43.45234" lon="6.58407">
        <ele>190.9</ele>
        <time>2020-10-07T12:28:48Z</time>
      </trkpt>
      <trkpt lat="43.45232" lon="6.58412">
        <ele>190.9</ele>
        <time>2020-10-07T12:28:52Z</time>
      </trkpt>
      <trkpt lat="43.4523" lon="6.58418">
        <ele>190.8</ele>
        <time>2020-10-07T12:28:56Z</time>
      </trkpt>
      <trkpt lat="43.45229" lon="6.58424">
        <ele>190.9</ele>
        <time>2020-10-07T12:29:00Z</time>
      </trkpt>
      <trkpt lat="43.45228" lon="6.58429">
        <ele>191.2</ele>
        <time>2020-10-07T12:29:04Z</time>
      </trkpt>
      <trkpt lat="43.45226" lon="6.58434">
        <ele>191.3</ele>
        <time>2020-10-07T12:29:08Z</time>
      </trkpt>
      <trkpt lat="43.45225" lon="6.58439">
        <ele>191.2</ele>
        <time>2020-10-07T12:29:11Z</time>
      </trkpt>
      <trkpt lat="43.45223" lon="6.58442">
        <ele>191.3</ele>
        <time>2020-10-07T12:29:14Z</time>
      </trkpt>
      <trkpt lat="43.4522" lon="6.58447">
        <ele>191.4</ele>
        <time>2020-10-07T12:29:18Z</time>
      </trkpt>
      <trkpt lat="43.45218" lon="6.5845">
        <ele>191.7</ele>
        <time>2020-10-07T12:29:22Z</time>
      </trkpt>
      <trkpt lat="43.45216" lon="6.58455">
        <ele>191.4</ele>
        <time>2020-10-07T12:29:26Z</time>
      </trkpt>
      <trkpt lat="43.45212" lon="6.58458">
        <ele>191.1</ele>
        <time>2020-10-07T12:29:30Z</time>
      </trkpt>
      <trkpt lat="43.45208" lon="6.58461">
        <ele>190.9</ele>
        <time>2020-10-07T12:29:35Z</time>
      </trkpt>
      <trkpt lat="43.45205" lon="6.58464">
        <ele>190.9</ele>
        <time>2020-10-07T12:29:40Z</time>
      </trkpt>
      <trkpt lat="43.45202" lon="6.58466">
        <ele>191</ele>
        <time>2020-10-07T12:29:44Z</time>
      </trkpt>
      <trkpt lat="43.45201" lon="6.58466">
        <ele>191</ele>
        <time>2020-10-07T12:29:45Z</time>
      </trkpt>
      <trkpt lat="43.45195" lon="6.5847">
        <ele>191.4</ele>
        <time>2020-10-07T12:29:52Z</time>
      </trkpt>
      <trkpt lat="43.45192" lon="6.58472">
        <ele>191.4</ele>
        <time>2020-10-07T12:29:56Z</time>
      </trkpt>
      <trkpt lat="43.45188" lon="6.58474">
        <ele>191.9</ele>
        <time>2020-10-07T12:30:00Z</time>
      </trkpt>
      <trkpt lat="43.45185" lon="6.58477">
        <ele>192.5</ele>
        <time>2020-10-07T12:30:04Z</time>
      </trkpt>
      <trkpt lat="43.45182" lon="6.5848">
        <ele>193.2</ele>
        <time>2020-10-07T12:30:09Z</time>
      </trkpt>
      <trkpt lat="43.45178" lon="6.58484">
        <ele>193.3</ele>
        <time>2020-10-07T12:30:13Z</time>
      </trkpt>
      <trkpt lat="43.45176" lon="6.58489">
        <ele>193.5</ele>
        <time>2020-10-07T12:30:17Z</time>
      </trkpt>
      <trkpt lat="43.45173" lon="6.58493">
        <ele>193.2</ele>
        <time>2020-10-07T12:30:21Z</time>
      </trkpt>
      <trkpt lat="43.45171" lon="6.58497">
        <ele>193.6</ele>
        <time>2020-10-07T12:30:24Z</time>
      </trkpt>
      <trkpt lat="43.45169" lon="6.58501">
        <ele>193.9</ele>
        <time>2020-10-07T12:30:27Z</time>
      </trkpt>
      <trkpt lat="43.45168" lon="6.58506">
        <ele>194</ele>
        <time>2020-10-07T12:30:31Z</time>
      </trkpt>
      <trkpt lat="43.45166" lon="6.5851">
        <ele>194.2</ele>
        <time>2020-10-07T12:30:34Z</time>
      </trkpt>
      <trkpt lat="43.45164" lon="6.58514">
        <ele>194.4</ele>
        <time>2020-10-07T12:30:37Z</time>
      </trkpt>
      <trkpt lat="43.45162" lon="6.58519">
        <ele>194.7</ele>
        <time>2020-10-07T12:30:41Z</time>
      </trkpt>
      <trkpt lat="43.45161" lon="6.58525">
        <ele>194.9</ele>
        <time>2020-10-07T12:30:45Z</time>
      </trkpt>
      <trkpt lat="43.45161" lon="6.58526">
        <ele>194.9</ele>
        <time>2020-10-07T12:30:46Z</time>
      </trkpt>
      <trkpt lat="43.45158" lon="6.58535">
        <ele>194.8</ele>
        <time>2020-10-07T12:30:52Z</time>
      </trkpt>
      <trkpt lat="43.45157" lon="6.58541">
        <ele>194.7</ele>
        <time>2020-10-07T12:30:56Z</time>
      </trkpt>
      <trkpt lat="43.45155" lon="6.58545">
        <ele>194.6</ele>
        <time>2020-10-07T12:30:59Z</time>
      </trkpt>
      <trkpt lat="43.45154" lon="6.58551">
        <ele>194.6</ele>
        <time>2020-10-07T12:31:03Z</time>
      </trkpt>
      <trkpt lat="43.45154" lon="6.58556">
        <ele>194.6</ele>
        <time>2020-10-07T12:31:07Z</time>
      </trkpt>
      <trkpt lat="43.45154" lon="6.58561">
        <ele>194.9</ele>
        <time>2020-10-07T12:31:12Z</time>
      </trkpt>
      <trkpt lat="43.45154" lon="6.58567">
        <ele>195.3</ele>
        <time>2020-10-07T12:31:17Z</time>
      </trkpt>
      <trkpt lat="43.45154" lon="6.58572">
        <ele>196</ele>
        <time>2020-10-07T12:31:22Z</time>
      </trkpt>
      <trkpt lat="43.45155" lon="6.58578">
        <ele>196.3</ele>
        <time>2020-10-07T12:31:27Z</time>
      </trkpt>
      <trkpt lat="43.45156" lon="6.58584">
        <ele>196.5</ele>
        <time>2020-10-07T12:31:33Z</time>
      </trkpt>
      <trkpt lat="43.45156" lon="6.5859">
        <ele>197</ele>
        <time>2020-10-07T12:31:38Z</time>
      </trkpt>
      <trkpt lat="43.45156" lon="6.58596">
        <ele>197.4</ele>
        <time>2020-10-07T12:31:42Z</time>
      </trkpt>
      <trkpt lat="43.45156" lon="6.58601">
        <ele>197.6</ele>
        <time>2020-10-07T12:31:45Z</time>
      </trkpt>
      <trkpt lat="43.45157" lon="6.58607">
        <ele>197.5</ele>
        <time>2020-10-07T12:31:50Z</time>
      </trkpt>
      <trkpt lat="43.45156" lon="6.58608">
        <ele>197.4</ele>
        <time>2020-10-07T12:31:51Z</time>
      </trkpt>
      <trkpt lat="43.45155" lon="6.58617">
        <ele>196.7</ele>
        <time>2020-10-07T12:31:58Z</time>
      </trkpt>
      <trkpt lat="43.45154" lon="6.58623">
        <ele>196.5</ele>
        <time>2020-10-07T12:32:03Z</time>
      </trkpt>
      <trkpt lat="43.45152" lon="6.58628">
        <ele>196.5</ele>
        <time>2020-10-07T12:32:09Z</time>
      </trkpt>
      <trkpt lat="43.4515" lon="6.58633">
        <ele>196.6</ele>
        <time>2020-10-07T12:32:13Z</time>
      </trkpt>
      <trkpt lat="43.45149" lon="6.58639">
        <ele>196.6</ele>
        <time>2020-10-07T12:32:18Z</time>
      </trkpt>
      <trkpt lat="43.45148" lon="6.58644">
        <ele>196.9</ele>
        <time>2020-10-07T12:32:23Z</time>
      </trkpt>
      <trkpt lat="43.45147" lon="6.5865">
        <ele>197.6</ele>
        <time>2020-10-07T12:32:28Z</time>
      </trkpt>
      <trkpt lat="43.45145" lon="6.58654">
        <ele>197.7</ele>
        <time>2020-10-07T12:32:31Z</time>
      </trkpt>
      <trkpt lat="43.45143" lon="6.5866">
        <ele>198</ele>
        <time>2020-10-07T12:32:35Z</time>
      </trkpt>
      <trkpt lat="43.45141" lon="6.58664">
        <ele>198.3</ele>
        <time>2020-10-07T12:32:39Z</time>
      </trkpt>
      <trkpt lat="43.45139" lon="6.58669">
        <ele>198.5</ele>
        <time>2020-10-07T12:32:43Z</time>
      </trkpt>
      <trkpt lat="43.45137" lon="6.58673">
        <ele>198.5</ele>
        <time>2020-10-07T12:32:47Z</time>
      </trkpt>
      <trkpt lat="43.45134" lon="6.58678">
        <ele>198.5</ele>
        <time>2020-10-07T12:32:51Z</time>
      </trkpt>
      <trkpt lat="43.45133" lon="6.58679">
        <ele>198.6</ele>
        <time>2020-10-07T12:32:52Z</time>
      </trkpt>
      <trkpt lat="43.45129" lon="6.58686">
        <ele>198.5</ele>
        <time>2020-10-07T12:32:58Z</time>
      </trkpt>
      <trkpt lat="43.45127" lon="6.58689">
        <ele>198.5</ele>
        <time>2020-10-07T12:33:01Z</time>
      </trkpt>
      <trkpt lat="43.45124" lon="6.58692">
        <ele>198.6</ele>
        <time>2020-10-07T12:33:04Z</time>
      </trkpt>
      <trkpt lat="43.45122" lon="6.58696">
        <ele>198.9</ele>
        <time>2020-10-07T12:33:07Z</time>
      </trkpt>
      <trkpt lat="43.45119" lon="6.58699">
        <ele>199.1</ele>
        <time>2020-10-07T12:33:10Z</time>
      </trkpt>
      <trkpt lat="43.45116" lon="6.58703">
        <ele>199</ele>
        <time>2020-10-07T12:33:13Z</time>
      </trkpt>
      <trkpt lat="43.45113" lon="6.58707">
        <ele>198.7</ele>
        <time>2020-10-07T12:33:17Z</time>
      </trkpt>
      <trkpt lat="43.4511" lon="6.5871">
        <ele>198.9</ele>
        <time>2020-10-07T12:33:20Z</time>
      </trkpt>
      <trkpt lat="43.45107" lon="6.58714">
        <ele>199.3</ele>
        <time>2020-10-07T12:33:24Z</time>
      </trkpt>
      <trkpt lat="43.45105" lon="6.58719">
        <ele>199.5</ele>
        <time>2020-10-07T12:33:28Z</time>
      </trkpt>
      <trkpt lat="43.45103" lon="6.58722">
        <ele>199.5</ele>
        <time>2020-10-07T12:33:31Z</time>
      </trkpt>
      <trkpt lat="43.451" lon="6.58727">
        <ele>199.6</ele>
        <time>2020-10-07T12:33:35Z</time>
      </trkpt>
      <trkpt lat="43.45097" lon="6.58731">
        <ele>199.7</ele>
        <time>2020-10-07T12:33:39Z</time>
      </trkpt>
      <trkpt lat="43.45095" lon="6.58735">
        <ele>199.7</ele>
        <time>2020-10-07T12:33:43Z</time>
      </trkpt>
      <trkpt lat="43.45093" lon="6.58741">
        <ele>199.6</ele>
        <time>2020-10-07T12:33:47Z</time>
      </trkpt>
      <trkpt lat="43.4509" lon="6.58744">
        <ele>199.5</ele>
        <time>2020-10-07T12:33:50Z</time>
      </trkpt>
      <trkpt lat="43.45087" lon="6.58746">
        <ele>199.5</ele>
        <time>2020-10-07T12:33:53Z</time>
      </trkpt>
      <trkpt lat="43.45087" lon="6.58747">
        <ele>199.7</ele>
        <time>2020-10-07T12:33:54Z</time>
      </trkpt>
      <trkpt lat="43.45081" lon="6.58755">
        <ele>199.8</ele>
        <time>2020-10-07T12:34:03Z</time>
      </trkpt>
      <trkpt lat="43.45079" lon="6.58759">
        <ele>199.7</ele>
        <time>2020-10-07T12:34:08Z</time>
      </trkpt>
      <trkpt lat="43.45077" lon="6.58764">
        <ele>199.5</ele>
        <time>2020-10-07T12:34:12Z</time>
      </trkpt>
      <trkpt lat="43.45074" lon="6.58768">
        <ele>199.1</ele>
        <time>2020-10-07T12:34:16Z</time>
      </trkpt>
      <trkpt lat="43.45071" lon="6.58772">
        <ele>199.1</ele>
        <time>2020-10-07T12:34:20Z</time>
      </trkpt>
      <trkpt lat="43.45068" lon="6.58776">
        <ele>198.8</ele>
        <time>2020-10-07T12:34:24Z</time>
      </trkpt>
      <trkpt lat="43.45065" lon="6.5878">
        <ele>198.7</ele>
        <time>2020-10-07T12:34:28Z</time>
      </trkpt>
      <trkpt lat="43.45062" lon="6.58783">
        <ele>198.2</ele>
        <time>2020-10-07T12:34:31Z</time>
      </trkpt>
      <trkpt lat="43.45059" lon="6.58788">
        <ele>197.8</ele>
        <time>2020-10-07T12:34:36Z</time>
      </trkpt>
      <trkpt lat="43.45056" lon="6.58791">
        <ele>197.2</ele>
        <time>2020-10-07T12:34:41Z</time>
      </trkpt>
      <trkpt lat="43.45053" lon="6.58794">
        <ele>196.9</ele>
        <time>2020-10-07T12:34:44Z</time>
      </trkpt>
      <trkpt lat="43.4505" lon="6.58797">
        <ele>196.8</ele>
        <time>2020-10-07T12:34:48Z</time>
      </trkpt>
      <trkpt lat="43.45047" lon="6.588">
        <ele>196.6</ele>
        <time>2020-10-07T12:34:52Z</time>
      </trkpt>
      <trkpt lat="43.45043" lon="6.58804">
        <ele>196.6</ele>
        <time>2020-10-07T12:34:56Z</time>
      </trkpt>
      <trkpt lat="43.45042" lon="6.58805">
        <ele>196.6</ele>
        <time>2020-10-07T12:34:57Z</time>
      </trkpt>
      <trkpt lat="43.45037" lon="6.58809">
        <ele>197.2</ele>
        <time>2020-10-07T12:35:02Z</time>
      </trkpt>
      <trkpt lat="43.45034" lon="6.58812">
        <ele>197</ele>
        <time>2020-10-07T12:35:05Z</time>
      </trkpt>
      <trkpt lat="43.4503" lon="6.58815">
        <ele>197.1</ele>
        <time>2020-10-07T12:35:09Z</time>
      </trkpt>
      <trkpt lat="43.45027" lon="6.58817">
        <ele>196.7</ele>
        <time>2020-10-07T12:35:13Z</time>
      </trkpt>
      <trkpt lat="43.45023" lon="6.58821">
        <ele>196.4</ele>
        <time>2020-10-07T12:35:17Z</time>
      </trkpt>
      <trkpt lat="43.4502" lon="6.58824">
        <ele>196.1</ele>
        <time>2020-10-07T12:35:23Z</time>
      </trkpt>
      <trkpt lat="43.45017" lon="6.58829">
        <ele>195.8</ele>
        <time>2020-10-07T12:35:29Z</time>
      </trkpt>
      <trkpt lat="43.45014" lon="6.58833">
        <ele>195.3</ele>
        <time>2020-10-07T12:35:34Z</time>
      </trkpt>
      <trkpt lat="43.45012" lon="6.58837">
        <ele>195.2</ele>
        <time>2020-10-07T12:35:38Z</time>
      </trkpt>
      <trkpt lat="43.45008" lon="6.58841">
        <ele>194.9</ele>
        <time>2020-10-07T12:35:42Z</time>
      </trkpt>
      <trkpt lat="43.45006" lon="6.58846">
        <ele>194.3</ele>
        <time>2020-10-07T12:35:47Z</time>
      </trkpt>
      <trkpt lat="43.45003" lon="6.5885">
        <ele>193.7</ele>
        <time>2020-10-07T12:35:52Z</time>
      </trkpt>
      <trkpt lat="43.45" lon="6.58854">
        <ele>193.3</ele>
        <time>2020-10-07T12:35:57Z</time>
      </trkpt>
      <trkpt lat="43.44999" lon="6.58855">
        <ele>193.2</ele>
        <time>2020-10-07T12:35:58Z</time>
      </trkpt>
      <trkpt lat="43.44994" lon="6.58861">
        <ele>192</ele>
        <time>2020-10-07T12:36:06Z</time>
      </trkpt>
      <trkpt lat="43.44991" lon="6.58865">
        <ele>191.4</ele>
        <time>2020-10-07T12:36:11Z</time>
      </trkpt>
      <trkpt lat="43.44987" lon="6.58867">
        <ele>191</ele>
        <time>2020-10-07T12:36:17Z</time>
      </trkpt>
      <trkpt lat="43.44984" lon="6.58871">
        <ele>190.6</ele>
        <time>2020-10-07T12:36:24Z</time>
      </trkpt>
      <trkpt lat="43.44981" lon="6.58875">
        <ele>190.2</ele>
        <time>2020-10-07T12:36:32Z</time>
      </trkpt>
      <trkpt lat="43.44977" lon="6.58879">
        <ele>189.9</ele>
        <time>2020-10-07T12:36:37Z</time>
      </trkpt>
      <trkpt lat="43.44974" lon="6.58882">
        <ele>189.6</ele>
        <time>2020-10-07T12:36:43Z</time>
      </trkpt>
      <trkpt lat="43.44971" lon="6.58885">
        <ele>189</ele>
        <time>2020-10-07T12:36:46Z</time>
      </trkpt>
      <trkpt lat="43.44968" lon="6.58888">
        <ele>188.4</ele>
        <time>2020-10-07T12:36:50Z</time>
      </trkpt>
      <trkpt lat="43.44965" lon="6.58891">
        <ele>187.8</ele>
        <time>2020-10-07T12:37:04Z</time>
      </trkpt>
      <trkpt lat="43.44964" lon="6.58892">
        <ele>187.7</ele>
        <time>2020-10-07T12:37:05Z</time>
      </trkpt>
      <trkpt lat="43.44958" lon="6.58895">
        <ele>187.6</ele>
        <time>2020-10-07T12:37:12Z</time>
      </trkpt>
      <trkpt lat="43.44954" lon="6.58896">
        <ele>187.3</ele>
        <time>2020-10-07T12:37:17Z</time>
      </trkpt>
      <trkpt lat="43.44951" lon="6.58899">
        <ele>187.2</ele>
        <time>2020-10-07T12:37:22Z</time>
      </trkpt>
      <trkpt lat="43.44947" lon="6.589">
        <ele>187.3</ele>
        <time>2020-10-07T12:37:25Z</time>
      </trkpt>
      <trkpt lat="43.44944" lon="6.58904">
        <ele>187.3</ele>
        <time>2020-10-07T12:37:29Z</time>
      </trkpt>
      <trkpt lat="43.44943" lon="6.58909">
        <ele>187.1</ele>
        <time>2020-10-07T12:37:34Z</time>
      </trkpt>
      <trkpt lat="43.4494" lon="6.58913">
        <ele>187.4</ele>
        <time>2020-10-07T12:37:39Z</time>
      </trkpt>
      <trkpt lat="43.44937" lon="6.58917">
        <ele>187.5</ele>
        <time>2020-10-07T12:37:43Z</time>
      </trkpt>
      <trkpt lat="43.44935" lon="6.58922">
        <ele>187.7</ele>
        <time>2020-10-07T12:37:48Z</time>
      </trkpt>
      <trkpt lat="43.44934" lon="6.58928">
        <ele>187.9</ele>
        <time>2020-10-07T12:37:53Z</time>
      </trkpt>
      <trkpt lat="43.44933" lon="6.58932">
        <ele>187.9</ele>
        <time>2020-10-07T12:37:56Z</time>
      </trkpt>
      <trkpt lat="43.44931" lon="6.58937">
        <ele>188</ele>
        <time>2020-10-07T12:37:59Z</time>
      </trkpt>
      <trkpt lat="43.44929" lon="6.58941">
        <ele>188</ele>
        <time>2020-10-07T12:38:02Z</time>
      </trkpt>
      <trkpt lat="43.44928" lon="6.58946">
        <ele>188.1</ele>
        <time>2020-10-07T12:38:06Z</time>
      </trkpt>
      <trkpt lat="43.44927" lon="6.58947">
        <ele>188.1</ele>
        <time>2020-10-07T12:38:07Z</time>
      </trkpt>
      <trkpt lat="43.44924" lon="6.58956">
        <ele>188</ele>
        <time>2020-10-07T12:38:14Z</time>
      </trkpt>
      <trkpt lat="43.44922" lon="6.58961">
        <ele>188.3</ele>
        <time>2020-10-07T12:38:19Z</time>
      </trkpt>
      <trkpt lat="43.44921" lon="6.58967">
        <ele>188.5</ele>
        <time>2020-10-07T12:38:24Z</time>
      </trkpt>
      <trkpt lat="43.4492" lon="6.58972">
        <ele>188.5</ele>
        <time>2020-10-07T12:38:28Z</time>
      </trkpt>
      <trkpt lat="43.44919" lon="6.58977">
        <ele>188.4</ele>
        <time>2020-10-07T12:38:32Z</time>
      </trkpt>
      <trkpt lat="43.44919" lon="6.58983">
        <ele>188.8</ele>
        <time>2020-10-07T12:38:39Z</time>
      </trkpt>
      <trkpt lat="43.44917" lon="6.58988">
        <ele>189</ele>
        <time>2020-10-07T12:38:43Z</time>
      </trkpt>
      <trkpt lat="43.44916" lon="6.58993">
        <ele>189.2</ele>
        <time>2020-10-07T12:38:47Z</time>
      </trkpt>
      <trkpt lat="43.44914" lon="6.58998">
        <ele>189.2</ele>
        <time>2020-10-07T12:38:51Z</time>
      </trkpt>
      <trkpt lat="43.44913" lon="6.59003">
        <ele>189.7</ele>
        <time>2020-10-07T12:38:56Z</time>
      </trkpt>
      <trkpt lat="43.44911" lon="6.59008">
        <ele>190</ele>
        <time>2020-10-07T12:39:01Z</time>
      </trkpt>
      <trkpt lat="43.4491" lon="6.59013">
        <ele>190</ele>
        <time>2020-10-07T12:39:06Z</time>
      </trkpt>
      <trkpt lat="43.44908" lon="6.59019">
        <ele>190.2</ele>
        <time>2020-10-07T12:39:10Z</time>
      </trkpt>
      <trkpt lat="43.44908" lon="6.5902">
        <ele>190.4</ele>
        <time>2020-10-07T12:39:11Z</time>
      </trkpt>
      <trkpt lat="43.44905" lon="6.59028">
        <ele>191.2</ele>
        <time>2020-10-07T12:39:19Z</time>
      </trkpt>
      <trkpt lat="43.44904" lon="6.59034">
        <ele>191.5</ele>
        <time>2020-10-07T12:39:24Z</time>
      </trkpt>
      <trkpt lat="43.44903" lon="6.59039">
        <ele>191.8</ele>
        <time>2020-10-07T12:39:28Z</time>
      </trkpt>
      <trkpt lat="43.44901" lon="6.59044">
        <ele>192.2</ele>
        <time>2020-10-07T12:39:32Z</time>
      </trkpt>
      <trkpt lat="43.449" lon="6.59049">
        <ele>192.5</ele>
        <time>2020-10-07T12:39:36Z</time>
      </trkpt>
      <trkpt lat="43.44899" lon="6.59055">
        <ele>193.2</ele>
        <time>2020-10-07T12:39:41Z</time>
      </trkpt>
      <trkpt lat="43.44898" lon="6.59059">
        <ele>193.8</ele>
        <time>2020-10-07T12:39:45Z</time>
      </trkpt>
      <trkpt lat="43.44896" lon="6.59064">
        <ele>194</ele>
        <time>2020-10-07T12:39:48Z</time>
      </trkpt>
      <trkpt lat="43.44894" lon="6.59069">
        <ele>194.1</ele>
        <time>2020-10-07T12:39:52Z</time>
      </trkpt>
      <trkpt lat="43.44892" lon="6.59075">
        <ele>194.7</ele>
        <time>2020-10-07T12:39:57Z</time>
      </trkpt>
      <trkpt lat="43.4489" lon="6.5908">
        <ele>195.1</ele>
        <time>2020-10-07T12:40:06Z</time>
      </trkpt>
      <trkpt lat="43.44889" lon="6.59085">
        <ele>195.5</ele>
        <time>2020-10-07T12:40:14Z</time>
      </trkpt>
      <trkpt lat="43.44888" lon="6.59087">
        <ele>195.5</ele>
        <time>2020-10-07T12:40:15Z</time>
      </trkpt>
      <trkpt lat="43.44884" lon="6.59095">
        <ele>196.2</ele>
        <time>2020-10-07T12:40:24Z</time>
      </trkpt>
      <trkpt lat="43.44881" lon="6.59099">
        <ele>196.9</ele>
        <time>2020-10-07T12:40:32Z</time>
      </trkpt>
      <trkpt lat="43.4488" lon="6.59104">
        <ele>196.8</ele>
        <time>2020-10-07T12:40:36Z</time>
      </trkpt>
      <trkpt lat="43.44878" lon="6.59109">
        <ele>197.4</ele>
        <time>2020-10-07T12:40:41Z</time>
      </trkpt>
      <trkpt lat="43.44876" lon="6.59114">
        <ele>197.6</ele>
        <time>2020-10-07T12:40:45Z</time>
      </trkpt>
      <trkpt lat="43.44873" lon="6.59118">
        <ele>197.8</ele>
        <time>2020-10-07T12:40:50Z</time>
      </trkpt>
      <trkpt lat="43.44871" lon="6.59123">
        <ele>198.9</ele>
        <time>2020-10-07T12:40:58Z</time>
      </trkpt>
      <trkpt lat="43.44869" lon="6.59128">
        <ele>199.6</ele>
        <time>2020-10-07T12:41:03Z</time>
      </trkpt>
      <trkpt lat="43.4487" lon="6.59134">
        <ele>200.1</ele>
        <time>2020-10-07T12:41:12Z</time>
      </trkpt>
      <trkpt lat="43.4487" lon="6.59139">
        <ele>200</ele>
        <time>2020-10-07T12:41:18Z</time>
      </trkpt>
      <trkpt lat="43.4487" lon="6.59141">
        <ele>200</ele>
        <time>2020-10-07T12:41:19Z</time>
      </trkpt>
      <trkpt lat="43.44866" lon="6.59148">
        <ele>200.2</ele>
        <time>2020-10-07T12:41:25Z</time>
      </trkpt>
      <trkpt lat="43.44865" lon="6.59153">
        <ele>200.4</ele>
        <time>2020-10-07T12:41:28Z</time>
      </trkpt>
      <trkpt lat="43.44866" lon="6.59158">
        <ele>200.8</ele>
        <time>2020-10-07T12:41:31Z</time>
      </trkpt>
      <trkpt lat="43.44865" lon="6.59163">
        <ele>200.8</ele>
        <time>2020-10-07T12:41:34Z</time>
      </trkpt>
      <trkpt lat="43.44864" lon="6.59168">
        <ele>201</ele>
        <time>2020-10-07T12:41:38Z</time>
      </trkpt>
      <trkpt lat="43.44863" lon="6.59174">
        <ele>201</ele>
        <time>2020-10-07T12:41:42Z</time>
      </trkpt>
      <trkpt lat="43.44861" lon="6.59179">
        <ele>201.2</ele>
        <time>2020-10-07T12:41:46Z</time>
      </trkpt>
      <trkpt lat="43.44859" lon="6.59184">
        <ele>201.3</ele>
        <time>2020-10-07T12:41:50Z</time>
      </trkpt>
      <trkpt lat="43.44857" lon="6.59189">
        <ele>201.5</ele>
        <time>2020-10-07T12:41:54Z</time>
      </trkpt>
      <trkpt lat="43.44857" lon="6.59194">
        <ele>201.9</ele>
        <time>2020-10-07T12:41:59Z</time>
      </trkpt>
      <trkpt lat="43.44855" lon="6.59197">
        <ele>202</ele>
        <time>2020-10-07T12:42:01Z</time>
      </trkpt>
      <trkpt lat="43.44853" lon="6.59201">
        <ele>202</ele>
        <time>2020-10-07T12:42:03Z</time>
      </trkpt>
      <trkpt lat="43.4485" lon="6.59205">
        <ele>201.9</ele>
        <time>2020-10-07T12:42:06Z</time>
      </trkpt>
      <trkpt lat="43.44848" lon="6.5921">
        <ele>201.9</ele>
        <time>2020-10-07T12:42:09Z</time>
      </trkpt>
      <trkpt lat="43.44846" lon="6.59215">
        <ele>201.9</ele>
        <time>2020-10-07T12:42:12Z</time>
      </trkpt>
      <trkpt lat="43.44846" lon="6.5922">
        <ele>201.6</ele>
        <time>2020-10-07T12:42:16Z</time>
      </trkpt>
      <trkpt lat="43.44846" lon="6.59226">
        <ele>201.7</ele>
        <time>2020-10-07T12:42:20Z</time>
      </trkpt>
      <trkpt lat="43.44845" lon="6.59228">
        <ele>201.7</ele>
        <time>2020-10-07T12:42:21Z</time>
      </trkpt>
      <trkpt lat="43.44844" lon="6.59236">
        <ele>202.2</ele>
        <time>2020-10-07T12:42:26Z</time>
      </trkpt>
      <trkpt lat="43.44841" lon="6.59241">
        <ele>202.5</ele>
        <time>2020-10-07T12:42:30Z</time>
      </trkpt>
      <trkpt lat="43.44839" lon="6.59244">
        <ele>202.7</ele>
        <time>2020-10-07T12:42:33Z</time>
      </trkpt>
      <trkpt lat="43.44836" lon="6.59249">
        <ele>202.7</ele>
        <time>2020-10-07T12:42:36Z</time>
      </trkpt>
      <trkpt lat="43.44836" lon="6.59253">
        <ele>202.9</ele>
        <time>2020-10-07T12:42:39Z</time>
      </trkpt>
      <trkpt lat="43.44834" lon="6.59259">
        <ele>203.1</ele>
        <time>2020-10-07T12:42:43Z</time>
      </trkpt>
      <trkpt lat="43.44833" lon="6.59264">
        <ele>203</ele>
        <time>2020-10-07T12:42:47Z</time>
      </trkpt>
      <trkpt lat="43.44832" lon="6.59269">
        <ele>203.3</ele>
        <time>2020-10-07T12:42:51Z</time>
      </trkpt>
      <trkpt lat="43.4483" lon="6.59272">
        <ele>203.6</ele>
        <time>2020-10-07T12:42:55Z</time>
      </trkpt>
      <trkpt lat="43.44827" lon="6.59276">
        <ele>203.9</ele>
        <time>2020-10-07T12:42:59Z</time>
      </trkpt>
      <trkpt lat="43.44824" lon="6.5928">
        <ele>204.2</ele>
        <time>2020-10-07T12:43:04Z</time>
      </trkpt>
      <trkpt lat="43.44822" lon="6.59285">
        <ele>205</ele>
        <time>2020-10-07T12:43:12Z</time>
      </trkpt>
      <trkpt lat="43.44819" lon="6.59289">
        <ele>205.4</ele>
        <time>2020-10-07T12:43:17Z</time>
      </trkpt>
      <trkpt lat="43.44819" lon="6.59294">
        <ele>205.6</ele>
        <time>2020-10-07T12:43:22Z</time>
      </trkpt>
      <trkpt lat="43.44818" lon="6.59295">
        <ele>205.6</ele>
        <time>2020-10-07T12:43:23Z</time>
      </trkpt>
      <trkpt lat="43.44814" lon="6.59305">
        <ele>206.3</ele>
        <time>2020-10-07T12:43:34Z</time>
      </trkpt>
      <trkpt lat="43.44811" lon="6.59309">
        <ele>206.3</ele>
        <time>2020-10-07T12:43:44Z</time>
      </trkpt>
      <trkpt lat="43.4481" lon="6.59313">
        <ele>207</ele>
        <time>2020-10-07T12:43:48Z</time>
      </trkpt>
      <trkpt lat="43.44808" lon="6.59317">
        <ele>207.4</ele>
        <time>2020-10-07T12:43:51Z</time>
      </trkpt>
      <trkpt lat="43.44806" lon="6.59321">
        <ele>207.8</ele>
        <time>2020-10-07T12:43:54Z</time>
      </trkpt>
      <trkpt lat="43.44804" lon="6.59326">
        <ele>208.2</ele>
        <time>2020-10-07T12:43:58Z</time>
      </trkpt>
      <trkpt lat="43.44802" lon="6.5933">
        <ele>208.7</ele>
        <time>2020-10-07T12:44:02Z</time>
      </trkpt>
      <trkpt lat="43.448" lon="6.59335">
        <ele>209.1</ele>
        <time>2020-10-07T12:44:08Z</time>
      </trkpt>
      <trkpt lat="43.44799" lon="6.59339">
        <ele>209.4</ele>
        <time>2020-10-07T12:44:11Z</time>
      </trkpt>
      <trkpt lat="43.44797" lon="6.59344">
        <ele>209.9</ele>
        <time>2020-10-07T12:44:15Z</time>
      </trkpt>
      <trkpt lat="43.44794" lon="6.59348">
        <ele>210.2</ele>
        <time>2020-10-07T12:44:19Z</time>
      </trkpt>
      <trkpt lat="43.44792" lon="6.59352">
        <ele>210.5</ele>
        <time>2020-10-07T12:44:23Z</time>
      </trkpt>
      <trkpt lat="43.44792" lon="6.59353">
        <ele>210.7</ele>
        <time>2020-10-07T12:44:24Z</time>
      </trkpt>
      <trkpt lat="43.44789" lon="6.59362">
        <ele>211.5</ele>
        <time>2020-10-07T12:44:34Z</time>
      </trkpt>
      <trkpt lat="43.4479" lon="6.59368">
        <ele>212.1</ele>
        <time>2020-10-07T12:44:39Z</time>
      </trkpt>
      <trkpt lat="43.44788" lon="6.59374">
        <ele>212.7</ele>
        <time>2020-10-07T12:44:45Z</time>
      </trkpt>
      <trkpt lat="43.44788" lon="6.5938">
        <ele>213.1</ele>
        <time>2020-10-07T12:44:51Z</time>
      </trkpt>
      <trkpt lat="43.44791" lon="6.59384">
        <ele>213.6</ele>
        <time>2020-10-07T12:44:55Z</time>
      </trkpt>
      <trkpt lat="43.44793" lon="6.59389">
        <ele>214</ele>
        <time>2020-10-07T12:45:01Z</time>
      </trkpt>
      <trkpt lat="43.44797" lon="6.59392">
        <ele>214.3</ele>
        <time>2020-10-07T12:45:08Z</time>
      </trkpt>
      <trkpt lat="43.448" lon="6.59396">
        <ele>214.3</ele>
        <time>2020-10-07T12:45:14Z</time>
      </trkpt>
      <trkpt lat="43.44802" lon="6.594">
        <ele>214.4</ele>
        <time>2020-10-07T12:45:19Z</time>
      </trkpt>
      <trkpt lat="43.44805" lon="6.59404">
        <ele>214.5</ele>
        <time>2020-10-07T12:45:23Z</time>
      </trkpt>
      <trkpt lat="43.44806" lon="6.5941">
        <ele>214.6</ele>
        <time>2020-10-07T12:45:28Z</time>
      </trkpt>
      <trkpt lat="43.44806" lon="6.5941">
        <ele>214.6</ele>
        <time>2020-10-07T12:45:29Z</time>
      </trkpt>
      <trkpt lat="43.44811" lon="6.59419">
        <ele>215.2</ele>
        <time>2020-10-07T12:45:59Z</time>
      </trkpt>
      <trkpt lat="43.44812" lon="6.59425">
        <ele>216.2</ele>
        <time>2020-10-07T12:46:31Z</time>
      </trkpt>
      <trkpt lat="43.44812" lon="6.59425">
        <ele>216.1</ele>
        <time>2020-10-07T12:46:32Z</time>
      </trkpt>
      <trkpt lat="43.44808" lon="6.59428">
        <ele>216.6</ele>
        <time>2020-10-07T12:48:12Z</time>
      </trkpt>
      <trkpt lat="43.44812" lon="6.59422">
        <ele>216.3</ele>
        <time>2020-10-07T12:49:21Z</time>
      </trkpt>
      <trkpt lat="43.44816" lon="6.59417">
        <ele>216.1</ele>
        <time>2020-10-07T12:49:26Z</time>
      </trkpt>
      <trkpt lat="43.4482" lon="6.59414">
        <ele>216</ele>
        <time>2020-10-07T12:49:32Z</time>
      </trkpt>
      <trkpt lat="43.44824" lon="6.59411">
        <ele>216.1</ele>
        <time>2020-10-07T12:49:41Z</time>
      </trkpt>
      <trkpt lat="43.44826" lon="6.59406">
        <ele>216</ele>
        <time>2020-10-07T12:49:47Z</time>
      </trkpt>
      <trkpt lat="43.44828" lon="6.59402">
        <ele>216</ele>
        <time>2020-10-07T12:49:51Z</time>
      </trkpt>
      <trkpt lat="43.44831" lon="6.59398">
        <ele>216.1</ele>
        <time>2020-10-07T12:49:56Z</time>
      </trkpt>
      <trkpt lat="43.44835" lon="6.59395">
        <ele>216.1</ele>
        <time>2020-10-07T12:50:00Z</time>
      </trkpt>
      <trkpt lat="43.44838" lon="6.59393">
        <ele>216.2</ele>
        <time>2020-10-07T12:50:04Z</time>
      </trkpt>
      <trkpt lat="43.44841" lon="6.5939">
        <ele>216.2</ele>
        <time>2020-10-07T12:50:08Z</time>
      </trkpt>
      <trkpt lat="43.44846" lon="6.59388">
        <ele>216.1</ele>
        <time>2020-10-07T12:50:12Z</time>
      </trkpt>
      <trkpt lat="43.4485" lon="6.59387">
        <ele>216.1</ele>
        <time>2020-10-07T12:50:16Z</time>
      </trkpt>
      <trkpt lat="43.44854" lon="6.59385">
        <ele>216.3</ele>
        <time>2020-10-07T12:50:20Z</time>
      </trkpt>
      <trkpt lat="43.44858" lon="6.59383">
        <ele>216.6</ele>
        <time>2020-10-07T12:50:24Z</time>
      </trkpt>
      <trkpt lat="43.44859" lon="6.59383">
        <ele>216.5</ele>
        <time>2020-10-07T12:50:25Z</time>
      </trkpt>
      <trkpt lat="43.44865" lon="6.59377">
        <ele>215.8</ele>
        <time>2020-10-07T12:50:33Z</time>
      </trkpt>
      <trkpt lat="43.44868" lon="6.59374">
        <ele>215.8</ele>
        <time>2020-10-07T12:50:37Z</time>
      </trkpt>
      <trkpt lat="43.44872" lon="6.5937">
        <ele>215.4</ele>
        <time>2020-10-07T12:50:43Z</time>
      </trkpt>
      <trkpt lat="43.44874" lon="6.59366">
        <ele>215</ele>
        <time>2020-10-07T12:50:49Z</time>
      </trkpt>
      <trkpt lat="43.44877" lon="6.59362">
        <ele>214.6</ele>
        <time>2020-10-07T12:50:54Z</time>
      </trkpt>
      <trkpt lat="43.44879" lon="6.59358">
        <ele>214.4</ele>
        <time>2020-10-07T12:50:58Z</time>
      </trkpt>
      <trkpt lat="43.44882" lon="6.59353">
        <ele>213.7</ele>
        <time>2020-10-07T12:51:03Z</time>
      </trkpt>
      <trkpt lat="43.44885" lon="6.5935">
        <ele>213.2</ele>
        <time>2020-10-07T12:51:08Z</time>
      </trkpt>
      <trkpt lat="43.44889" lon="6.59346">
        <ele>213.1</ele>
        <time>2020-10-07T12:51:14Z</time>
      </trkpt>
      <trkpt lat="43.44892" lon="6.59345">
        <ele>213.2</ele>
        <time>2020-10-07T12:51:19Z</time>
      </trkpt>
      <trkpt lat="43.44896" lon="6.59342">
        <ele>213.1</ele>
        <time>2020-10-07T12:51:29Z</time>
      </trkpt>
      <trkpt lat="43.44896" lon="6.59341">
        <ele>213.1</ele>
        <time>2020-10-07T12:51:30Z</time>
      </trkpt>
      <trkpt lat="43.44901" lon="6.59332">
        <ele>212.7</ele>
        <time>2020-10-07T12:51:44Z</time>
      </trkpt>
      <trkpt lat="43.44904" lon="6.59328">
        <ele>212.7</ele>
        <time>2020-10-07T12:51:49Z</time>
      </trkpt>
      <trkpt lat="43.44906" lon="6.59323">
        <ele>212.9</ele>
        <time>2020-10-07T12:51:54Z</time>
      </trkpt>
      <trkpt lat="43.44908" lon="6.59318">
        <ele>213.3</ele>
        <time>2020-10-07T12:51:59Z</time>
      </trkpt>
      <trkpt lat="43.4491" lon="6.59314">
        <ele>213.4</ele>
        <time>2020-10-07T12:52:04Z</time>
      </trkpt>
      <trkpt lat="43.44913" lon="6.59309">
        <ele>213.5</ele>
        <time>2020-10-07T12:52:11Z</time>
      </trkpt>
      <trkpt lat="43.44917" lon="6.59309">
        <ele>213.8</ele>
        <time>2020-10-07T12:52:16Z</time>
      </trkpt>
      <trkpt lat="43.44921" lon="6.59309">
        <ele>214.1</ele>
        <time>2020-10-07T12:52:21Z</time>
      </trkpt>
      <trkpt lat="43.44926" lon="6.59309">
        <ele>214.5</ele>
        <time>2020-10-07T12:52:27Z</time>
      </trkpt>
      <trkpt lat="43.4493" lon="6.59308">
        <ele>214.9</ele>
        <time>2020-10-07T12:52:32Z</time>
      </trkpt>
      <trkpt lat="43.4493" lon="6.59308">
        <ele>214.9</ele>
        <time>2020-10-07T12:52:33Z</time>
      </trkpt>
      <trkpt lat="43.44938" lon="6.59306">
        <ele>215.5</ele>
        <time>2020-10-07T12:52:43Z</time>
      </trkpt>
      <trkpt lat="43.44942" lon="6.59307">
        <ele>216</ele>
        <time>2020-10-07T12:52:49Z</time>
      </trkpt>
      <trkpt lat="43.44946" lon="6.59308">
        <ele>216.4</ele>
        <time>2020-10-07T12:52:55Z</time>
      </trkpt>
      <trkpt lat="43.4495" lon="6.59311">
        <ele>216.8</ele>
        <time>2020-10-07T12:53:02Z</time>
      </trkpt>
      <trkpt lat="43.44953" lon="6.59315">
        <ele>217.1</ele>
        <time>2020-10-07T12:53:09Z</time>
      </trkpt>
      <trkpt lat="43.44955" lon="6.5932">
        <ele>217.3</ele>
        <time>2020-10-07T12:53:14Z</time>
      </trkpt>
      <trkpt lat="43.44958" lon="6.59324">
        <ele>217.7</ele>
        <time>2020-10-07T12:53:19Z</time>
      </trkpt>
      <trkpt lat="43.44961" lon="6.59328">
        <ele>218</ele>
        <time>2020-10-07T12:53:26Z</time>
      </trkpt>
      <trkpt lat="43.44964" lon="6.59332">
        <ele>218.8</ele>
        <time>2020-10-07T12:53:33Z</time>
      </trkpt>
      <trkpt lat="43.44965" lon="6.59332">
        <ele>218.9</ele>
        <time>2020-10-07T12:53:34Z</time>
      </trkpt>
      <trkpt lat="43.44972" lon="6.59333">
        <ele>220.3</ele>
        <time>2020-10-07T12:53:49Z</time>
      </trkpt>
      <trkpt lat="43.44976" lon="6.59335">
        <ele>221.6</ele>
        <time>2020-10-07T12:53:57Z</time>
      </trkpt>
      <trkpt lat="43.4498" lon="6.59337">
        <ele>222.9</ele>
        <time>2020-10-07T12:54:04Z</time>
      </trkpt>
      <trkpt lat="43.44984" lon="6.59337">
        <ele>223.8</ele>
        <time>2020-10-07T12:54:11Z</time>
      </trkpt>
      <trkpt lat="43.44988" lon="6.59338">
        <ele>224.6</ele>
        <time>2020-10-07T12:54:20Z</time>
      </trkpt>
      <trkpt lat="43.44992" lon="6.59341">
        <ele>225.2</ele>
        <time>2020-10-07T12:54:31Z</time>
      </trkpt>
      <trkpt lat="43.44996" lon="6.5934">
        <ele>225.8</ele>
        <time>2020-10-07T12:54:38Z</time>
      </trkpt>
      <trkpt lat="43.44997" lon="6.59341">
        <ele>226</ele>
        <time>2020-10-07T12:54:39Z</time>
      </trkpt>
      <trkpt lat="43.45001" lon="6.5935">
        <ele>227.6</ele>
        <time>2020-10-07T12:54:58Z</time>
      </trkpt>
      <trkpt lat="43.45004" lon="6.59353">
        <ele>228.4</ele>
        <time>2020-10-07T12:55:08Z</time>
      </trkpt>
      <trkpt lat="43.45008" lon="6.59354">
        <ele>229</ele>
        <time>2020-10-07T12:55:25Z</time>
      </trkpt>
      <trkpt lat="43.45013" lon="6.59353">
        <ele>230.7</ele>
        <time>2020-10-07T12:55:37Z</time>
      </trkpt>
      <trkpt lat="43.45017" lon="6.59354">
        <ele>231.7</ele>
        <time>2020-10-07T12:55:47Z</time>
      </trkpt>
      <trkpt lat="43.45017" lon="6.59354">
        <ele>231.9</ele>
        <time>2020-10-07T12:55:48Z</time>
      </trkpt>
      <trkpt lat="43.45025" lon="6.59355">
        <ele>233.3</ele>
        <time>2020-10-07T12:56:03Z</time>
      </trkpt>
      <trkpt lat="43.45029" lon="6.59356">
        <ele>234.8</ele>
        <time>2020-10-07T12:56:12Z</time>
      </trkpt>
      <trkpt lat="43.45033" lon="6.59354">
        <ele>235.5</ele>
        <time>2020-10-07T12:56:18Z</time>
      </trkpt>
      <trkpt lat="43.45037" lon="6.59354">
        <ele>235.8</ele>
        <time>2020-10-07T12:56:24Z</time>
      </trkpt>
      <trkpt lat="43.45041" lon="6.59354">
        <ele>236.6</ele>
        <time>2020-10-07T12:56:29Z</time>
      </trkpt>
      <trkpt lat="43.45045" lon="6.59354">
        <ele>237.5</ele>
        <time>2020-10-07T12:56:35Z</time>
      </trkpt>
      <trkpt lat="43.45049" lon="6.59355">
        <ele>238.5</ele>
        <time>2020-10-07T12:56:42Z</time>
      </trkpt>
      <trkpt lat="43.45054" lon="6.59355">
        <ele>239.3</ele>
        <time>2020-10-07T12:56:48Z</time>
      </trkpt>
      <trkpt lat="43.45054" lon="6.59355">
        <ele>239.4</ele>
        <time>2020-10-07T12:56:49Z</time>
      </trkpt>
      <trkpt lat="43.45061" lon="6.59356">
        <ele>240.1</ele>
        <time>2020-10-07T12:56:58Z</time>
      </trkpt>
      <trkpt lat="43.45065" lon="6.59356">
        <ele>240.4</ele>
        <time>2020-10-07T12:57:03Z</time>
      </trkpt>
      <trkpt lat="43.45069" lon="6.59356">
        <ele>240.6</ele>
        <time>2020-10-07T12:57:08Z</time>
      </trkpt>
      <trkpt lat="43.45073" lon="6.59356">
        <ele>241.1</ele>
        <time>2020-10-07T12:57:14Z</time>
      </trkpt>
      <trkpt lat="43.45077" lon="6.59356">
        <ele>241.6</ele>
        <time>2020-10-07T12:57:19Z</time>
      </trkpt>
      <trkpt lat="43.45081" lon="6.59354">
        <ele>242.1</ele>
        <time>2020-10-07T12:57:24Z</time>
      </trkpt>
      <trkpt lat="43.45085" lon="6.59353">
        <ele>242.4</ele>
        <time>2020-10-07T12:57:29Z</time>
      </trkpt>
      <trkpt lat="43.45089" lon="6.59354">
        <ele>242.4</ele>
        <time>2020-10-07T12:57:34Z</time>
      </trkpt>
      <trkpt lat="43.45093" lon="6.59354">
        <ele>242.8</ele>
        <time>2020-10-07T12:57:39Z</time>
      </trkpt>
      <trkpt lat="43.45098" lon="6.59354">
        <ele>242.9</ele>
        <time>2020-10-07T12:57:44Z</time>
      </trkpt>
      <trkpt lat="43.45101" lon="6.59356">
        <ele>242.8</ele>
        <time>2020-10-07T12:57:49Z</time>
      </trkpt>
      <trkpt lat="43.45102" lon="6.59357">
        <ele>242.8</ele>
        <time>2020-10-07T12:57:50Z</time>
      </trkpt>
      <trkpt lat="43.45108" lon="6.5936">
        <ele>242.8</ele>
        <time>2020-10-07T12:57:58Z</time>
      </trkpt>
      <trkpt lat="43.45112" lon="6.59361">
        <ele>242.6</ele>
        <time>2020-10-07T12:58:01Z</time>
      </trkpt>
      <trkpt lat="43.45115" lon="6.59363">
        <ele>242.4</ele>
        <time>2020-10-07T12:58:04Z</time>
      </trkpt>
      <trkpt lat="43.45118" lon="6.59366">
        <ele>242.3</ele>
        <time>2020-10-07T12:58:08Z</time>
      </trkpt>
      <trkpt lat="43.45119" lon="6.59372">
        <ele>243</ele>
        <time>2020-10-07T12:58:15Z</time>
      </trkpt>
      <trkpt lat="43.45123" lon="6.59373">
        <ele>242.7</ele>
        <time>2020-10-07T12:58:19Z</time>
      </trkpt>
      <trkpt lat="43.45127" lon="6.59374">
        <ele>242.6</ele>
        <time>2020-10-07T12:58:23Z</time>
      </trkpt>
      <trkpt lat="43.45131" lon="6.59373">
        <ele>242.6</ele>
        <time>2020-10-07T12:58:28Z</time>
      </trkpt>
      <trkpt lat="43.45135" lon="6.59371">
        <ele>242.5</ele>
        <time>2020-10-07T12:58:33Z</time>
      </trkpt>
      <trkpt lat="43.45139" lon="6.5937">
        <ele>242.3</ele>
        <time>2020-10-07T12:58:38Z</time>
      </trkpt>
      <trkpt lat="43.45143" lon="6.59371">
        <ele>242</ele>
        <time>2020-10-07T12:58:42Z</time>
      </trkpt>
      <trkpt lat="43.45147" lon="6.59371">
        <ele>241.5</ele>
        <time>2020-10-07T12:58:48Z</time>
      </trkpt>
      <trkpt lat="43.45151" lon="6.59369">
        <ele>240.7</ele>
        <time>2020-10-07T12:58:54Z</time>
      </trkpt>
      <trkpt lat="43.45152" lon="6.59369">
        <ele>240.5</ele>
        <time>2020-10-07T12:58:55Z</time>
      </trkpt>
      <trkpt lat="43.4516" lon="6.59367">
        <ele>240.2</ele>
        <time>2020-10-07T12:59:03Z</time>
      </trkpt>
      <trkpt lat="43.45164" lon="6.59368">
        <ele>240.2</ele>
        <time>2020-10-07T12:59:08Z</time>
      </trkpt>
      <trkpt lat="43.45168" lon="6.59369">
        <ele>240.3</ele>
        <time>2020-10-07T12:59:14Z</time>
      </trkpt>
      <trkpt lat="43.45172" lon="6.5937">
        <ele>240.3</ele>
        <time>2020-10-07T12:59:18Z</time>
      </trkpt>
      <trkpt lat="43.45176" lon="6.59371">
        <ele>240.4</ele>
        <time>2020-10-07T12:59:22Z</time>
      </trkpt>
      <trkpt lat="43.4518" lon="6.59371">
        <ele>240.6</ele>
        <time>2020-10-07T12:59:31Z</time>
      </trkpt>
      <trkpt lat="43.45184" lon="6.59372">
        <ele>240.6</ele>
        <time>2020-10-07T12:59:45Z</time>
      </trkpt>
      <trkpt lat="43.45188" lon="6.59372">
        <ele>240.3</ele>
        <time>2020-10-07T13:00:01Z</time>
      </trkpt>
      <trkpt lat="43.45189" lon="6.59373">
        <ele>240.3</ele>
        <time>2020-10-07T13:00:02Z</time>
      </trkpt>
      <trkpt lat="43.45196" lon="6.59377">
        <ele>239.9</ele>
        <time>2020-10-07T13:00:09Z</time>
      </trkpt>
      <trkpt lat="43.452" lon="6.59379">
        <ele>240.5</ele>
        <time>2020-10-07T13:00:14Z</time>
      </trkpt>
      <trkpt lat="43.45204" lon="6.59381">
        <ele>241.1</ele>
        <time>2020-10-07T13:00:19Z</time>
      </trkpt>
      <trkpt lat="43.45208" lon="6.59381">
        <ele>242.1</ele>
        <time>2020-10-07T13:00:27Z</time>
      </trkpt>
      <trkpt lat="43.45212" lon="6.59382">
        <ele>242.7</ele>
        <time>2020-10-07T13:00:34Z</time>
      </trkpt>
      <trkpt lat="43.45216" lon="6.59384">
        <ele>242.7</ele>
        <time>2020-10-07T13:00:39Z</time>
      </trkpt>
      <trkpt lat="43.45219" lon="6.59387">
        <ele>242.7</ele>
        <time>2020-10-07T13:00:42Z</time>
      </trkpt>
      <trkpt lat="43.45223" lon="6.59389">
        <ele>242.6</ele>
        <time>2020-10-07T13:00:45Z</time>
      </trkpt>
      <trkpt lat="43.45227" lon="6.59389">
        <ele>242</ele>
        <time>2020-10-07T13:00:50Z</time>
      </trkpt>
      <trkpt lat="43.45231" lon="6.59387">
        <ele>241.7</ele>
        <time>2020-10-07T13:00:53Z</time>
      </trkpt>
      <trkpt lat="43.45234" lon="6.59388">
        <ele>241.4</ele>
        <time>2020-10-07T13:00:56Z</time>
      </trkpt>
      <trkpt lat="43.45237" lon="6.59389">
        <ele>241.3</ele>
        <time>2020-10-07T13:00:58Z</time>
      </trkpt>
      <trkpt lat="43.4524" lon="6.59391">
        <ele>241.2</ele>
        <time>2020-10-07T13:01:00Z</time>
      </trkpt>
      <trkpt lat="43.45244" lon="6.59393">
        <ele>241.1</ele>
        <time>2020-10-07T13:01:03Z</time>
      </trkpt>
      <trkpt lat="43.45245" lon="6.59394">
        <ele>241.1</ele>
        <time>2020-10-07T13:01:04Z</time>
      </trkpt>
      <trkpt lat="43.4525" lon="6.59399">
        <ele>241.6</ele>
        <time>2020-10-07T13:01:12Z</time>
      </trkpt>
      <trkpt lat="43.45254" lon="6.59403">
        <ele>242.1</ele>
        <time>2020-10-07T13:01:18Z</time>
      </trkpt>
      <trkpt lat="43.45257" lon="6.59404">
        <ele>241.9</ele>
        <time>2020-10-07T13:01:22Z</time>
      </trkpt>
      <trkpt lat="43.45262" lon="6.59405">
        <ele>241.7</ele>
        <time>2020-10-07T13:01:27Z</time>
      </trkpt>
      <trkpt lat="43.45265" lon="6.59409">
        <ele>241.3</ele>
        <time>2020-10-07T13:01:32Z</time>
      </trkpt>
      <trkpt lat="43.45268" lon="6.59413">
        <ele>241.2</ele>
        <time>2020-10-07T13:01:35Z</time>
      </trkpt>
      <trkpt lat="43.4527" lon="6.59416">
        <ele>242.2</ele>
        <time>2020-10-07T13:01:42Z</time>
      </trkpt>
      <trkpt lat="43.45272" lon="6.59421">
        <ele>243</ele>
        <time>2020-10-07T13:01:48Z</time>
      </trkpt>
      <trkpt lat="43.45276" lon="6.59423">
        <ele>243.5</ele>
        <time>2020-10-07T13:01:51Z</time>
      </trkpt>
      <trkpt lat="43.45279" lon="6.59427">
        <ele>243.7</ele>
        <time>2020-10-07T13:01:54Z</time>
      </trkpt>
      <trkpt lat="43.45282" lon="6.5943">
        <ele>243.8</ele>
        <time>2020-10-07T13:01:56Z</time>
      </trkpt>
      <trkpt lat="43.45284" lon="6.59436">
        <ele>244.1</ele>
        <time>2020-10-07T13:02:00Z</time>
      </trkpt>
      <trkpt lat="43.45286" lon="6.59441">
        <ele>244.5</ele>
        <time>2020-10-07T13:02:06Z</time>
      </trkpt>
      <trkpt lat="43.45287" lon="6.59441">
        <ele>244.7</ele>
        <time>2020-10-07T13:02:07Z</time>
      </trkpt>
      <trkpt lat="43.45287" lon="6.59453">
        <ele>247.1</ele>
        <time>2020-10-07T13:02:23Z</time>
      </trkpt>
      <trkpt lat="43.45285" lon="6.59457">
        <ele>248.6</ele>
        <time>2020-10-07T13:02:31Z</time>
      </trkpt>
      <trkpt lat="43.45283" lon="6.59462">
        <ele>249.1</ele>
        <time>2020-10-07T13:02:34Z</time>
      </trkpt>
      <trkpt lat="43.4528" lon="6.59464">
        <ele>249.4</ele>
        <time>2020-10-07T13:02:36Z</time>
      </trkpt>
      <trkpt lat="43.45276" lon="6.59468">
        <ele>250.4</ele>
        <time>2020-10-07T13:02:42Z</time>
      </trkpt>
      <trkpt lat="43.45274" lon="6.59473">
        <ele>250.9</ele>
        <time>2020-10-07T13:02:47Z</time>
      </trkpt>
      <trkpt lat="43.45271" lon="6.59475">
        <ele>251.2</ele>
        <time>2020-10-07T13:02:50Z</time>
      </trkpt>
      <trkpt lat="43.4527" lon="6.5948">
        <ele>251.2</ele>
        <time>2020-10-07T13:02:54Z</time>
      </trkpt>
      <trkpt lat="43.45268" lon="6.59485">
        <ele>252.2</ele>
        <time>2020-10-07T13:03:02Z</time>
      </trkpt>
      <trkpt lat="43.45264" lon="6.59487">
        <ele>253.9</ele>
        <time>2020-10-07T13:03:16Z</time>
      </trkpt>
      <trkpt lat="43.45264" lon="6.59487">
        <ele>254</ele>
        <time>2020-10-07T13:03:17Z</time>
      </trkpt>
      <trkpt lat="43.45265" lon="6.59498">
        <ele>254.8</ele>
        <time>2020-10-07T13:03:29Z</time>
      </trkpt>
      <trkpt lat="43.45263" lon="6.59504">
        <ele>256.1</ele>
        <time>2020-10-07T13:03:42Z</time>
      </trkpt>
      <trkpt lat="43.45262" lon="6.5951">
        <ele>256.8</ele>
        <time>2020-10-07T13:03:51Z</time>
      </trkpt>
      <trkpt lat="43.45258" lon="6.59511">
        <ele>258.2</ele>
        <time>2020-10-07T13:04:03Z</time>
      </trkpt>
      <trkpt lat="43.45257" lon="6.59517">
        <ele>262.1</ele>
        <time>2020-10-07T13:04:37Z</time>
      </trkpt>
      <trkpt lat="43.45257" lon="6.59517">
        <ele>262.1</ele>
        <time>2020-10-07T13:04:38Z</time>
      </trkpt>
      <trkpt lat="43.45251" lon="6.59521">
        <ele>264.1</ele>
        <time>2020-10-07T13:05:29Z</time>
      </trkpt>
      <trkpt lat="43.45249" lon="6.59527">
        <ele>265.4</ele>
        <time>2020-10-07T13:05:44Z</time>
      </trkpt>
      <trkpt lat="43.45249" lon="6.59527">
        <ele>265.4</ele>
        <time>2020-10-07T13:05:45Z</time>
      </trkpt>
      <trkpt lat="43.45246" lon="6.59535">
        <ele>268.2</ele>
        <time>2020-10-07T13:06:17Z</time>
      </trkpt>
      <trkpt lat="43.45246" lon="6.59541">
        <ele>269.4</ele>
        <time>2020-10-07T13:06:26Z</time>
      </trkpt>
      <trkpt lat="43.45246" lon="6.59547">
        <ele>270.5</ele>
        <time>2020-10-07T13:06:35Z</time>
      </trkpt>
      <trkpt lat="43.45247" lon="6.59553">
        <ele>271.3</ele>
        <time>2020-10-07T13:06:43Z</time>
      </trkpt>
      <trkpt lat="43.45248" lon="6.59559">
        <ele>272.3</ele>
        <time>2020-10-07T13:06:54Z</time>
      </trkpt>
      <trkpt lat="43.45248" lon="6.59559">
        <ele>272.4</ele>
        <time>2020-10-07T13:06:55Z</time>
      </trkpt>
      <trkpt lat="43.4525" lon="6.59565">
        <ele>272.8</ele>
        <time>2020-10-07T13:08:02Z</time>
      </trkpt>
      <trkpt lat="43.45252" lon="6.5957">
        <ele>274.2</ele>
        <time>2020-10-07T13:09:16Z</time>
      </trkpt>
      <trkpt lat="43.45252" lon="6.59581">
        <ele>276.7</ele>
        <time>2020-10-07T13:10:56Z</time>
      </trkpt>
      <trkpt lat="43.45252" lon="6.59581">
        <ele>276.8</ele>
        <time>2020-10-07T13:10:57Z</time>
      </trkpt>
      <trkpt lat="43.45249" lon="6.59591">
        <ele>280</ele>
        <time>2020-10-07T13:11:34Z</time>
      </trkpt>
      <trkpt lat="43.45244" lon="6.5959">
        <ele>282.8</ele>
        <time>2020-10-07T13:13:51Z</time>
      </trkpt>
      <trkpt lat="43.45244" lon="6.59591">
        <ele>282.9</ele>
        <time>2020-10-07T13:13:52Z</time>
      </trkpt>
      <trkpt lat="43.45242" lon="6.59596">
        <ele>284.7</ele>
        <time>2020-10-07T13:15:06Z</time>
      </trkpt>
      <trkpt lat="43.45238" lon="6.59591">
        <ele>284.4</ele>
        <time>2020-10-07T13:16:10Z</time>
      </trkpt>
      <trkpt lat="43.45238" lon="6.59592">
        <ele>284.6</ele>
        <time>2020-10-07T13:16:11Z</time>
      </trkpt>
      <trkpt lat="43.4523" lon="6.59593">
        <ele>287.1</ele>
        <time>2020-10-07T13:16:48Z</time>
      </trkpt>
      <trkpt lat="43.45226" lon="6.59594">
        <ele>288.2</ele>
        <time>2020-10-07T13:17:50Z</time>
      </trkpt>
      <trkpt lat="43.45226" lon="6.59594">
        <ele>288</ele>
        <time>2020-10-07T13:17:51Z</time>
      </trkpt>
      <trkpt lat="43.45223" lon="6.59603">
        <ele>297</ele>
        <time>2020-10-07T13:19:47Z</time>
      </trkpt>
      <trkpt lat="43.45223" lon="6.59603">
        <ele>296.9</ele>
        <time>2020-10-07T13:19:48Z</time>
      </trkpt>
      <trkpt lat="43.45221" lon="6.59614">
        <ele>302.2</ele>
        <time>2020-10-07T13:24:03Z</time>
      </trkpt>
      <trkpt lat="43.45222" lon="6.59615">
        <ele>302.1</ele>
        <time>2020-10-07T13:24:04Z</time>
      </trkpt>
      <trkpt lat="43.4522" lon="6.5962">
        <ele>302.8</ele>
        <time>2020-10-07T13:25:07Z</time>
      </trkpt>
      <trkpt lat="43.45217" lon="6.59625">
        <ele>304.6</ele>
        <time>2020-10-07T13:26:21Z</time>
      </trkpt>
      <trkpt lat="43.45211" lon="6.59632">
        <ele>309.9</ele>
        <time>2020-10-07T13:27:12Z</time>
      </trkpt>
      <trkpt lat="43.45206" lon="6.59632">
        <ele>310.2</ele>
        <time>2020-10-07T13:27:20Z</time>
      </trkpt>
      <trkpt lat="43.45202" lon="6.5963">
        <ele>310.4</ele>
        <time>2020-10-07T13:27:32Z</time>
      </trkpt>
      <trkpt lat="43.45202" lon="6.5963">
        <ele>310.4</ele>
        <time>2020-10-07T13:27:33Z</time>
      </trkpt>
      <trkpt lat="43.45199" lon="6.5964">
        <ele>310.8</ele>
        <time>2020-10-07T13:27:50Z</time>
      </trkpt>
      <trkpt lat="43.45195" lon="6.59638">
        <ele>312.1</ele>
        <time>2020-10-07T13:28:02Z</time>
      </trkpt>
      <trkpt lat="43.45191" lon="6.59638">
        <ele>313.2</ele>
        <time>2020-10-07T13:28:25Z</time>
      </trkpt>
      <trkpt lat="43.45187" lon="6.59641">
        <ele>312.5</ele>
        <time>2020-10-07T13:28:44Z</time>
      </trkpt>
      <trkpt lat="43.45187" lon="6.59641">
        <ele>312.5</ele>
        <time>2020-10-07T13:28:45Z</time>
      </trkpt>
      <trkpt lat="43.45179" lon="6.59644">
        <ele>314.4</ele>
        <time>2020-10-07T13:29:02Z</time>
      </trkpt>
      <trkpt lat="43.45175" lon="6.59646">
        <ele>315.2</ele>
        <time>2020-10-07T13:29:09Z</time>
      </trkpt>
      <trkpt lat="43.45171" lon="6.59648">
        <ele>316.2</ele>
        <time>2020-10-07T13:29:15Z</time>
      </trkpt>
      <trkpt lat="43.45168" lon="6.59651">
        <ele>318.5</ele>
        <time>2020-10-07T13:29:22Z</time>
      </trkpt>
      <trkpt lat="43.45164" lon="6.59647">
        <ele>320.2</ele>
        <time>2020-10-07T13:29:29Z</time>
      </trkpt>
      <trkpt lat="43.4516" lon="6.59651">
        <ele>321.8</ele>
        <time>2020-10-07T13:29:52Z</time>
      </trkpt>
      <trkpt lat="43.4516" lon="6.59651">
        <ele>321.8</ele>
        <time>2020-10-07T13:29:53Z</time>
      </trkpt>
      <trkpt lat="43.45154" lon="6.59659">
        <ele>323.3</ele>
        <time>2020-10-07T13:30:57Z</time>
      </trkpt>
      <trkpt lat="43.45154" lon="6.59659">
        <ele>323.4</ele>
        <time>2020-10-07T13:30:58Z</time>
      </trkpt>
      <trkpt lat="43.45145" lon="6.59661">
        <ele>326.6</ele>
        <time>2020-10-07T13:32:38Z</time>
      </trkpt>
      <trkpt lat="43.45145" lon="6.59661">
        <ele>326.6</ele>
        <time>2020-10-07T13:32:39Z</time>
      </trkpt>
      <trkpt lat="43.45138" lon="6.59667">
        <ele>327.7</ele>
        <time>2020-10-07T13:33:18Z</time>
      </trkpt>
      <trkpt lat="43.45135" lon="6.59671">
        <ele>328.3</ele>
        <time>2020-10-07T13:33:39Z</time>
      </trkpt>
      <trkpt lat="43.45135" lon="6.59671">
        <ele>328.3</ele>
        <time>2020-10-07T13:33:40Z</time>
      </trkpt>
      <trkpt lat="43.45128" lon="6.59677">
        <ele>329.1</ele>
        <time>2020-10-07T13:33:54Z</time>
      </trkpt>
      <trkpt lat="43.45124" lon="6.59679">
        <ele>329.7</ele>
        <time>2020-10-07T13:34:01Z</time>
      </trkpt>
      <trkpt lat="43.4512" lon="6.59679">
        <ele>330</ele>
        <time>2020-10-07T13:34:05Z</time>
      </trkpt>
      <trkpt lat="43.45116" lon="6.5968">
        <ele>330.3</ele>
        <time>2020-10-07T13:34:08Z</time>
      </trkpt>
      <trkpt lat="43.45112" lon="6.59681">
        <ele>331</ele>
        <time>2020-10-07T13:34:14Z</time>
      </trkpt>
      <trkpt lat="43.45108" lon="6.59682">
        <ele>331.8</ele>
        <time>2020-10-07T13:34:20Z</time>
      </trkpt>
      <trkpt lat="43.45105" lon="6.59684">
        <ele>332.3</ele>
        <time>2020-10-07T13:34:25Z</time>
      </trkpt>
      <trkpt lat="43.451" lon="6.59685">
        <ele>333</ele>
        <time>2020-10-07T13:34:31Z</time>
      </trkpt>
      <trkpt lat="43.45097" lon="6.59686">
        <ele>333.2</ele>
        <time>2020-10-07T13:34:34Z</time>
      </trkpt>
      <trkpt lat="43.45093" lon="6.59687">
        <ele>333.8</ele>
        <time>2020-10-07T13:34:41Z</time>
      </trkpt>
      <trkpt lat="43.45091" lon="6.59688">
        <ele>333.9</ele>
        <time>2020-10-07T13:34:42Z</time>
      </trkpt>
      <trkpt lat="43.45085" lon="6.5969">
        <ele>334.3</ele>
        <time>2020-10-07T13:34:48Z</time>
      </trkpt>
      <trkpt lat="43.45081" lon="6.59691">
        <ele>334.9</ele>
        <time>2020-10-07T13:34:54Z</time>
      </trkpt>
      <trkpt lat="43.45077" lon="6.59692">
        <ele>336.3</ele>
        <time>2020-10-07T13:35:04Z</time>
      </trkpt>
      <trkpt lat="43.45073" lon="6.59693">
        <ele>336.8</ele>
        <time>2020-10-07T13:35:11Z</time>
      </trkpt>
      <trkpt lat="43.45069" lon="6.59695">
        <ele>337.2</ele>
        <time>2020-10-07T13:35:19Z</time>
      </trkpt>
      <trkpt lat="43.45067" lon="6.597">
        <ele>338.2</ele>
        <time>2020-10-07T13:35:39Z</time>
      </trkpt>
      <trkpt lat="43.45064" lon="6.59704">
        <ele>338.6</ele>
        <time>2020-10-07T13:35:46Z</time>
      </trkpt>
      <trkpt lat="43.45063" lon="6.59704">
        <ele>338.6</ele>
        <time>2020-10-07T13:35:47Z</time>
      </trkpt>
      <trkpt lat="43.45058" lon="6.59712">
        <ele>339.5</ele>
        <time>2020-10-07T13:36:46Z</time>
      </trkpt>
      <trkpt lat="43.45058" lon="6.59706">
        <ele>339.3</ele>
        <time>2020-10-07T13:37:09Z</time>
      </trkpt>
      <trkpt lat="43.45058" lon="6.59705">
        <ele>339.3</ele>
        <time>2020-10-07T13:37:10Z</time>
      </trkpt>
      <trkpt lat="43.45062" lon="6.59695">
        <ele>339.1</ele>
        <time>2020-10-07T13:38:01Z</time>
      </trkpt>
      <trkpt lat="43.45066" lon="6.59693">
        <ele>338.4</ele>
        <time>2020-10-07T13:38:51Z</time>
      </trkpt>
      <trkpt lat="43.45066" lon="6.59693">
        <ele>338.4</ele>
        <time>2020-10-07T13:38:52Z</time>
      </trkpt>
      <trkpt lat="43.45074" lon="6.59687">
        <ele>337.5</ele>
        <time>2020-10-07T13:39:48Z</time>
      </trkpt>
      <trkpt lat="43.45077" lon="6.59683">
        <ele>336.9</ele>
        <time>2020-10-07T13:39:55Z</time>
      </trkpt>
      <trkpt lat="43.45078" lon="6.59683">
        <ele>336.7</ele>
        <time>2020-10-07T13:39:56Z</time>
      </trkpt>
      <trkpt lat="43.45085" lon="6.59678">
        <ele>334.7</ele>
        <time>2020-10-07T13:40:07Z</time>
      </trkpt>
      <trkpt lat="43.45089" lon="6.59677">
        <ele>334.4</ele>
        <time>2020-10-07T13:40:16Z</time>
      </trkpt>
      <trkpt lat="43.45092" lon="6.59674">
        <ele>332.9</ele>
        <time>2020-10-07T13:40:56Z</time>
      </trkpt>
      <trkpt lat="43.45093" lon="6.59674">
        <ele>332.9</ele>
        <time>2020-10-07T13:40:57Z</time>
      </trkpt>
      <trkpt lat="43.45094" lon="6.59663">
        <ele>332.9</ele>
        <time>2020-10-07T13:45:03Z</time>
      </trkpt>
      <trkpt lat="43.45094" lon="6.59663">
        <ele>332.9</ele>
        <time>2020-10-07T13:45:04Z</time>
      </trkpt>
      <trkpt lat="43.45097" lon="6.59669">
        <ele>332.2</ele>
        <time>2020-10-07T13:46:06Z</time>
      </trkpt>
      <trkpt lat="43.45104" lon="6.59664">
        <ele>330.3</ele>
        <time>2020-10-07T13:47:09Z</time>
      </trkpt>
      <trkpt lat="43.45104" lon="6.59664">
        <ele>330.3</ele>
        <time>2020-10-07T13:47:10Z</time>
      </trkpt>
      <trkpt lat="43.45108" lon="6.59668">
        <ele>331</ele>
        <time>2020-10-07T13:51:43Z</time>
      </trkpt>
      <trkpt lat="43.45108" lon="6.59668">
        <ele>331</ele>
        <time>2020-10-07T13:51:44Z</time>
      </trkpt>
      <trkpt lat="43.45107" lon="6.59677">
        <ele>330.4</ele>
        <time>2020-10-07T13:52:48Z</time>
      </trkpt>
      <trkpt lat="43.45106" lon="6.59677">
        <ele>330.4</ele>
        <time>2020-10-07T13:52:49Z</time>
      </trkpt>
      <trkpt lat="43.45099" lon="6.59678">
        <ele>331.3</ele>
        <time>2020-10-07T13:53:11Z</time>
      </trkpt>
      <trkpt lat="43.45095" lon="6.5968">
        <ele>332.1</ele>
        <time>2020-10-07T13:53:19Z</time>
      </trkpt>
      <trkpt lat="43.45091" lon="6.59683">
        <ele>332.6</ele>
        <time>2020-10-07T13:53:25Z</time>
      </trkpt>
      <trkpt lat="43.45087" lon="6.59685">
        <ele>332.9</ele>
        <time>2020-10-07T13:53:32Z</time>
      </trkpt>
      <trkpt lat="43.45083" lon="6.59688">
        <ele>333.6</ele>
        <time>2020-10-07T13:53:39Z</time>
      </trkpt>
      <trkpt lat="43.45079" lon="6.59691">
        <ele>334.2</ele>
        <time>2020-10-07T13:53:49Z</time>
      </trkpt>
      <trkpt lat="43.45076" lon="6.59692">
        <ele>334.7</ele>
        <time>2020-10-07T13:53:56Z</time>
      </trkpt>
      <trkpt lat="43.45075" lon="6.59693">
        <ele>334.8</ele>
        <time>2020-10-07T13:53:57Z</time>
      </trkpt>
      <trkpt lat="43.45073" lon="6.59703">
        <ele>337.3</ele>
        <time>2020-10-07T13:54:33Z</time>
      </trkpt>
      <trkpt lat="43.45073" lon="6.59709">
        <ele>338</ele>
        <time>2020-10-07T13:54:42Z</time>
      </trkpt>
      <trkpt lat="43.45071" lon="6.59713">
        <ele>338</ele>
        <time>2020-10-07T13:55:11Z</time>
      </trkpt>
      <trkpt lat="43.4507" lon="6.59714">
        <ele>338</ele>
        <time>2020-10-07T13:55:12Z</time>
      </trkpt>
      <trkpt lat="43.45069" lon="6.59724">
        <ele>338.6</ele>
        <time>2020-10-07T13:55:35Z</time>
      </trkpt>
      <trkpt lat="43.45068" lon="6.59729">
        <ele>339.3</ele>
        <time>2020-10-07T13:55:43Z</time>
      </trkpt>
      <trkpt lat="43.45068" lon="6.59735">
        <ele>340.1</ele>
        <time>2020-10-07T13:56:04Z</time>
      </trkpt>
      <trkpt lat="43.45067" lon="6.59741">
        <ele>341.9</ele>
        <time>2020-10-07T13:56:53Z</time>
      </trkpt>
      <trkpt lat="43.45067" lon="6.59742">
        <ele>342.1</ele>
        <time>2020-10-07T13:56:54Z</time>
      </trkpt>
      <trkpt lat="43.45072" lon="6.59748">
        <ele>345.6</ele>
        <time>2020-10-07T13:57:42Z</time>
      </trkpt>
      <trkpt lat="43.45076" lon="6.59748">
        <ele>346.2</ele>
        <time>2020-10-07T13:57:50Z</time>
      </trkpt>
      <trkpt lat="43.4508" lon="6.59748">
        <ele>347.4</ele>
        <time>2020-10-07T13:58:01Z</time>
      </trkpt>
      <trkpt lat="43.45081" lon="6.59748">
        <ele>347.4</ele>
        <time>2020-10-07T13:58:02Z</time>
      </trkpt>
      <trkpt lat="43.45079" lon="6.59759">
        <ele>349.9</ele>
        <time>2020-10-07T13:58:22Z</time>
      </trkpt>
      <trkpt lat="43.45082" lon="6.5976">
        <ele>350</ele>
        <time>2020-10-07T14:00:22Z</time>
      </trkpt>
      <trkpt lat="43.45083" lon="6.59761">
        <ele>350</ele>
        <time>2020-10-07T14:00:23Z</time>
      </trkpt>
      <trkpt lat="43.45088" lon="6.59767">
        <ele>350.1</ele>
        <time>2020-10-07T14:00:32Z</time>
      </trkpt>
      <trkpt lat="43.4509" lon="6.59771">
        <ele>350.7</ele>
        <time>2020-10-07T14:00:38Z</time>
      </trkpt>
      <trkpt lat="43.45093" lon="6.59776">
        <ele>351.1</ele>
        <time>2020-10-07T14:00:45Z</time>
      </trkpt>
      <trkpt lat="43.45097" lon="6.59779">
        <ele>351.5</ele>
        <time>2020-10-07T14:00:51Z</time>
      </trkpt>
      <trkpt lat="43.451" lon="6.59782">
        <ele>351.7</ele>
        <time>2020-10-07T14:00:57Z</time>
      </trkpt>
      <trkpt lat="43.45101" lon="6.59787">
        <ele>351.8</ele>
        <time>2020-10-07T14:01:02Z</time>
      </trkpt>
      <trkpt lat="43.45101" lon="6.59793">
        <ele>352.2</ele>
        <time>2020-10-07T14:01:06Z</time>
      </trkpt>
      <trkpt lat="43.45098" lon="6.59797">
        <ele>353.3</ele>
        <time>2020-10-07T14:01:19Z</time>
      </trkpt>
      <trkpt lat="43.45094" lon="6.598">
        <ele>357</ele>
        <time>2020-10-07T14:01:53Z</time>
      </trkpt>
      <trkpt lat="43.45094" lon="6.59801">
        <ele>357.1</ele>
        <time>2020-10-07T14:01:54Z</time>
      </trkpt>
      <trkpt lat="43.45088" lon="6.59809">
        <ele>358.1</ele>
        <time>2020-10-07T14:02:08Z</time>
      </trkpt>
      <trkpt lat="43.45084" lon="6.59812">
        <ele>358.8</ele>
        <time>2020-10-07T14:02:19Z</time>
      </trkpt>
      <trkpt lat="43.45081" lon="6.59816">
        <ele>360.1</ele>
        <time>2020-10-07T14:02:38Z</time>
      </trkpt>
      <trkpt lat="43.4508" lon="6.59822">
        <ele>360.3</ele>
        <time>2020-10-07T14:02:48Z</time>
      </trkpt>
      <trkpt lat="43.4508" lon="6.59828">
        <ele>360.5</ele>
        <time>2020-10-07T14:02:54Z</time>
      </trkpt>
      <trkpt lat="43.45083" lon="6.59831">
        <ele>360.1</ele>
        <time>2020-10-07T14:03:08Z</time>
      </trkpt>
      <trkpt lat="43.45084" lon="6.59831">
        <ele>360.1</ele>
        <time>2020-10-07T14:03:09Z</time>
      </trkpt>
      <trkpt lat="43.45085" lon="6.59842">
        <ele>359.1</ele>
        <time>2020-10-07T14:03:21Z</time>
      </trkpt>
      <trkpt lat="43.45086" lon="6.59847">
        <ele>358.9</ele>
        <time>2020-10-07T14:03:26Z</time>
      </trkpt>
      <trkpt lat="43.45087" lon="6.59853">
        <ele>358.2</ele>
        <time>2020-10-07T14:03:33Z</time>
      </trkpt>
      <trkpt lat="43.45087" lon="6.59859">
        <ele>357.3</ele>
        <time>2020-10-07T14:03:47Z</time>
      </trkpt>
      <trkpt lat="43.45086" lon="6.59864">
        <ele>357.8</ele>
        <time>2020-10-07T14:03:57Z</time>
      </trkpt>
      <trkpt lat="43.45083" lon="6.59868">
        <ele>358.1</ele>
        <time>2020-10-07T14:04:08Z</time>
      </trkpt>
      <trkpt lat="43.45082" lon="6.59874">
        <ele>357.4</ele>
        <time>2020-10-07T14:04:36Z</time>
      </trkpt>
      <trkpt lat="43.45082" lon="6.59874">
        <ele>357.2</ele>
        <time>2020-10-07T14:04:37Z</time>
      </trkpt>
      <trkpt lat="43.45081" lon="6.59885">
        <ele>357</ele>
        <time>2020-10-07T14:05:22Z</time>
      </trkpt>
      <trkpt lat="43.45082" lon="6.59891">
        <ele>356.1</ele>
        <time>2020-10-07T14:05:44Z</time>
      </trkpt>
      <trkpt lat="43.45082" lon="6.59891">
        <ele>356.2</ele>
        <time>2020-10-07T14:05:45Z</time>
      </trkpt>
      <trkpt lat="43.45088" lon="6.59898">
        <ele>357.8</ele>
        <time>2020-10-07T14:06:01Z</time>
      </trkpt>
      <trkpt lat="43.4509" lon="6.59903">
        <ele>358.7</ele>
        <time>2020-10-07T14:06:37Z</time>
      </trkpt>
      <trkpt lat="43.45092" lon="6.59909">
        <ele>358.6</ele>
        <time>2020-10-07T14:06:43Z</time>
      </trkpt>
      <trkpt lat="43.45091" lon="6.59914">
        <ele>358.5</ele>
        <time>2020-10-07T14:06:50Z</time>
      </trkpt>
      <trkpt lat="43.4509" lon="6.59915">
        <ele>358.5</ele>
        <time>2020-10-07T14:06:51Z</time>
      </trkpt>
      <trkpt lat="43.45084" lon="6.59919">
        <ele>359.9</ele>
        <time>2020-10-07T14:07:03Z</time>
      </trkpt>
      <trkpt lat="43.4508" lon="6.59922">
        <ele>360</ele>
        <time>2020-10-07T14:07:25Z</time>
      </trkpt>
      <trkpt lat="43.45077" lon="6.59925">
        <ele>360.3</ele>
        <time>2020-10-07T14:07:34Z</time>
      </trkpt>
      <trkpt lat="43.45074" lon="6.59929">
        <ele>361.5</ele>
        <time>2020-10-07T14:07:55Z</time>
      </trkpt>
      <trkpt lat="43.45073" lon="6.59929">
        <ele>361.6</ele>
        <time>2020-10-07T14:07:56Z</time>
      </trkpt>
      <trkpt lat="43.45081" lon="6.59927">
        <ele>362.1</ele>
        <time>2020-10-07T14:08:41Z</time>
      </trkpt>
      <trkpt lat="43.45084" lon="6.59931">
        <ele>362.1</ele>
        <time>2020-10-07T14:09:14Z</time>
      </trkpt>
      <trkpt lat="43.45084" lon="6.59931">
        <ele>362.1</ele>
        <time>2020-10-07T14:09:15Z</time>
      </trkpt>
      <trkpt lat="43.4509" lon="6.59939">
        <ele>362.8</ele>
        <time>2020-10-07T14:10:29Z</time>
      </trkpt>
      <trkpt lat="43.4509" lon="6.59939">
        <ele>362.9</ele>
        <time>2020-10-07T14:10:30Z</time>
      </trkpt>
      <trkpt lat="43.45085" lon="6.59948">
        <ele>365.4</ele>
        <time>2020-10-07T14:11:07Z</time>
      </trkpt>
      <trkpt lat="43.45082" lon="6.59953">
        <ele>366.1</ele>
        <time>2020-10-07T14:11:13Z</time>
      </trkpt>
      <trkpt lat="43.45081" lon="6.59958">
        <ele>366.9</ele>
        <time>2020-10-07T14:11:19Z</time>
      </trkpt>
      <trkpt lat="43.45081" lon="6.59964">
        <ele>368.7</ele>
        <time>2020-10-07T14:11:53Z</time>
      </trkpt>
      <trkpt lat="43.45081" lon="6.59964">
        <ele>368.7</ele>
        <time>2020-10-07T14:11:54Z</time>
      </trkpt>
      <trkpt lat="43.45085" lon="6.59968">
        <ele>370.2</ele>
        <time>2020-10-07T14:13:04Z</time>
      </trkpt>
      <trkpt lat="43.45088" lon="6.59967">
        <ele>371.2</ele>
        <time>2020-10-07T14:14:35Z</time>
      </trkpt>
      <trkpt lat="43.45089" lon="6.59967">
        <ele>371.2</ele>
        <time>2020-10-07T14:14:36Z</time>
      </trkpt>
      <trkpt lat="43.45085" lon="6.59972">
        <ele>372.2</ele>
        <time>2020-10-07T14:16:11Z</time>
      </trkpt>
      <trkpt lat="43.4508" lon="6.59963">
        <ele>367.8</ele>
        <time>2020-10-07T14:20:51Z</time>
      </trkpt>
      <trkpt lat="43.4508" lon="6.59963">
        <ele>367.9</ele>
        <time>2020-10-07T14:20:52Z</time>
      </trkpt>
      <trkpt lat="43.4508" lon="6.59952">
        <ele>367</ele>
        <time>2020-10-07T14:24:26Z</time>
      </trkpt>
      <trkpt lat="43.4508" lon="6.59951">
        <ele>367</ele>
        <time>2020-10-07T14:24:27Z</time>
      </trkpt>
      <trkpt lat="43.45084" lon="6.59948">
        <ele>367.2</ele>
        <time>2020-10-07T14:26:51Z</time>
      </trkpt>
      <trkpt lat="43.45084" lon="6.59948">
        <ele>367.1</ele>
        <time>2020-10-07T14:26:52Z</time>
      </trkpt>
      <trkpt lat="43.4509" lon="6.59939">
        <ele>362.4</ele>
        <time>2020-10-07T14:28:39Z</time>
      </trkpt>
      <trkpt lat="43.4509" lon="6.59939">
        <ele>362.3</ele>
        <time>2020-10-07T14:28:40Z</time>
      </trkpt>
      <trkpt lat="43.45085" lon="6.5993">
        <ele>361.4</ele>
        <time>2020-10-07T14:29:21Z</time>
      </trkpt>
      <trkpt lat="43.45089" lon="6.59927">
        <ele>359.4</ele>
        <time>2020-10-07T14:29:47Z</time>
      </trkpt>
      <trkpt lat="43.45089" lon="6.59927">
        <ele>359.3</ele>
        <time>2020-10-07T14:29:48Z</time>
      </trkpt>
      <trkpt lat="43.4509" lon="6.59917">
        <ele>357.9</ele>
        <time>2020-10-07T14:30:26Z</time>
      </trkpt>
      <trkpt lat="43.45089" lon="6.59912">
        <ele>357.6</ele>
        <time>2020-10-07T14:30:40Z</time>
      </trkpt>
      <trkpt lat="43.45091" lon="6.59906">
        <ele>357.9</ele>
        <time>2020-10-07T14:31:29Z</time>
      </trkpt>
      <trkpt lat="43.45091" lon="6.59906">
        <ele>358</ele>
        <time>2020-10-07T14:31:30Z</time>
      </trkpt>
      <trkpt lat="43.45084" lon="6.599">
        <ele>356.2</ele>
        <time>2020-10-07T14:32:14Z</time>
      </trkpt>
      <trkpt lat="43.45081" lon="6.59896">
        <ele>355.3</ele>
        <time>2020-10-07T14:32:25Z</time>
      </trkpt>
      <trkpt lat="43.4508" lon="6.5989">
        <ele>354.8</ele>
        <time>2020-10-07T14:32:34Z</time>
      </trkpt>
      <trkpt lat="43.4508" lon="6.59889">
        <ele>354.7</ele>
        <time>2020-10-07T14:32:35Z</time>
      </trkpt>
      <trkpt lat="43.45079" lon="6.5988">
        <ele>355</ele>
        <time>2020-10-07T14:32:45Z</time>
      </trkpt>
      <trkpt lat="43.45079" lon="6.59874">
        <ele>355.2</ele>
        <time>2020-10-07T14:32:50Z</time>
      </trkpt>
      <trkpt lat="43.45082" lon="6.59869">
        <ele>355.4</ele>
        <time>2020-10-07T14:32:55Z</time>
      </trkpt>
      <trkpt lat="43.45084" lon="6.59864">
        <ele>356.1</ele>
        <time>2020-10-07T14:33:35Z</time>
      </trkpt>
      <trkpt lat="43.45084" lon="6.59864">
        <ele>356.1</ele>
        <time>2020-10-07T14:33:36Z</time>
      </trkpt>
      <trkpt lat="43.45087" lon="6.59853">
        <ele>356.4</ele>
        <time>2020-10-07T14:33:51Z</time>
      </trkpt>
      <trkpt lat="43.45089" lon="6.59848">
        <ele>356.8</ele>
        <time>2020-10-07T14:33:56Z</time>
      </trkpt>
      <trkpt lat="43.45091" lon="6.59845">
        <ele>356.5</ele>
        <time>2020-10-07T14:33:59Z</time>
      </trkpt>
      <trkpt lat="43.45094" lon="6.59841">
        <ele>356.4</ele>
        <time>2020-10-07T14:34:03Z</time>
      </trkpt>
      <trkpt lat="43.45097" lon="6.59837">
        <ele>356</ele>
        <time>2020-10-07T14:34:09Z</time>
      </trkpt>
      <trkpt lat="43.45101" lon="6.59836">
        <ele>355.4</ele>
        <time>2020-10-07T14:34:16Z</time>
      </trkpt>
      <trkpt lat="43.45105" lon="6.59836">
        <ele>354.2</ele>
        <time>2020-10-07T14:34:25Z</time>
      </trkpt>
      <trkpt lat="43.45109" lon="6.59834">
        <ele>353.2</ele>
        <time>2020-10-07T14:34:32Z</time>
      </trkpt>
      <trkpt lat="43.45111" lon="6.59829">
        <ele>352.7</ele>
        <time>2020-10-07T14:34:38Z</time>
      </trkpt>
      <trkpt lat="43.45112" lon="6.59829">
        <ele>352.7</ele>
        <time>2020-10-07T14:34:39Z</time>
      </trkpt>
      <trkpt lat="43.45117" lon="6.59821">
        <ele>350.6</ele>
        <time>2020-10-07T14:35:01Z</time>
      </trkpt>
      <trkpt lat="43.45114" lon="6.59816">
        <ele>350.5</ele>
        <time>2020-10-07T14:35:22Z</time>
      </trkpt>
      <trkpt lat="43.45115" lon="6.59811">
        <ele>351</ele>
        <time>2020-10-07T14:35:33Z</time>
      </trkpt>
      <trkpt lat="43.45115" lon="6.59805">
        <ele>350.7</ele>
        <time>2020-10-07T14:35:41Z</time>
      </trkpt>
      <trkpt lat="43.45114" lon="6.59804">
        <ele>350.7</ele>
        <time>2020-10-07T14:35:42Z</time>
      </trkpt>
      <trkpt lat="43.45108" lon="6.59798">
        <ele>351.4</ele>
        <time>2020-10-07T14:35:54Z</time>
      </trkpt>
      <trkpt lat="43.45106" lon="6.59793">
        <ele>351.7</ele>
        <time>2020-10-07T14:36:25Z</time>
      </trkpt>
      <trkpt lat="43.45102" lon="6.5979">
        <ele>352.1</ele>
        <time>2020-10-07T14:36:40Z</time>
      </trkpt>
      <trkpt lat="43.45099" lon="6.59786">
        <ele>352.1</ele>
        <time>2020-10-07T14:36:49Z</time>
      </trkpt>
      <trkpt lat="43.45099" lon="6.59785">
        <ele>352.1</ele>
        <time>2020-10-07T14:36:50Z</time>
      </trkpt>
      <trkpt lat="43.45092" lon="6.59779">
        <ele>351.5</ele>
        <time>2020-10-07T14:37:08Z</time>
      </trkpt>
      <trkpt lat="43.4509" lon="6.59775">
        <ele>350.1</ele>
        <time>2020-10-07T14:37:17Z</time>
      </trkpt>
      <trkpt lat="43.45087" lon="6.59771">
        <ele>349.4</ele>
        <time>2020-10-07T14:37:22Z</time>
      </trkpt>
      <trkpt lat="43.45085" lon="6.59766">
        <ele>349</ele>
        <time>2020-10-07T14:37:31Z</time>
      </trkpt>
      <trkpt lat="43.45088" lon="6.59761">
        <ele>348.3</ele>
        <time>2020-10-07T14:37:38Z</time>
      </trkpt>
      <trkpt lat="43.4509" lon="6.59756">
        <ele>347.4</ele>
        <time>2020-10-07T14:37:46Z</time>
      </trkpt>
      <trkpt lat="43.45093" lon="6.59751">
        <ele>346.1</ele>
        <time>2020-10-07T14:37:59Z</time>
      </trkpt>
      <trkpt lat="43.45093" lon="6.59751">
        <ele>346</ele>
        <time>2020-10-07T14:38:00Z</time>
      </trkpt>
      <trkpt lat="43.45091" lon="6.59741">
        <ele>343.1</ele>
        <time>2020-10-07T14:38:21Z</time>
      </trkpt>
      <trkpt lat="43.45091" lon="6.59735">
        <ele>341.7</ele>
        <time>2020-10-07T14:38:30Z</time>
      </trkpt>
      <trkpt lat="43.45092" lon="6.5973">
        <ele>339.2</ele>
        <time>2020-10-07T14:38:40Z</time>
      </trkpt>
      <trkpt lat="43.4509" lon="6.59724">
        <ele>337.1</ele>
        <time>2020-10-07T14:38:56Z</time>
      </trkpt>
      <trkpt lat="43.45088" lon="6.59719">
        <ele>335.6</ele>
        <time>2020-10-07T14:39:10Z</time>
      </trkpt>
      <trkpt lat="43.45088" lon="6.59719">
        <ele>335.7</ele>
        <time>2020-10-07T14:39:11Z</time>
      </trkpt>
      <trkpt lat="43.45089" lon="6.59708">
        <ele>333</ele>
        <time>2020-10-07T14:39:29Z</time>
      </trkpt>
      <trkpt lat="43.45087" lon="6.59704">
        <ele>332.2</ele>
        <time>2020-10-07T14:39:35Z</time>
      </trkpt>
      <trkpt lat="43.45086" lon="6.59698">
        <ele>331.1</ele>
        <time>2020-10-07T14:39:41Z</time>
      </trkpt>
      <trkpt lat="43.45085" lon="6.59693">
        <ele>330.4</ele>
        <time>2020-10-07T14:39:47Z</time>
      </trkpt>
      <trkpt lat="43.45086" lon="6.59688">
        <ele>330</ele>
        <time>2020-10-07T14:39:51Z</time>
      </trkpt>
      <trkpt lat="43.45088" lon="6.59683">
        <ele>329.4</ele>
        <time>2020-10-07T14:39:55Z</time>
      </trkpt>
      <trkpt lat="43.45091" lon="6.59679">
        <ele>328.8</ele>
        <time>2020-10-07T14:39:59Z</time>
      </trkpt>
      <trkpt lat="43.45094" lon="6.59675">
        <ele>328.4</ele>
        <time>2020-10-07T14:40:05Z</time>
      </trkpt>
      <trkpt lat="43.45098" lon="6.59672">
        <ele>327.9</ele>
        <time>2020-10-07T14:40:16Z</time>
      </trkpt>
      <trkpt lat="43.45098" lon="6.59672">
        <ele>327.9</ele>
        <time>2020-10-07T14:40:17Z</time>
      </trkpt>
      <trkpt lat="43.45104" lon="6.59667">
        <ele>326.2</ele>
        <time>2020-10-07T14:40:49Z</time>
      </trkpt>
      <trkpt lat="43.45105" lon="6.59661">
        <ele>326</ele>
        <time>2020-10-07T14:41:03Z</time>
      </trkpt>
      <trkpt lat="43.45109" lon="6.59658">
        <ele>325.6</ele>
        <time>2020-10-07T14:41:20Z</time>
      </trkpt>
      <trkpt lat="43.45109" lon="6.59658">
        <ele>325.6</ele>
        <time>2020-10-07T14:41:21Z</time>
      </trkpt>
      <trkpt lat="43.45117" lon="6.59656">
        <ele>326.8</ele>
        <time>2020-10-07T14:41:46Z</time>
      </trkpt>
      <trkpt lat="43.45121" lon="6.59656">
        <ele>326</ele>
        <time>2020-10-07T14:42:04Z</time>
      </trkpt>
      <trkpt lat="43.45124" lon="6.59651">
        <ele>324.1</ele>
        <time>2020-10-07T14:42:42Z</time>
      </trkpt>
      <trkpt lat="43.45124" lon="6.59651">
        <ele>324.2</ele>
        <time>2020-10-07T14:42:43Z</time>
      </trkpt>
      <trkpt lat="43.45131" lon="6.59649">
        <ele>323.7</ele>
        <time>2020-10-07T14:43:12Z</time>
      </trkpt>
      <trkpt lat="43.45134" lon="6.59652">
        <ele>325</ele>
        <time>2020-10-07T14:43:37Z</time>
      </trkpt>
      <trkpt lat="43.45135" lon="6.59658">
        <ele>324.6</ele>
        <time>2020-10-07T14:43:49Z</time>
      </trkpt>
      <trkpt lat="43.45135" lon="6.59659">
        <ele>324.6</ele>
        <time>2020-10-07T14:43:50Z</time>
      </trkpt>
      <trkpt lat="43.45142" lon="6.59666">
        <ele>326</ele>
        <time>2020-10-07T14:44:39Z</time>
      </trkpt>
      <trkpt lat="43.45143" lon="6.59671">
        <ele>325.7</ele>
        <time>2020-10-07T14:44:47Z</time>
      </trkpt>
      <trkpt lat="43.45148" lon="6.59671">
        <ele>325.9</ele>
        <time>2020-10-07T14:45:00Z</time>
      </trkpt>
      <trkpt lat="43.45148" lon="6.59671">
        <ele>325.9</ele>
        <time>2020-10-07T14:45:01Z</time>
      </trkpt>
      <trkpt lat="43.45155" lon="6.59676">
        <ele>326.7</ele>
        <time>2020-10-07T14:46:03Z</time>
      </trkpt>
      <trkpt lat="43.45156" lon="6.59676">
        <ele>326.7</ele>
        <time>2020-10-07T14:46:04Z</time>
      </trkpt>
      <trkpt lat="43.45152" lon="6.59673">
        <ele>324.8</ele>
        <time>2020-10-07T14:48:07Z</time>
      </trkpt>
      <trkpt lat="43.45151" lon="6.59673">
        <ele>324.7</ele>
        <time>2020-10-07T14:48:08Z</time>
      </trkpt>
      <trkpt lat="43.45156" lon="6.59665">
        <ele>321.6</ele>
        <time>2020-10-07T14:48:36Z</time>
      </trkpt>
      <trkpt lat="43.45155" lon="6.59659">
        <ele>320.5</ele>
        <time>2020-10-07T14:48:49Z</time>
      </trkpt>
      <trkpt lat="43.45158" lon="6.59654">
        <ele>320.2</ele>
        <time>2020-10-07T14:52:52Z</time>
      </trkpt>
      <trkpt lat="43.45158" lon="6.59653">
        <ele>320.2</ele>
        <time>2020-10-07T14:52:53Z</time>
      </trkpt>
      <trkpt lat="43.45161" lon="6.59644">
        <ele>319.6</ele>
        <time>2020-10-07T14:53:21Z</time>
      </trkpt>
      <trkpt lat="43.45164" lon="6.59639">
        <ele>319.3</ele>
        <time>2020-10-07T14:53:30Z</time>
      </trkpt>
      <trkpt lat="43.45168" lon="6.59639">
        <ele>317.1</ele>
        <time>2020-10-07T14:53:50Z</time>
      </trkpt>
      <trkpt lat="43.45172" lon="6.59636">
        <ele>315.4</ele>
        <time>2020-10-07T14:54:14Z</time>
      </trkpt>
      <trkpt lat="43.45172" lon="6.59636">
        <ele>315.4</ele>
        <time>2020-10-07T14:54:15Z</time>
      </trkpt>
      <trkpt lat="43.45175" lon="6.59626">
        <ele>315</ele>
        <time>2020-10-07T14:54:38Z</time>
      </trkpt>
      <trkpt lat="43.45173" lon="6.5962">
        <ele>311</ele>
        <time>2020-10-07T14:55:28Z</time>
      </trkpt>
      <trkpt lat="43.45173" lon="6.5962">
        <ele>310.9</ele>
        <time>2020-10-07T14:55:29Z</time>
      </trkpt>
      <trkpt lat="43.45177" lon="6.59611">
        <ele>307</ele>
        <time>2020-10-07T14:55:46Z</time>
      </trkpt>
      <trkpt lat="43.45179" lon="6.59605">
        <ele>305.6</ele>
        <time>2020-10-07T14:55:56Z</time>
      </trkpt>
      <trkpt lat="43.45183" lon="6.59602">
        <ele>304.2</ele>
        <time>2020-10-07T14:56:14Z</time>
      </trkpt>
      <trkpt lat="43.45186" lon="6.59598">
        <ele>303.5</ele>
        <time>2020-10-07T14:56:25Z</time>
      </trkpt>
      <trkpt lat="43.45189" lon="6.59595">
        <ele>302.7</ele>
        <time>2020-10-07T14:56:33Z</time>
      </trkpt>
      <trkpt lat="43.45189" lon="6.59594">
        <ele>302.4</ele>
        <time>2020-10-07T14:56:34Z</time>
      </trkpt>
      <trkpt lat="43.45196" lon="6.59588">
        <ele>299.6</ele>
        <time>2020-10-07T14:57:51Z</time>
      </trkpt>
      <trkpt lat="43.45196" lon="6.59587">
        <ele>299.6</ele>
        <time>2020-10-07T14:57:52Z</time>
      </trkpt>
      <trkpt lat="43.45198" lon="6.59583">
        <ele>298.4</ele>
        <time>2020-10-07T15:00:02Z</time>
      </trkpt>
      <trkpt lat="43.45198" lon="6.59582">
        <ele>298.4</ele>
        <time>2020-10-07T15:00:03Z</time>
      </trkpt>
      <trkpt lat="43.45203" lon="6.59574">
        <ele>293.6</ele>
        <time>2020-10-07T15:01:06Z</time>
      </trkpt>
      <trkpt lat="43.45203" lon="6.59573">
        <ele>293.5</ele>
        <time>2020-10-07T15:01:07Z</time>
      </trkpt>
      <trkpt lat="43.45212" lon="6.59573">
        <ele>289.4</ele>
        <time>2020-10-07T15:01:48Z</time>
      </trkpt>
      <trkpt lat="43.45216" lon="6.59571">
        <ele>286.8</ele>
        <time>2020-10-07T15:02:07Z</time>
      </trkpt>
      <trkpt lat="43.45216" lon="6.59571">
        <ele>286.6</ele>
        <time>2020-10-07T15:02:08Z</time>
      </trkpt>
      <trkpt lat="43.45224" lon="6.59571">
        <ele>284.1</ele>
        <time>2020-10-07T15:02:29Z</time>
      </trkpt>
      <trkpt lat="43.45227" lon="6.59566">
        <ele>279.1</ele>
        <time>2020-10-07T15:03:05Z</time>
      </trkpt>
      <trkpt lat="43.45229" lon="6.59561">
        <ele>277.3</ele>
        <time>2020-10-07T15:03:22Z</time>
      </trkpt>
      <trkpt lat="43.45229" lon="6.59561">
        <ele>277.2</ele>
        <time>2020-10-07T15:03:23Z</time>
      </trkpt>
      <trkpt lat="43.45233" lon="6.59551">
        <ele>273.9</ele>
        <time>2020-10-07T15:03:52Z</time>
      </trkpt>
      <trkpt lat="43.45235" lon="6.59546">
        <ele>271.5</ele>
        <time>2020-10-07T15:04:05Z</time>
      </trkpt>
      <trkpt lat="43.45239" lon="6.59544">
        <ele>268.6</ele>
        <time>2020-10-07T15:04:37Z</time>
      </trkpt>
      <trkpt lat="43.45239" lon="6.59544">
        <ele>268.5</ele>
        <time>2020-10-07T15:04:38Z</time>
      </trkpt>
      <trkpt lat="43.45239" lon="6.59537">
        <ele>263.5</ele>
        <time>2020-10-07T15:05:43Z</time>
      </trkpt>
      <trkpt lat="43.45239" lon="6.59537">
        <ele>263.2</ele>
        <time>2020-10-07T15:05:44Z</time>
      </trkpt>
      <trkpt lat="43.45242" lon="6.59527">
        <ele>260</ele>
        <time>2020-10-07T15:06:08Z</time>
      </trkpt>
      <trkpt lat="43.45243" lon="6.59521">
        <ele>258.5</ele>
        <time>2020-10-07T15:06:24Z</time>
      </trkpt>
      <trkpt lat="43.45241" lon="6.59516">
        <ele>256.3</ele>
        <time>2020-10-07T15:06:39Z</time>
      </trkpt>
      <trkpt lat="43.45242" lon="6.59511">
        <ele>255.2</ele>
        <time>2020-10-07T15:06:47Z</time>
      </trkpt>
      <trkpt lat="43.45242" lon="6.5951">
        <ele>255.1</ele>
        <time>2020-10-07T15:06:48Z</time>
      </trkpt>
      <trkpt lat="43.45247" lon="6.59503">
        <ele>252.2</ele>
        <time>2020-10-07T15:07:04Z</time>
      </trkpt>
      <trkpt lat="43.4525" lon="6.595">
        <ele>251.3</ele>
        <time>2020-10-07T15:07:09Z</time>
      </trkpt>
      <trkpt lat="43.45254" lon="6.59498">
        <ele>250.8</ele>
        <time>2020-10-07T15:07:18Z</time>
      </trkpt>
      <trkpt lat="43.45258" lon="6.59495">
        <ele>249.8</ele>
        <time>2020-10-07T15:07:32Z</time>
      </trkpt>
      <trkpt lat="43.45261" lon="6.59491">
        <ele>248.9</ele>
        <time>2020-10-07T15:07:40Z</time>
      </trkpt>
      <trkpt lat="43.45264" lon="6.59488">
        <ele>247.1</ele>
        <time>2020-10-07T15:07:51Z</time>
      </trkpt>
      <trkpt lat="43.45265" lon="6.59487">
        <ele>246.9</ele>
        <time>2020-10-07T15:07:52Z</time>
      </trkpt>
      <trkpt lat="43.45271" lon="6.59482">
        <ele>245.2</ele>
        <time>2020-10-07T15:08:05Z</time>
      </trkpt>
      <trkpt lat="43.45275" lon="6.59479">
        <ele>244.4</ele>
        <time>2020-10-07T15:08:11Z</time>
      </trkpt>
      <trkpt lat="43.45279" lon="6.59477">
        <ele>242.9</ele>
        <time>2020-10-07T15:08:21Z</time>
      </trkpt>
      <trkpt lat="43.45283" lon="6.59477">
        <ele>241.4</ele>
        <time>2020-10-07T15:08:38Z</time>
      </trkpt>
      <trkpt lat="43.45287" lon="6.59476">
        <ele>240.7</ele>
        <time>2020-10-07T15:08:48Z</time>
      </trkpt>
      <trkpt lat="43.45288" lon="6.59471">
        <ele>240.2</ele>
        <time>2020-10-07T15:08:57Z</time>
      </trkpt>
      <trkpt lat="43.45289" lon="6.5947">
        <ele>240.2</ele>
        <time>2020-10-07T15:08:58Z</time>
      </trkpt>
      <trkpt lat="43.45295" lon="6.59465">
        <ele>239.9</ele>
        <time>2020-10-07T15:09:10Z</time>
      </trkpt>
      <trkpt lat="43.45299" lon="6.59463">
        <ele>239.1</ele>
        <time>2020-10-07T15:09:21Z</time>
      </trkpt>
      <trkpt lat="43.45302" lon="6.59459">
        <ele>237.9</ele>
        <time>2020-10-07T15:09:33Z</time>
      </trkpt>
      <trkpt lat="43.45304" lon="6.59455">
        <ele>237</ele>
        <time>2020-10-07T15:09:41Z</time>
      </trkpt>
      <trkpt lat="43.45305" lon="6.59449">
        <ele>235.6</ele>
        <time>2020-10-07T15:09:53Z</time>
      </trkpt>
      <trkpt lat="43.45303" lon="6.59444">
        <ele>234.8</ele>
        <time>2020-10-07T15:10:03Z</time>
      </trkpt>
      <trkpt lat="43.45303" lon="6.59443">
        <ele>234.7</ele>
        <time>2020-10-07T15:10:04Z</time>
      </trkpt>
      <trkpt lat="43.45309" lon="6.59435">
        <ele>234.2</ele>
        <time>2020-10-07T15:10:18Z</time>
      </trkpt>
      <trkpt lat="43.45312" lon="6.59431">
        <ele>234.4</ele>
        <time>2020-10-07T15:10:21Z</time>
      </trkpt>
      <trkpt lat="43.45315" lon="6.59428">
        <ele>234.3</ele>
        <time>2020-10-07T15:10:25Z</time>
      </trkpt>
      <trkpt lat="43.45319" lon="6.59425">
        <ele>234.3</ele>
        <time>2020-10-07T15:10:30Z</time>
      </trkpt>
      <trkpt lat="43.45322" lon="6.59429">
        <ele>234.5</ele>
        <time>2020-10-07T15:10:38Z</time>
      </trkpt>
      <trkpt lat="43.45325" lon="6.59426">
        <ele>234.1</ele>
        <time>2020-10-07T15:10:43Z</time>
      </trkpt>
      <trkpt lat="43.45328" lon="6.59423">
        <ele>233.9</ele>
        <time>2020-10-07T15:10:45Z</time>
      </trkpt>
      <trkpt lat="43.45332" lon="6.59419">
        <ele>234</ele>
        <time>2020-10-07T15:10:49Z</time>
      </trkpt>
      <trkpt lat="43.45336" lon="6.59417">
        <ele>234.1</ele>
        <time>2020-10-07T15:10:54Z</time>
      </trkpt>
      <trkpt lat="43.4534" lon="6.59416">
        <ele>234.2</ele>
        <time>2020-10-07T15:10:58Z</time>
      </trkpt>
      <trkpt lat="43.45344" lon="6.59416">
        <ele>234.2</ele>
        <time>2020-10-07T15:11:03Z</time>
      </trkpt>
      <trkpt lat="43.45347" lon="6.59413">
        <ele>236.2</ele>
        <time>2020-10-07T15:11:32Z</time>
      </trkpt>
      <trkpt lat="43.45348" lon="6.59412">
        <ele>236.4</ele>
        <time>2020-10-07T15:11:33Z</time>
      </trkpt>
      <trkpt lat="43.45355" lon="6.59411">
        <ele>237.8</ele>
        <time>2020-10-07T15:11:47Z</time>
      </trkpt>
      <trkpt lat="43.45359" lon="6.5941">
        <ele>238.8</ele>
        <time>2020-10-07T15:11:55Z</time>
      </trkpt>
      <trkpt lat="43.45363" lon="6.59411">
        <ele>239.4</ele>
        <time>2020-10-07T15:12:04Z</time>
      </trkpt>
      <trkpt lat="43.45367" lon="6.5941">
        <ele>239.6</ele>
        <time>2020-10-07T15:12:11Z</time>
      </trkpt>
      <trkpt lat="43.45371" lon="6.59413">
        <ele>239.8</ele>
        <time>2020-10-07T15:12:50Z</time>
      </trkpt>
      <trkpt lat="43.45371" lon="6.59413">
        <ele>239.7</ele>
        <time>2020-10-07T15:12:51Z</time>
      </trkpt>
      <trkpt lat="43.45378" lon="6.59414">
        <ele>240.4</ele>
        <time>2020-10-07T15:13:23Z</time>
      </trkpt>
      <trkpt lat="43.45382" lon="6.59417">
        <ele>240</ele>
        <time>2020-10-07T15:13:48Z</time>
      </trkpt>
      <trkpt lat="43.45378" lon="6.59418">
        <ele>240.3</ele>
        <time>2020-10-07T15:14:43Z</time>
      </trkpt>
      <trkpt lat="43.45378" lon="6.59418">
        <ele>240.2</ele>
        <time>2020-10-07T15:14:44Z</time>
      </trkpt>
      <trkpt lat="43.45373" lon="6.59416">
        <ele>240</ele>
        <time>2020-10-07T15:19:36Z</time>
      </trkpt>
      <trkpt lat="43.45373" lon="6.59416">
        <ele>240.1</ele>
        <time>2020-10-07T15:19:37Z</time>
      </trkpt>
      <trkpt lat="43.45368" lon="6.59409">
        <ele>240.5</ele>
        <time>2020-10-07T15:19:54Z</time>
      </trkpt>
      <trkpt lat="43.45364" lon="6.59405">
        <ele>240.1</ele>
        <time>2020-10-07T15:20:03Z</time>
      </trkpt>
      <trkpt lat="43.4536" lon="6.59405">
        <ele>237</ele>
        <time>2020-10-07T15:20:38Z</time>
      </trkpt>
      <trkpt lat="43.45359" lon="6.59404">
        <ele>236.8</ele>
        <time>2020-10-07T15:20:39Z</time>
      </trkpt>
      <trkpt lat="43.45353" lon="6.59409">
        <ele>235.1</ele>
        <time>2020-10-07T15:20:55Z</time>
      </trkpt>
      <trkpt lat="43.45349" lon="6.59412">
        <ele>234.9</ele>
        <time>2020-10-07T15:21:03Z</time>
      </trkpt>
      <trkpt lat="43.45345" lon="6.59414">
        <ele>234.3</ele>
        <time>2020-10-07T15:21:09Z</time>
      </trkpt>
      <trkpt lat="43.45342" lon="6.59415">
        <ele>234.2</ele>
        <time>2020-10-07T15:21:15Z</time>
      </trkpt>
      <trkpt lat="43.45338" lon="6.59417">
        <ele>234.4</ele>
        <time>2020-10-07T15:21:20Z</time>
      </trkpt>
      <trkpt lat="43.45335" lon="6.5942">
        <ele>234.1</ele>
        <time>2020-10-07T15:21:26Z</time>
      </trkpt>
      <trkpt lat="43.45332" lon="6.59422">
        <ele>234.2</ele>
        <time>2020-10-07T15:21:30Z</time>
      </trkpt>
      <trkpt lat="43.45327" lon="6.59423">
        <ele>234.4</ele>
        <time>2020-10-07T15:21:33Z</time>
      </trkpt>
      <trkpt lat="43.45323" lon="6.59424">
        <ele>234.5</ele>
        <time>2020-10-07T15:21:37Z</time>
      </trkpt>
      <trkpt lat="43.45319" lon="6.59424">
        <ele>234.7</ele>
        <time>2020-10-07T15:21:43Z</time>
      </trkpt>
      <trkpt lat="43.45318" lon="6.59424">
        <ele>234.9</ele>
        <time>2020-10-07T15:21:44Z</time>
      </trkpt>
      <trkpt lat="43.45311" lon="6.59426">
        <ele>235.4</ele>
        <time>2020-10-07T15:21:49Z</time>
      </trkpt>
      <trkpt lat="43.45308" lon="6.59425">
        <ele>235.5</ele>
        <time>2020-10-07T15:21:51Z</time>
      </trkpt>
      <trkpt lat="43.45303" lon="6.59425">
        <ele>235.5</ele>
        <time>2020-10-07T15:21:54Z</time>
      </trkpt>
      <trkpt lat="43.45299" lon="6.59424">
        <ele>235.6</ele>
        <time>2020-10-07T15:21:58Z</time>
      </trkpt>
      <trkpt lat="43.45295" lon="6.59424">
        <ele>235.6</ele>
        <time>2020-10-07T15:22:02Z</time>
      </trkpt>
      <trkpt lat="43.45291" lon="6.59423">
        <ele>235.6</ele>
        <time>2020-10-07T15:22:07Z</time>
      </trkpt>
      <trkpt lat="43.45288" lon="6.59419">
        <ele>235.6</ele>
        <time>2020-10-07T15:22:10Z</time>
      </trkpt>
      <trkpt lat="43.45284" lon="6.59416">
        <ele>235.5</ele>
        <time>2020-10-07T15:22:14Z</time>
      </trkpt>
      <trkpt lat="43.45281" lon="6.59415">
        <ele>235.5</ele>
        <time>2020-10-07T15:22:18Z</time>
      </trkpt>
      <trkpt lat="43.45277" lon="6.59413">
        <ele>235.5</ele>
        <time>2020-10-07T15:22:21Z</time>
      </trkpt>
      <trkpt lat="43.45274" lon="6.59411">
        <ele>235.2</ele>
        <time>2020-10-07T15:22:23Z</time>
      </trkpt>
      <trkpt lat="43.4527" lon="6.59409">
        <ele>235.1</ele>
        <time>2020-10-07T15:22:27Z</time>
      </trkpt>
      <trkpt lat="43.45266" lon="6.59407">
        <ele>235.4</ele>
        <time>2020-10-07T15:22:30Z</time>
      </trkpt>
      <trkpt lat="43.45262" lon="6.59406">
        <ele>235.6</ele>
        <time>2020-10-07T15:22:34Z</time>
      </trkpt>
      <trkpt lat="43.45259" lon="6.59405">
        <ele>235.7</ele>
        <time>2020-10-07T15:22:37Z</time>
      </trkpt>
      <trkpt lat="43.45256" lon="6.59403">
        <ele>235.6</ele>
        <time>2020-10-07T15:22:41Z</time>
      </trkpt>
      <trkpt lat="43.45252" lon="6.59401">
        <ele>235.7</ele>
        <time>2020-10-07T15:22:46Z</time>
      </trkpt>
      <trkpt lat="43.45251" lon="6.59401">
        <ele>235.8</ele>
        <time>2020-10-07T15:22:47Z</time>
      </trkpt>
      <trkpt lat="43.45245" lon="6.59401">
        <ele>235.8</ele>
        <time>2020-10-07T15:22:55Z</time>
      </trkpt>
      <trkpt lat="43.45241" lon="6.59399">
        <ele>235.9</ele>
        <time>2020-10-07T15:22:58Z</time>
      </trkpt>
      <trkpt lat="43.45237" lon="6.59399">
        <ele>236</ele>
        <time>2020-10-07T15:23:01Z</time>
      </trkpt>
      <trkpt lat="43.45234" lon="6.59397">
        <ele>236.1</ele>
        <time>2020-10-07T15:23:04Z</time>
      </trkpt>
      <trkpt lat="43.45231" lon="6.59397">
        <ele>236.3</ele>
        <time>2020-10-07T15:23:06Z</time>
      </trkpt>
      <trkpt lat="43.45227" lon="6.59396">
        <ele>236.4</ele>
        <time>2020-10-07T15:23:09Z</time>
      </trkpt>
      <trkpt lat="43.45224" lon="6.59395">
        <ele>236.6</ele>
        <time>2020-10-07T15:23:12Z</time>
      </trkpt>
      <trkpt lat="43.4522" lon="6.59394">
        <ele>236.7</ele>
        <time>2020-10-07T15:23:17Z</time>
      </trkpt>
      <trkpt lat="43.45216" lon="6.59393">
        <ele>236.6</ele>
        <time>2020-10-07T15:23:21Z</time>
      </trkpt>
      <trkpt lat="43.45212" lon="6.59391">
        <ele>236.3</ele>
        <time>2020-10-07T15:23:26Z</time>
      </trkpt>
      <trkpt lat="43.45209" lon="6.5939">
        <ele>236</ele>
        <time>2020-10-07T15:23:31Z</time>
      </trkpt>
      <trkpt lat="43.45205" lon="6.59387">
        <ele>235.5</ele>
        <time>2020-10-07T15:23:34Z</time>
      </trkpt>
      <trkpt lat="43.45202" lon="6.59385">
        <ele>235.2</ele>
        <time>2020-10-07T15:23:37Z</time>
      </trkpt>
      <trkpt lat="43.45199" lon="6.59383">
        <ele>234.8</ele>
        <time>2020-10-07T15:23:40Z</time>
      </trkpt>
      <trkpt lat="43.45195" lon="6.59382">
        <ele>234.5</ele>
        <time>2020-10-07T15:23:43Z</time>
      </trkpt>
      <trkpt lat="43.45191" lon="6.59381">
        <ele>234</ele>
        <time>2020-10-07T15:23:47Z</time>
      </trkpt>
      <trkpt lat="43.4519" lon="6.59382">
        <ele>234</ele>
        <time>2020-10-07T15:23:48Z</time>
      </trkpt>
      <trkpt lat="43.45184" lon="6.59379">
        <ele>233.5</ele>
        <time>2020-10-07T15:23:54Z</time>
      </trkpt>
      <trkpt lat="43.4518" lon="6.59378">
        <ele>233.2</ele>
        <time>2020-10-07T15:23:57Z</time>
      </trkpt>
      <trkpt lat="43.45177" lon="6.59377">
        <ele>233.1</ele>
        <time>2020-10-07T15:24:00Z</time>
      </trkpt>
      <trkpt lat="43.45173" lon="6.59376">
        <ele>232.8</ele>
        <time>2020-10-07T15:24:03Z</time>
      </trkpt>
      <trkpt lat="43.45169" lon="6.59375">
        <ele>232.5</ele>
        <time>2020-10-07T15:24:07Z</time>
      </trkpt>
      <trkpt lat="43.45166" lon="6.59375">
        <ele>232</ele>
        <time>2020-10-07T15:24:10Z</time>
      </trkpt>
      <trkpt lat="43.45162" lon="6.59375">
        <ele>231.9</ele>
        <time>2020-10-07T15:24:13Z</time>
      </trkpt>
      <trkpt lat="43.45158" lon="6.59376">
        <ele>231.9</ele>
        <time>2020-10-07T15:24:17Z</time>
      </trkpt>
      <trkpt lat="43.45154" lon="6.59377">
        <ele>232.1</ele>
        <time>2020-10-07T15:24:22Z</time>
      </trkpt>
      <trkpt lat="43.4515" lon="6.59377">
        <ele>232.4</ele>
        <time>2020-10-07T15:24:26Z</time>
      </trkpt>
      <trkpt lat="43.45146" lon="6.59376">
        <ele>233.1</ele>
        <time>2020-10-07T15:24:31Z</time>
      </trkpt>
      <trkpt lat="43.45142" lon="6.59378">
        <ele>233.4</ele>
        <time>2020-10-07T15:24:35Z</time>
      </trkpt>
      <trkpt lat="43.45138" lon="6.59379">
        <ele>233.8</ele>
        <time>2020-10-07T15:24:39Z</time>
      </trkpt>
      <trkpt lat="43.45135" lon="6.59381">
        <ele>234.7</ele>
        <time>2020-10-07T15:24:43Z</time>
      </trkpt>
      <trkpt lat="43.45131" lon="6.59379">
        <ele>235.1</ele>
        <time>2020-10-07T15:24:48Z</time>
      </trkpt>
      <trkpt lat="43.4513" lon="6.59379">
        <ele>235.2</ele>
        <time>2020-10-07T15:24:49Z</time>
      </trkpt>
      <trkpt lat="43.45123" lon="6.59374">
        <ele>235.7</ele>
        <time>2020-10-07T15:25:00Z</time>
      </trkpt>
      <trkpt lat="43.4512" lon="6.59371">
        <ele>235.6</ele>
        <time>2020-10-07T15:25:04Z</time>
      </trkpt>
      <trkpt lat="43.45116" lon="6.59367">
        <ele>235.3</ele>
        <time>2020-10-07T15:25:10Z</time>
      </trkpt>
      <trkpt lat="43.45112" lon="6.59366">
        <ele>235.1</ele>
        <time>2020-10-07T15:25:18Z</time>
      </trkpt>
      <trkpt lat="43.45108" lon="6.59365">
        <ele>234.9</ele>
        <time>2020-10-07T15:25:22Z</time>
      </trkpt>
      <trkpt lat="43.45104" lon="6.59365">
        <ele>235.2</ele>
        <time>2020-10-07T15:25:26Z</time>
      </trkpt>
      <trkpt lat="43.451" lon="6.59363">
        <ele>235.3</ele>
        <time>2020-10-07T15:25:32Z</time>
      </trkpt>
      <trkpt lat="43.45096" lon="6.59362">
        <ele>235.2</ele>
        <time>2020-10-07T15:25:36Z</time>
      </trkpt>
      <trkpt lat="43.45092" lon="6.59363">
        <ele>235.4</ele>
        <time>2020-10-07T15:25:40Z</time>
      </trkpt>
      <trkpt lat="43.45089" lon="6.59363">
        <ele>235.7</ele>
        <time>2020-10-07T15:25:43Z</time>
      </trkpt>
      <trkpt lat="43.45085" lon="6.59363">
        <ele>235.7</ele>
        <time>2020-10-07T15:25:46Z</time>
      </trkpt>
      <trkpt lat="43.45082" lon="6.59362">
        <ele>235.5</ele>
        <time>2020-10-07T15:25:50Z</time>
      </trkpt>
      <trkpt lat="43.45081" lon="6.59362">
        <ele>235.4</ele>
        <time>2020-10-07T15:25:51Z</time>
      </trkpt>
      <trkpt lat="43.45074" lon="6.59361">
        <ele>234.8</ele>
        <time>2020-10-07T15:25:59Z</time>
      </trkpt>
      <trkpt lat="43.4507" lon="6.59361">
        <ele>235.1</ele>
        <time>2020-10-07T15:26:04Z</time>
      </trkpt>
      <trkpt lat="43.45066" lon="6.5936">
        <ele>234.6</ele>
        <time>2020-10-07T15:26:10Z</time>
      </trkpt>
      <trkpt lat="43.45062" lon="6.5936">
        <ele>234.4</ele>
        <time>2020-10-07T15:26:14Z</time>
      </trkpt>
      <trkpt lat="43.45058" lon="6.59361">
        <ele>234</ele>
        <time>2020-10-07T15:26:19Z</time>
      </trkpt>
      <trkpt lat="43.45054" lon="6.59362">
        <ele>233.5</ele>
        <time>2020-10-07T15:26:25Z</time>
      </trkpt>
      <trkpt lat="43.4505" lon="6.59361">
        <ele>232.6</ele>
        <time>2020-10-07T15:26:32Z</time>
      </trkpt>
      <trkpt lat="43.45046" lon="6.59362">
        <ele>231.7</ele>
        <time>2020-10-07T15:26:40Z</time>
      </trkpt>
      <trkpt lat="43.45042" lon="6.59362">
        <ele>230.9</ele>
        <time>2020-10-07T15:26:46Z</time>
      </trkpt>
      <trkpt lat="43.45038" lon="6.59362">
        <ele>230.7</ele>
        <time>2020-10-07T15:26:54Z</time>
      </trkpt>
      <trkpt lat="43.45037" lon="6.59362">
        <ele>230.6</ele>
        <time>2020-10-07T15:26:55Z</time>
      </trkpt>
      <trkpt lat="43.4503" lon="6.59361">
        <ele>229.6</ele>
        <time>2020-10-07T15:27:06Z</time>
      </trkpt>
      <trkpt lat="43.45026" lon="6.5936">
        <ele>228.1</ele>
        <time>2020-10-07T15:27:19Z</time>
      </trkpt>
      <trkpt lat="43.45022" lon="6.59362">
        <ele>226.1</ele>
        <time>2020-10-07T15:27:30Z</time>
      </trkpt>
      <trkpt lat="43.45018" lon="6.5936">
        <ele>225.3</ele>
        <time>2020-10-07T15:27:36Z</time>
      </trkpt>
      <trkpt lat="43.45014" lon="6.59359">
        <ele>224</ele>
        <time>2020-10-07T15:27:45Z</time>
      </trkpt>
      <trkpt lat="43.4501" lon="6.59359">
        <ele>223.5</ele>
        <time>2020-10-07T15:27:53Z</time>
      </trkpt>
      <trkpt lat="43.45006" lon="6.59355">
        <ele>222.7</ele>
        <time>2020-10-07T15:28:00Z</time>
      </trkpt>
      <trkpt lat="43.45006" lon="6.59354">
        <ele>222.6</ele>
        <time>2020-10-07T15:28:01Z</time>
      </trkpt>
      <trkpt lat="43.44999" lon="6.59349">
        <ele>221.3</ele>
        <time>2020-10-07T15:28:14Z</time>
      </trkpt>
      <trkpt lat="43.44995" lon="6.59348">
        <ele>221</ele>
        <time>2020-10-07T15:28:22Z</time>
      </trkpt>
      <trkpt lat="43.44992" lon="6.59345">
        <ele>220.5</ele>
        <time>2020-10-07T15:28:28Z</time>
      </trkpt>
      <trkpt lat="43.44988" lon="6.59342">
        <ele>219.7</ele>
        <time>2020-10-07T15:28:34Z</time>
      </trkpt>
      <trkpt lat="43.44984" lon="6.59343">
        <ele>219.2</ele>
        <time>2020-10-07T15:28:41Z</time>
      </trkpt>
      <trkpt lat="43.44981" lon="6.59339">
        <ele>218.7</ele>
        <time>2020-10-07T15:28:48Z</time>
      </trkpt>
      <trkpt lat="43.44977" lon="6.59339">
        <ele>217.5</ele>
        <time>2020-10-07T15:28:55Z</time>
      </trkpt>
      <trkpt lat="43.44974" lon="6.59335">
        <ele>216.7</ele>
        <time>2020-10-07T15:29:01Z</time>
      </trkpt>
      <trkpt lat="43.44973" lon="6.59334">
        <ele>216.6</ele>
        <time>2020-10-07T15:29:02Z</time>
      </trkpt>
      <trkpt lat="43.44967" lon="6.5933">
        <ele>215.5</ele>
        <time>2020-10-07T15:29:12Z</time>
      </trkpt>
      <trkpt lat="43.44963" lon="6.59327">
        <ele>214.8</ele>
        <time>2020-10-07T15:29:16Z</time>
      </trkpt>
      <trkpt lat="43.4496" lon="6.59323">
        <ele>214.3</ele>
        <time>2020-10-07T15:29:20Z</time>
      </trkpt>
      <trkpt lat="43.44958" lon="6.59319">
        <ele>213.9</ele>
        <time>2020-10-07T15:29:24Z</time>
      </trkpt>
      <trkpt lat="43.44954" lon="6.59316">
        <ele>213</ele>
        <time>2020-10-07T15:29:29Z</time>
      </trkpt>
      <trkpt lat="43.4495" lon="6.59315">
        <ele>212.1</ele>
        <time>2020-10-07T15:29:34Z</time>
      </trkpt>
      <trkpt lat="43.44947" lon="6.59311">
        <ele>211.3</ele>
        <time>2020-10-07T15:29:39Z</time>
      </trkpt>
      <trkpt lat="43.44943" lon="6.5931">
        <ele>210.5</ele>
        <time>2020-10-07T15:29:45Z</time>
      </trkpt>
      <trkpt lat="43.44939" lon="6.59311">
        <ele>209.9</ele>
        <time>2020-10-07T15:29:50Z</time>
      </trkpt>
      <trkpt lat="43.44935" lon="6.59311">
        <ele>209.4</ele>
        <time>2020-10-07T15:29:54Z</time>
      </trkpt>
      <trkpt lat="43.44932" lon="6.59311">
        <ele>208.9</ele>
        <time>2020-10-07T15:29:58Z</time>
      </trkpt>
      <trkpt lat="43.44928" lon="6.5931">
        <ele>208.3</ele>
        <time>2020-10-07T15:30:03Z</time>
      </trkpt>
      <trkpt lat="43.44927" lon="6.59309">
        <ele>208.2</ele>
        <time>2020-10-07T15:30:04Z</time>
      </trkpt>
      <trkpt lat="43.44922" lon="6.59302">
        <ele>207.5</ele>
        <time>2020-10-07T15:30:12Z</time>
      </trkpt>
      <trkpt lat="43.44921" lon="6.59297">
        <ele>207.5</ele>
        <time>2020-10-07T15:30:15Z</time>
      </trkpt>
      <trkpt lat="43.44921" lon="6.59292">
        <ele>207.5</ele>
        <time>2020-10-07T15:30:19Z</time>
      </trkpt>
      <trkpt lat="43.4492" lon="6.59286">
        <ele>207.3</ele>
        <time>2020-10-07T15:30:24Z</time>
      </trkpt>
      <trkpt lat="43.44922" lon="6.59281">
        <ele>207.2</ele>
        <time>2020-10-07T15:30:28Z</time>
      </trkpt>
      <trkpt lat="43.44924" lon="6.59275">
        <ele>207.6</ele>
        <time>2020-10-07T15:30:32Z</time>
      </trkpt>
      <trkpt lat="43.44924" lon="6.5927">
        <ele>207.7</ele>
        <time>2020-10-07T15:30:36Z</time>
      </trkpt>
      <trkpt lat="43.44925" lon="6.59264">
        <ele>208.1</ele>
        <time>2020-10-07T15:30:40Z</time>
      </trkpt>
      <trkpt lat="43.44926" lon="6.5926">
        <ele>208.7</ele>
        <time>2020-10-07T15:30:44Z</time>
      </trkpt>
      <trkpt lat="43.44928" lon="6.59255">
        <ele>208.8</ele>
        <time>2020-10-07T15:30:48Z</time>
      </trkpt>
      <trkpt lat="43.4493" lon="6.59251">
        <ele>209.1</ele>
        <time>2020-10-07T15:30:52Z</time>
      </trkpt>
      <trkpt lat="43.44933" lon="6.59248">
        <ele>209.6</ele>
        <time>2020-10-07T15:30:56Z</time>
      </trkpt>
      <trkpt lat="43.44938" lon="6.59247">
        <ele>210.4</ele>
        <time>2020-10-07T15:31:01Z</time>
      </trkpt>
      <trkpt lat="43.44941" lon="6.59245">
        <ele>211</ele>
        <time>2020-10-07T15:31:05Z</time>
      </trkpt>
      <trkpt lat="43.44942" lon="6.59245">
        <ele>211.1</ele>
        <time>2020-10-07T15:31:06Z</time>
      </trkpt>
      <trkpt lat="43.44947" lon="6.59238">
        <ele>211.6</ele>
        <time>2020-10-07T15:31:14Z</time>
      </trkpt>
      <trkpt lat="43.44949" lon="6.59234">
        <ele>212.3</ele>
        <time>2020-10-07T15:31:21Z</time>
      </trkpt>
      <trkpt lat="43.44953" lon="6.59234">
        <ele>213.3</ele>
        <time>2020-10-07T15:31:28Z</time>
      </trkpt>
      <trkpt lat="43.44957" lon="6.5923">
        <ele>215</ele>
        <time>2020-10-07T15:31:42Z</time>
      </trkpt>
      <trkpt lat="43.44957" lon="6.59224">
        <ele>216.6</ele>
        <time>2020-10-07T15:31:56Z</time>
      </trkpt>
      <trkpt lat="43.44957" lon="6.59218">
        <ele>215.8</ele>
        <time>2020-10-07T15:32:14Z</time>
      </trkpt>
      <trkpt lat="43.44957" lon="6.59218">
        <ele>215.7</ele>
        <time>2020-10-07T15:32:15Z</time>
      </trkpt>
      <trkpt lat="43.44957" lon="6.59206">
        <ele>215.1</ele>
        <time>2020-10-07T15:32:57Z</time>
      </trkpt>
      <trkpt lat="43.44958" lon="6.592">
        <ele>214.6</ele>
        <time>2020-10-07T15:33:06Z</time>
      </trkpt>
      <trkpt lat="43.44961" lon="6.59197">
        <ele>214.3</ele>
        <time>2020-10-07T15:33:57Z</time>
      </trkpt>
      <trkpt lat="43.44962" lon="6.59197">
        <ele>214.4</ele>
        <time>2020-10-07T15:33:58Z</time>
      </trkpt>
      <trkpt lat="43.4497" lon="6.59195">
        <ele>212.6</ele>
        <time>2020-10-07T15:34:17Z</time>
      </trkpt>
      <trkpt lat="43.44974" lon="6.59194">
        <ele>211.3</ele>
        <time>2020-10-07T15:34:27Z</time>
      </trkpt>
      <trkpt lat="43.44973" lon="6.59188">
        <ele>209</ele>
        <time>2020-10-07T15:34:42Z</time>
      </trkpt>
      <trkpt lat="43.44975" lon="6.59182">
        <ele>206.6</ele>
        <time>2020-10-07T15:34:54Z</time>
      </trkpt>
      <trkpt lat="43.44978" lon="6.59178">
        <ele>204.4</ele>
        <time>2020-10-07T15:35:03Z</time>
      </trkpt>
      <trkpt lat="43.44978" lon="6.59177">
        <ele>204.2</ele>
        <time>2020-10-07T15:35:04Z</time>
      </trkpt>
      <trkpt lat="43.44984" lon="6.59171">
        <ele>201.5</ele>
        <time>2020-10-07T15:35:16Z</time>
      </trkpt>
      <trkpt lat="43.44988" lon="6.59171">
        <ele>200.9</ele>
        <time>2020-10-07T15:35:21Z</time>
      </trkpt>
      <trkpt lat="43.44992" lon="6.59172">
        <ele>199.8</ele>
        <time>2020-10-07T15:35:27Z</time>
      </trkpt>
      <trkpt lat="43.44996" lon="6.59173">
        <ele>199</ele>
        <time>2020-10-07T15:35:32Z</time>
      </trkpt>
      <trkpt lat="43.45" lon="6.59173">
        <ele>198.5</ele>
        <time>2020-10-07T15:35:39Z</time>
      </trkpt>
      <trkpt lat="43.45004" lon="6.59172">
        <ele>197.4</ele>
        <time>2020-10-07T15:35:47Z</time>
      </trkpt>
      <trkpt lat="43.45008" lon="6.59171">
        <ele>196.9</ele>
        <time>2020-10-07T15:35:54Z</time>
      </trkpt>
      <trkpt lat="43.45012" lon="6.59169">
        <ele>196</ele>
        <time>2020-10-07T15:36:02Z</time>
      </trkpt>
      <trkpt lat="43.45016" lon="6.59167">
        <ele>195.1</ele>
        <time>2020-10-07T15:36:13Z</time>
      </trkpt>
      <trkpt lat="43.45017" lon="6.59167">
        <ele>195</ele>
        <time>2020-10-07T15:36:14Z</time>
      </trkpt>
      <trkpt lat="43.45017" lon="6.59156">
        <ele>192.9</ele>
        <time>2020-10-07T15:36:31Z</time>
      </trkpt>
      <trkpt lat="43.45018" lon="6.5915">
        <ele>191.6</ele>
        <time>2020-10-07T15:36:37Z</time>
      </trkpt>
      <trkpt lat="43.4502" lon="6.59144">
        <ele>191.8</ele>
        <time>2020-10-07T15:36:58Z</time>
      </trkpt>
      <trkpt lat="43.45019" lon="6.59139">
        <ele>192.3</ele>
        <time>2020-10-07T15:37:15Z</time>
      </trkpt>
      <trkpt lat="43.45018" lon="6.59138">
        <ele>192.3</ele>
        <time>2020-10-07T15:37:16Z</time>
      </trkpt>
      <trkpt lat="43.45016" lon="6.59128">
        <ele>193</ele>
        <time>2020-10-07T15:37:33Z</time>
      </trkpt>
      <trkpt lat="43.45013" lon="6.59124">
        <ele>193.4</ele>
        <time>2020-10-07T15:37:40Z</time>
      </trkpt>
      <trkpt lat="43.45011" lon="6.59118">
        <ele>193.5</ele>
        <time>2020-10-07T15:37:45Z</time>
      </trkpt>
      <trkpt lat="43.45011" lon="6.59112">
        <ele>193.6</ele>
        <time>2020-10-07T15:37:52Z</time>
      </trkpt>
      <trkpt lat="43.4501" lon="6.59107">
        <ele>194.1</ele>
        <time>2020-10-07T15:37:58Z</time>
      </trkpt>
      <trkpt lat="43.45008" lon="6.59102">
        <ele>194.8</ele>
        <time>2020-10-07T15:38:03Z</time>
      </trkpt>
      <trkpt lat="43.45006" lon="6.59097">
        <ele>195.4</ele>
        <time>2020-10-07T15:38:07Z</time>
      </trkpt>
      <trkpt lat="43.45006" lon="6.59092">
        <ele>195.3</ele>
        <time>2020-10-07T15:38:11Z</time>
      </trkpt>
      <trkpt lat="43.45005" lon="6.59086">
        <ele>194.9</ele>
        <time>2020-10-07T15:38:16Z</time>
      </trkpt>
      <trkpt lat="43.45004" lon="6.59084">
        <ele>194.9</ele>
        <time>2020-10-07T15:38:17Z</time>
      </trkpt>
      <trkpt lat="43.45004" lon="6.59074">
        <ele>194</ele>
        <time>2020-10-07T15:38:29Z</time>
      </trkpt>
      <trkpt lat="43.45005" lon="6.59068">
        <ele>193.3</ele>
        <time>2020-10-07T15:38:35Z</time>
      </trkpt>
      <trkpt lat="43.45006" lon="6.59063">
        <ele>192.3</ele>
        <time>2020-10-07T15:38:43Z</time>
      </trkpt>
      <trkpt lat="43.45003" lon="6.59059">
        <ele>191.8</ele>
        <time>2020-10-07T15:38:49Z</time>
      </trkpt>
      <trkpt lat="43.45" lon="6.59056">
        <ele>191.4</ele>
        <time>2020-10-07T15:38:54Z</time>
      </trkpt>
      <trkpt lat="43.44997" lon="6.59052">
        <ele>191.1</ele>
        <time>2020-10-07T15:38:58Z</time>
      </trkpt>
      <trkpt lat="43.44995" lon="6.59048">
        <ele>190.7</ele>
        <time>2020-10-07T15:39:02Z</time>
      </trkpt>
      <trkpt lat="43.44993" lon="6.59044">
        <ele>190.4</ele>
        <time>2020-10-07T15:39:06Z</time>
      </trkpt>
      <trkpt lat="43.44991" lon="6.59039">
        <ele>190.2</ele>
        <time>2020-10-07T15:39:10Z</time>
      </trkpt>
      <trkpt lat="43.44991" lon="6.59034">
        <ele>190.3</ele>
        <time>2020-10-07T15:39:13Z</time>
      </trkpt>
      <trkpt lat="43.44991" lon="6.59028">
        <ele>190.6</ele>
        <time>2020-10-07T15:39:17Z</time>
      </trkpt>
      <trkpt lat="43.44991" lon="6.59026">
        <ele>190.7</ele>
        <time>2020-10-07T15:39:18Z</time>
      </trkpt>
      <trkpt lat="43.44994" lon="6.59018">
        <ele>191.6</ele>
        <time>2020-10-07T15:39:25Z</time>
      </trkpt>
      <trkpt lat="43.44993" lon="6.59013">
        <ele>193.2</ele>
        <time>2020-10-07T15:39:33Z</time>
      </trkpt>
      <trkpt lat="43.44993" lon="6.59007">
        <ele>193.8</ele>
        <time>2020-10-07T15:39:39Z</time>
      </trkpt>
      <trkpt lat="43.44992" lon="6.59001">
        <ele>195.5</ele>
        <time>2020-10-07T15:39:47Z</time>
      </trkpt>
      <trkpt lat="43.4499" lon="6.58997">
        <ele>196</ele>
        <time>2020-10-07T15:39:51Z</time>
      </trkpt>
      <trkpt lat="43.44989" lon="6.58992">
        <ele>195.9</ele>
        <time>2020-10-07T15:39:55Z</time>
      </trkpt>
      <trkpt lat="43.44987" lon="6.58988">
        <ele>196</ele>
        <time>2020-10-07T15:39:59Z</time>
      </trkpt>
      <trkpt lat="43.44986" lon="6.58983">
        <ele>195.9</ele>
        <time>2020-10-07T15:40:03Z</time>
      </trkpt>
      <trkpt lat="43.44983" lon="6.58978">
        <ele>195.7</ele>
        <time>2020-10-07T15:40:07Z</time>
      </trkpt>
      <trkpt lat="43.44982" lon="6.58973">
        <ele>195.4</ele>
        <time>2020-10-07T15:40:12Z</time>
      </trkpt>
      <trkpt lat="43.4498" lon="6.58969">
        <ele>195.2</ele>
        <time>2020-10-07T15:40:17Z</time>
      </trkpt>
      <trkpt lat="43.44977" lon="6.58964">
        <ele>194.4</ele>
        <time>2020-10-07T15:40:24Z</time>
      </trkpt>
      <trkpt lat="43.44977" lon="6.58963">
        <ele>194.3</ele>
        <time>2020-10-07T15:40:25Z</time>
      </trkpt>
      <trkpt lat="43.44971" lon="6.58956">
        <ele>192.7</ele>
        <time>2020-10-07T15:40:37Z</time>
      </trkpt>
      <trkpt lat="43.44969" lon="6.58951">
        <ele>192.2</ele>
        <time>2020-10-07T15:40:43Z</time>
      </trkpt>
      <trkpt lat="43.44969" lon="6.58945">
        <ele>191.5</ele>
        <time>2020-10-07T15:40:48Z</time>
      </trkpt>
      <trkpt lat="43.44967" lon="6.5894">
        <ele>190.5</ele>
        <time>2020-10-07T15:40:53Z</time>
      </trkpt>
      <trkpt lat="43.44965" lon="6.58935">
        <ele>188.8</ele>
        <time>2020-10-07T15:41:03Z</time>
      </trkpt>
      <trkpt lat="43.44961" lon="6.58932">
        <ele>187.6</ele>
        <time>2020-10-07T15:41:12Z</time>
      </trkpt>
      <trkpt lat="43.4496" lon="6.58926">
        <ele>185.7</ele>
        <time>2020-10-07T15:41:22Z</time>
      </trkpt>
      <trkpt lat="43.44956" lon="6.58923">
        <ele>184.7</ele>
        <time>2020-10-07T15:41:29Z</time>
      </trkpt>
      <trkpt lat="43.44956" lon="6.58923">
        <ele>184.6</ele>
        <time>2020-10-07T15:41:30Z</time>
      </trkpt>
      <trkpt lat="43.44954" lon="6.58913">
        <ele>183</ele>
        <time>2020-10-07T15:41:42Z</time>
      </trkpt>
      <trkpt lat="43.44954" lon="6.58909">
        <ele>182.4</ele>
        <time>2020-10-07T15:41:46Z</time>
      </trkpt>
      <trkpt lat="43.44956" lon="6.58903">
        <ele>182.1</ele>
        <time>2020-10-07T15:41:49Z</time>
      </trkpt>
      <trkpt lat="43.44959" lon="6.58898">
        <ele>181.8</ele>
        <time>2020-10-07T15:41:52Z</time>
      </trkpt>
      <trkpt lat="43.44961" lon="6.58894">
        <ele>181.8</ele>
        <time>2020-10-07T15:41:55Z</time>
      </trkpt>
      <trkpt lat="43.44964" lon="6.58889">
        <ele>181.9</ele>
        <time>2020-10-07T15:41:59Z</time>
      </trkpt>
      <trkpt lat="43.44966" lon="6.58886">
        <ele>182.1</ele>
        <time>2020-10-07T15:42:03Z</time>
      </trkpt>
      <trkpt lat="43.44968" lon="6.58881">
        <ele>182.1</ele>
        <time>2020-10-07T15:42:06Z</time>
      </trkpt>
      <trkpt lat="43.44971" lon="6.58877">
        <ele>181.8</ele>
        <time>2020-10-07T15:42:11Z</time>
      </trkpt>
      <trkpt lat="43.44973" lon="6.58872">
        <ele>182.2</ele>
        <time>2020-10-07T15:42:16Z</time>
      </trkpt>
      <trkpt lat="43.44976" lon="6.58869">
        <ele>182.4</ele>
        <time>2020-10-07T15:42:19Z</time>
      </trkpt>
      <trkpt lat="43.4498" lon="6.58867">
        <ele>182.5</ele>
        <time>2020-10-07T15:42:22Z</time>
      </trkpt>
      <trkpt lat="43.44983" lon="6.58863">
        <ele>182.7</ele>
        <time>2020-10-07T15:42:27Z</time>
      </trkpt>
      <trkpt lat="43.44986" lon="6.58859">
        <ele>183.3</ele>
        <time>2020-10-07T15:42:32Z</time>
      </trkpt>
      <trkpt lat="43.44987" lon="6.58858">
        <ele>183.4</ele>
        <time>2020-10-07T15:42:33Z</time>
      </trkpt>
      <trkpt lat="43.44991" lon="6.58852">
        <ele>184</ele>
        <time>2020-10-07T15:42:40Z</time>
      </trkpt>
      <trkpt lat="43.44994" lon="6.58849">
        <ele>184.6</ele>
        <time>2020-10-07T15:42:45Z</time>
      </trkpt>
      <trkpt lat="43.44997" lon="6.58845">
        <ele>185.3</ele>
        <time>2020-10-07T15:42:50Z</time>
      </trkpt>
      <trkpt lat="43.45" lon="6.58842">
        <ele>185.8</ele>
        <time>2020-10-07T15:42:54Z</time>
      </trkpt>
      <trkpt lat="43.45003" lon="6.58838">
        <ele>185.9</ele>
        <time>2020-10-07T15:42:58Z</time>
      </trkpt>
      <trkpt lat="43.45005" lon="6.58834">
        <ele>186.3</ele>
        <time>2020-10-07T15:43:03Z</time>
      </trkpt>
      <trkpt lat="43.45009" lon="6.58829">
        <ele>186.9</ele>
        <time>2020-10-07T15:43:09Z</time>
      </trkpt>
      <trkpt lat="43.45012" lon="6.58826">
        <ele>187</ele>
        <time>2020-10-07T15:43:15Z</time>
      </trkpt>
      <trkpt lat="43.45016" lon="6.58823">
        <ele>187.3</ele>
        <time>2020-10-07T15:43:20Z</time>
      </trkpt>
      <trkpt lat="43.45019" lon="6.5882">
        <ele>188</ele>
        <time>2020-10-07T15:43:24Z</time>
      </trkpt>
      <trkpt lat="43.45022" lon="6.58817">
        <ele>188.4</ele>
        <time>2020-10-07T15:43:28Z</time>
      </trkpt>
      <trkpt lat="43.45026" lon="6.58815">
        <ele>189</ele>
        <time>2020-10-07T15:43:32Z</time>
      </trkpt>
      <trkpt lat="43.45029" lon="6.58812">
        <ele>189.4</ele>
        <time>2020-10-07T15:43:36Z</time>
      </trkpt>
      <trkpt lat="43.4503" lon="6.58811">
        <ele>189.5</ele>
        <time>2020-10-07T15:43:37Z</time>
      </trkpt>
      <trkpt lat="43.45036" lon="6.58805">
        <ele>189.9</ele>
        <time>2020-10-07T15:43:44Z</time>
      </trkpt>
      <trkpt lat="43.45039" lon="6.58802">
        <ele>189.8</ele>
        <time>2020-10-07T15:43:48Z</time>
      </trkpt>
      <trkpt lat="43.45042" lon="6.58799">
        <ele>190.1</ele>
        <time>2020-10-07T15:43:52Z</time>
      </trkpt>
      <trkpt lat="43.45045" lon="6.58795">
        <ele>190.1</ele>
        <time>2020-10-07T15:43:56Z</time>
      </trkpt>
      <trkpt lat="43.45048" lon="6.58791">
        <ele>190.3</ele>
        <time>2020-10-07T15:44:01Z</time>
      </trkpt>
      <trkpt lat="43.45051" lon="6.58789">
        <ele>190.5</ele>
        <time>2020-10-07T15:44:05Z</time>
      </trkpt>
      <trkpt lat="43.45054" lon="6.58785">
        <ele>190.6</ele>
        <time>2020-10-07T15:44:09Z</time>
      </trkpt>
      <trkpt lat="43.45056" lon="6.58781">
        <ele>190.6</ele>
        <time>2020-10-07T15:44:13Z</time>
      </trkpt>
      <trkpt lat="43.4506" lon="6.58777">
        <ele>190.6</ele>
        <time>2020-10-07T15:44:17Z</time>
      </trkpt>
      <trkpt lat="43.45062" lon="6.58773">
        <ele>190.8</ele>
        <time>2020-10-07T15:44:21Z</time>
      </trkpt>
      <trkpt lat="43.45065" lon="6.58769">
        <ele>191.1</ele>
        <time>2020-10-07T15:44:25Z</time>
      </trkpt>
      <trkpt lat="43.45068" lon="6.58765">
        <ele>191.8</ele>
        <time>2020-10-07T15:44:32Z</time>
      </trkpt>
      <trkpt lat="43.45071" lon="6.5876">
        <ele>192.4</ele>
        <time>2020-10-07T15:44:39Z</time>
      </trkpt>
      <trkpt lat="43.45071" lon="6.58759">
        <ele>192.3</ele>
        <time>2020-10-07T15:44:40Z</time>
      </trkpt>
      <trkpt lat="43.45076" lon="6.58751">
        <ele>192.4</ele>
        <time>2020-10-07T15:44:51Z</time>
      </trkpt>
      <trkpt lat="43.45079" lon="6.58748">
        <ele>192.7</ele>
        <time>2020-10-07T15:44:55Z</time>
      </trkpt>
      <trkpt lat="43.45082" lon="6.58745">
        <ele>192.8</ele>
        <time>2020-10-07T15:44:59Z</time>
      </trkpt>
      <trkpt lat="43.45085" lon="6.58741">
        <ele>193</ele>
        <time>2020-10-07T15:45:02Z</time>
      </trkpt>
      <trkpt lat="43.45088" lon="6.58737">
        <ele>193.2</ele>
        <time>2020-10-07T15:45:06Z</time>
      </trkpt>
      <trkpt lat="43.4509" lon="6.58733">
        <ele>193.6</ele>
        <time>2020-10-07T15:45:10Z</time>
      </trkpt>
      <trkpt lat="43.45093" lon="6.58728">
        <ele>193.8</ele>
        <time>2020-10-07T15:45:14Z</time>
      </trkpt>
      <trkpt lat="43.45096" lon="6.58723">
        <ele>193.9</ele>
        <time>2020-10-07T15:45:18Z</time>
      </trkpt>
      <trkpt lat="43.45099" lon="6.58719">
        <ele>194.2</ele>
        <time>2020-10-07T15:45:22Z</time>
      </trkpt>
      <trkpt lat="43.45101" lon="6.58715">
        <ele>194.2</ele>
        <time>2020-10-07T15:45:26Z</time>
      </trkpt>
      <trkpt lat="43.45103" lon="6.58712">
        <ele>194.4</ele>
        <time>2020-10-07T15:45:29Z</time>
      </trkpt>
      <trkpt lat="43.45106" lon="6.58708">
        <ele>194.5</ele>
        <time>2020-10-07T15:45:32Z</time>
      </trkpt>
      <trkpt lat="43.45109" lon="6.58704">
        <ele>194.3</ele>
        <time>2020-10-07T15:45:36Z</time>
      </trkpt>
      <trkpt lat="43.45111" lon="6.587">
        <ele>194.1</ele>
        <time>2020-10-07T15:45:41Z</time>
      </trkpt>
      <trkpt lat="43.45112" lon="6.58699">
        <ele>194.1</ele>
        <time>2020-10-07T15:45:42Z</time>
      </trkpt>
      <trkpt lat="43.45118" lon="6.58693">
        <ele>194.2</ele>
        <time>2020-10-07T15:45:47Z</time>
      </trkpt>
      <trkpt lat="43.45121" lon="6.58689">
        <ele>194.3</ele>
        <time>2020-10-07T15:45:50Z</time>
      </trkpt>
      <trkpt lat="43.45124" lon="6.58686">
        <ele>194.5</ele>
        <time>2020-10-07T15:45:53Z</time>
      </trkpt>
      <trkpt lat="43.45127" lon="6.58682">
        <ele>194.6</ele>
        <time>2020-10-07T15:45:56Z</time>
      </trkpt>
      <trkpt lat="43.45129" lon="6.58679">
        <ele>194.3</ele>
        <time>2020-10-07T15:45:59Z</time>
      </trkpt>
      <trkpt lat="43.45132" lon="6.58674">
        <ele>193.9</ele>
        <time>2020-10-07T15:46:03Z</time>
      </trkpt>
      <trkpt lat="43.45134" lon="6.5867">
        <ele>193.7</ele>
        <time>2020-10-07T15:46:06Z</time>
      </trkpt>
      <trkpt lat="43.45136" lon="6.58667">
        <ele>193.6</ele>
        <time>2020-10-07T15:46:09Z</time>
      </trkpt>
      <trkpt lat="43.45138" lon="6.58662">
        <ele>193.1</ele>
        <time>2020-10-07T15:46:13Z</time>
      </trkpt>
      <trkpt lat="43.4514" lon="6.58658">
        <ele>192.8</ele>
        <time>2020-10-07T15:46:16Z</time>
      </trkpt>
      <trkpt lat="43.45142" lon="6.58654">
        <ele>192.4</ele>
        <time>2020-10-07T15:46:19Z</time>
      </trkpt>
      <trkpt lat="43.45143" lon="6.58649">
        <ele>191.9</ele>
        <time>2020-10-07T15:46:23Z</time>
      </trkpt>
      <trkpt lat="43.45145" lon="6.58644">
        <ele>191.5</ele>
        <time>2020-10-07T15:46:27Z</time>
      </trkpt>
      <trkpt lat="43.45146" lon="6.58638">
        <ele>191.4</ele>
        <time>2020-10-07T15:46:31Z</time>
      </trkpt>
      <trkpt lat="43.45148" lon="6.58633">
        <ele>191</ele>
        <time>2020-10-07T15:46:35Z</time>
      </trkpt>
      <trkpt lat="43.4515" lon="6.58629">
        <ele>190.6</ele>
        <time>2020-10-07T15:46:39Z</time>
      </trkpt>
      <trkpt lat="43.4515" lon="6.58624">
        <ele>190.4</ele>
        <time>2020-10-07T15:46:43Z</time>
      </trkpt>
      <trkpt lat="43.4515" lon="6.58622">
        <ele>190.4</ele>
        <time>2020-10-07T15:46:44Z</time>
      </trkpt>
      <trkpt lat="43.4515" lon="6.58613">
        <ele>190</ele>
        <time>2020-10-07T15:46:51Z</time>
      </trkpt>
      <trkpt lat="43.45149" lon="6.58607">
        <ele>190</ele>
        <time>2020-10-07T15:46:56Z</time>
      </trkpt>
      <trkpt lat="43.45149" lon="6.58601">
        <ele>190</ele>
        <time>2020-10-07T15:47:00Z</time>
      </trkpt>
      <trkpt lat="43.45148" lon="6.58596">
        <ele>189.7</ele>
        <time>2020-10-07T15:47:05Z</time>
      </trkpt>
      <trkpt lat="43.45146" lon="6.58592">
        <ele>189.7</ele>
        <time>2020-10-07T15:47:09Z</time>
      </trkpt>
      <trkpt lat="43.45144" lon="6.58586">
        <ele>189.8</ele>
        <time>2020-10-07T15:47:14Z</time>
      </trkpt>
      <trkpt lat="43.45142" lon="6.58581">
        <ele>189</ele>
        <time>2020-10-07T15:47:19Z</time>
      </trkpt>
      <trkpt lat="43.45142" lon="6.58576">
        <ele>188.7</ele>
        <time>2020-10-07T15:47:23Z</time>
      </trkpt>
      <trkpt lat="43.45142" lon="6.58571">
        <ele>188.6</ele>
        <time>2020-10-07T15:47:26Z</time>
      </trkpt>
      <trkpt lat="43.45143" lon="6.58566">
        <ele>187.9</ele>
        <time>2020-10-07T15:47:29Z</time>
      </trkpt>
      <trkpt lat="43.45143" lon="6.58561">
        <ele>187.6</ele>
        <time>2020-10-07T15:47:32Z</time>
      </trkpt>
      <trkpt lat="43.45144" lon="6.58555">
        <ele>187.7</ele>
        <time>2020-10-07T15:47:35Z</time>
      </trkpt>
      <trkpt lat="43.45144" lon="6.5855">
        <ele>187.5</ele>
        <time>2020-10-07T15:47:39Z</time>
      </trkpt>
      <trkpt lat="43.45146" lon="6.58545">
        <ele>187.6</ele>
        <time>2020-10-07T15:47:42Z</time>
      </trkpt>
      <trkpt lat="43.45147" lon="6.5854">
        <ele>187.6</ele>
        <time>2020-10-07T15:47:44Z</time>
      </trkpt>
      <trkpt lat="43.45148" lon="6.58538">
        <ele>187.7</ele>
        <time>2020-10-07T15:47:45Z</time>
      </trkpt>
      <trkpt lat="43.45149" lon="6.58531">
        <ele>187.8</ele>
        <time>2020-10-07T15:47:49Z</time>
      </trkpt>
      <trkpt lat="43.45151" lon="6.58526">
        <ele>187.8</ele>
        <time>2020-10-07T15:47:52Z</time>
      </trkpt>
      <trkpt lat="43.45153" lon="6.58521">
        <ele>188</ele>
        <time>2020-10-07T15:47:55Z</time>
      </trkpt>
      <trkpt lat="43.45155" lon="6.58516">
        <ele>188.1</ele>
        <time>2020-10-07T15:47:58Z</time>
      </trkpt>
      <trkpt lat="43.45158" lon="6.58511">
        <ele>188.3</ele>
        <time>2020-10-07T15:48:01Z</time>
      </trkpt>
      <trkpt lat="43.4516" lon="6.58506">
        <ele>188.2</ele>
        <time>2020-10-07T15:48:04Z</time>
      </trkpt>
      <trkpt lat="43.45163" lon="6.58502">
        <ele>188.2</ele>
        <time>2020-10-07T15:48:07Z</time>
      </trkpt>
      <trkpt lat="43.45165" lon="6.58498">
        <ele>188.2</ele>
        <time>2020-10-07T15:48:09Z</time>
      </trkpt>
      <trkpt lat="43.45167" lon="6.58494">
        <ele>188.2</ele>
        <time>2020-10-07T15:48:12Z</time>
      </trkpt>
      <trkpt lat="43.4517" lon="6.5849">
        <ele>188.1</ele>
        <time>2020-10-07T15:48:15Z</time>
      </trkpt>
      <trkpt lat="43.45173" lon="6.58486">
        <ele>188</ele>
        <time>2020-10-07T15:48:18Z</time>
      </trkpt>
      <trkpt lat="43.45176" lon="6.58482">
        <ele>187.8</ele>
        <time>2020-10-07T15:48:21Z</time>
      </trkpt>
      <trkpt lat="43.45179" lon="6.58479">
        <ele>187.3</ele>
        <time>2020-10-07T15:48:24Z</time>
      </trkpt>
      <trkpt lat="43.45183" lon="6.58476">
        <ele>186.7</ele>
        <time>2020-10-07T15:48:28Z</time>
      </trkpt>
      <trkpt lat="43.45187" lon="6.58473">
        <ele>186.2</ele>
        <time>2020-10-07T15:48:33Z</time>
      </trkpt>
      <trkpt lat="43.4519" lon="6.5847">
        <ele>186</ele>
        <time>2020-10-07T15:48:36Z</time>
      </trkpt>
      <trkpt lat="43.45194" lon="6.58468">
        <ele>185.6</ele>
        <time>2020-10-07T15:48:40Z</time>
      </trkpt>
      <trkpt lat="43.45197" lon="6.58467">
        <ele>185.5</ele>
        <time>2020-10-07T15:48:44Z</time>
      </trkpt>
      <trkpt lat="43.45201" lon="6.58465">
        <ele>185.3</ele>
        <time>2020-10-07T15:48:48Z</time>
      </trkpt>
      <trkpt lat="43.45202" lon="6.58464">
        <ele>185.2</ele>
        <time>2020-10-07T15:48:49Z</time>
      </trkpt>
      <trkpt lat="43.45207" lon="6.58458">
        <ele>184.8</ele>
        <time>2020-10-07T15:48:56Z</time>
      </trkpt>
      <trkpt lat="43.45209" lon="6.58453">
        <ele>184.6</ele>
        <time>2020-10-07T15:49:00Z</time>
      </trkpt>
      <trkpt lat="43.45212" lon="6.58448">
        <ele>184.7</ele>
        <time>2020-10-07T15:49:03Z</time>
      </trkpt>
      <trkpt lat="43.45215" lon="6.58444">
        <ele>184.2</ele>
        <time>2020-10-07T15:49:07Z</time>
      </trkpt>
      <trkpt lat="43.45216" lon="6.58438">
        <ele>184.4</ele>
        <time>2020-10-07T15:49:13Z</time>
      </trkpt>
      <trkpt lat="43.45217" lon="6.58433">
        <ele>184.3</ele>
        <time>2020-10-07T15:49:17Z</time>
      </trkpt>
      <trkpt lat="43.45219" lon="6.58429">
        <ele>184.2</ele>
        <time>2020-10-07T15:49:21Z</time>
      </trkpt>
      <trkpt lat="43.45221" lon="6.58425">
        <ele>184.1</ele>
        <time>2020-10-07T15:49:24Z</time>
      </trkpt>
      <trkpt lat="43.45223" lon="6.58421">
        <ele>183.8</ele>
        <time>2020-10-07T15:49:27Z</time>
      </trkpt>
      <trkpt lat="43.45225" lon="6.58417">
        <ele>183.6</ele>
        <time>2020-10-07T15:49:30Z</time>
      </trkpt>
      <trkpt lat="43.45228" lon="6.58412">
        <ele>183.7</ele>
        <time>2020-10-07T15:49:34Z</time>
      </trkpt>
      <trkpt lat="43.4523" lon="6.58408">
        <ele>183.7</ele>
        <time>2020-10-07T15:49:37Z</time>
      </trkpt>
      <trkpt lat="43.45232" lon="6.58403">
        <ele>183.6</ele>
        <time>2020-10-07T15:49:40Z</time>
      </trkpt>
      <trkpt lat="43.45235" lon="6.58399">
        <ele>183.6</ele>
        <time>2020-10-07T15:49:44Z</time>
      </trkpt>
      <trkpt lat="43.45236" lon="6.58394">
        <ele>183.7</ele>
        <time>2020-10-07T15:49:49Z</time>
      </trkpt>
      <trkpt lat="43.45237" lon="6.58393">
        <ele>183.8</ele>
        <time>2020-10-07T15:49:50Z</time>
      </trkpt>
      <trkpt lat="43.45241" lon="6.58385">
        <ele>183.7</ele>
        <time>2020-10-07T15:49:57Z</time>
      </trkpt>
      <trkpt lat="43.45242" lon="6.58379">
        <ele>183.8</ele>
        <time>2020-10-07T15:50:01Z</time>
      </trkpt>
      <trkpt lat="43.45243" lon="6.58375">
        <ele>184.1</ele>
        <time>2020-10-07T15:50:04Z</time>
      </trkpt>
      <trkpt lat="43.45244" lon="6.58369">
        <ele>183.9</ele>
        <time>2020-10-07T15:50:08Z</time>
      </trkpt>
      <trkpt lat="43.45244" lon="6.58365">
        <ele>183.9</ele>
        <time>2020-10-07T15:50:12Z</time>
      </trkpt>
      <trkpt lat="43.45246" lon="6.58359">
        <ele>183.9</ele>
        <time>2020-10-07T15:50:15Z</time>
      </trkpt>
      <trkpt lat="43.45245" lon="6.58353">
        <ele>183.8</ele>
        <time>2020-10-07T15:50:20Z</time>
      </trkpt>
      <trkpt lat="43.45243" lon="6.58349">
        <ele>183.6</ele>
        <time>2020-10-07T15:50:25Z</time>
      </trkpt>
      <trkpt lat="43.45241" lon="6.58344">
        <ele>183.7</ele>
        <time>2020-10-07T15:50:30Z</time>
      </trkpt>
      <trkpt lat="43.4524" lon="6.58338">
        <ele>183.9</ele>
        <time>2020-10-07T15:50:35Z</time>
      </trkpt>
      <trkpt lat="43.45239" lon="6.58332">
        <ele>183.8</ele>
        <time>2020-10-07T15:50:39Z</time>
      </trkpt>
      <trkpt lat="43.45238" lon="6.58327">
        <ele>183.9</ele>
        <time>2020-10-07T15:50:42Z</time>
      </trkpt>
      <trkpt lat="43.45239" lon="6.58322">
        <ele>184.1</ele>
        <time>2020-10-07T15:50:44Z</time>
      </trkpt>
      <trkpt lat="43.4524" lon="6.58318">
        <ele>184.2</ele>
        <time>2020-10-07T15:50:46Z</time>
      </trkpt>
      <trkpt lat="43.45241" lon="6.58312">
        <ele>184.3</ele>
        <time>2020-10-07T15:50:49Z</time>
      </trkpt>
      <trkpt lat="43.4524" lon="6.58306">
        <ele>184.9</ele>
        <time>2020-10-07T15:50:53Z</time>
      </trkpt>
      <trkpt lat="43.4524" lon="6.58305">
        <ele>185</ele>
        <time>2020-10-07T15:50:54Z</time>
      </trkpt>
      <trkpt lat="43.4524" lon="6.58296">
        <ele>184.7</ele>
        <time>2020-10-07T15:50:59Z</time>
      </trkpt>
      <trkpt lat="43.45239" lon="6.58291">
        <ele>185</ele>
        <time>2020-10-07T15:51:03Z</time>
      </trkpt>
      <trkpt lat="43.45239" lon="6.58286">
        <ele>185.2</ele>
        <time>2020-10-07T15:51:06Z</time>
      </trkpt>
      <trkpt lat="43.45239" lon="6.58282">
        <ele>185.4</ele>
        <time>2020-10-07T15:51:08Z</time>
      </trkpt>
      <trkpt lat="43.4524" lon="6.58276">
        <ele>185.6</ele>
        <time>2020-10-07T15:51:11Z</time>
      </trkpt>
      <trkpt lat="43.4524" lon="6.5827">
        <ele>185.7</ele>
        <time>2020-10-07T15:51:14Z</time>
      </trkpt>
      <trkpt lat="43.45241" lon="6.58264">
        <ele>185.8</ele>
        <time>2020-10-07T15:51:17Z</time>
      </trkpt>
      <trkpt lat="43.4524" lon="6.58259">
        <ele>185.6</ele>
        <time>2020-10-07T15:51:21Z</time>
      </trkpt>
      <trkpt lat="43.45241" lon="6.58254">
        <ele>185.7</ele>
        <time>2020-10-07T15:51:24Z</time>
      </trkpt>
      <trkpt lat="43.45242" lon="6.58249">
        <ele>185.9</ele>
        <time>2020-10-07T15:51:27Z</time>
      </trkpt>
      <trkpt lat="43.45242" lon="6.58244">
        <ele>186</ele>
        <time>2020-10-07T15:51:30Z</time>
      </trkpt>
      <trkpt lat="43.45242" lon="6.58239">
        <ele>186.3</ele>
        <time>2020-10-07T15:51:33Z</time>
      </trkpt>
      <trkpt lat="43.45243" lon="6.58235">
        <ele>186.4</ele>
        <time>2020-10-07T15:51:36Z</time>
      </trkpt>
      <trkpt lat="43.45244" lon="6.58229">
        <ele>186.6</ele>
        <time>2020-10-07T15:51:39Z</time>
      </trkpt>
      <trkpt lat="43.45245" lon="6.58224">
        <ele>186.7</ele>
        <time>2020-10-07T15:51:42Z</time>
      </trkpt>
      <trkpt lat="43.45245" lon="6.58219">
        <ele>187.1</ele>
        <time>2020-10-07T15:51:45Z</time>
      </trkpt>
      <trkpt lat="43.45244" lon="6.58213">
        <ele>187.4</ele>
        <time>2020-10-07T15:51:49Z</time>
      </trkpt>
      <trkpt lat="43.45244" lon="6.58207">
        <ele>187.6</ele>
        <time>2020-10-07T15:51:53Z</time>
      </trkpt>
      <trkpt lat="43.45244" lon="6.58203">
        <ele>187.7</ele>
        <time>2020-10-07T15:51:56Z</time>
      </trkpt>
      <trkpt lat="43.45244" lon="6.58201">
        <ele>187.7</ele>
        <time>2020-10-07T15:51:57Z</time>
      </trkpt>
      <trkpt lat="43.45246" lon="6.58192">
        <ele>187.9</ele>
        <time>2020-10-07T15:52:04Z</time>
      </trkpt>
      <trkpt lat="43.45247" lon="6.58186">
        <ele>188.5</ele>
        <time>2020-10-07T15:52:08Z</time>
      </trkpt>
      <trkpt lat="43.45248" lon="6.5818">
        <ele>188.6</ele>
        <time>2020-10-07T15:52:14Z</time>
      </trkpt>
      <trkpt lat="43.45247" lon="6.58175">
        <ele>188.9</ele>
        <time>2020-10-07T15:52:18Z</time>
      </trkpt>
      <trkpt lat="43.45246" lon="6.5817">
        <ele>189.3</ele>
        <time>2020-10-07T15:52:22Z</time>
      </trkpt>
      <trkpt lat="43.45246" lon="6.58164">
        <ele>189.3</ele>
        <time>2020-10-07T15:52:26Z</time>
      </trkpt>
      <trkpt lat="43.45245" lon="6.58159">
        <ele>189.5</ele>
        <time>2020-10-07T15:52:31Z</time>
      </trkpt>
      <trkpt lat="43.45243" lon="6.58153">
        <ele>189.6</ele>
        <time>2020-10-07T15:52:37Z</time>
      </trkpt>
      <trkpt lat="43.45245" lon="6.58148">
        <ele>190</ele>
        <time>2020-10-07T15:52:48Z</time>
      </trkpt>
      <trkpt lat="43.45247" lon="6.58143">
        <ele>191</ele>
        <time>2020-10-07T15:53:15Z</time>
      </trkpt>
      <trkpt lat="43.45248" lon="6.58143">
        <ele>191.2</ele>
        <time>2020-10-07T15:53:16Z</time>
      </trkpt>
      <trkpt lat="43.45244" lon="6.58139">
        <ele>190.5</ele>
        <time>2020-10-07T15:55:56Z</time>
      </trkpt>
      <trkpt lat="43.45244" lon="6.58139">
        <ele>190.4</ele>
        <time>2020-10-07T15:55:57Z</time>
      </trkpt>
      <trkpt lat="43.45235" lon="6.58137">
        <ele>187.3</ele>
        <time>2020-10-07T15:56:28Z</time>
      </trkpt>
      <trkpt lat="43.45231" lon="6.58139">
        <ele>185.7</ele>
        <time>2020-10-07T15:56:37Z</time>
      </trkpt>
      <trkpt lat="43.45227" lon="6.58139">
        <ele>184.8</ele>
        <time>2020-10-07T15:56:44Z</time>
      </trkpt>
      <trkpt lat="43.45223" lon="6.58139">
        <ele>184.1</ele>
        <time>2020-10-07T15:56:49Z</time>
      </trkpt>
      <trkpt lat="43.45219" lon="6.58137">
        <ele>183.4</ele>
        <time>2020-10-07T15:56:57Z</time>
      </trkpt>
      <trkpt lat="43.45218" lon="6.58137">
        <ele>183.3</ele>
        <time>2020-10-07T15:56:58Z</time>
      </trkpt>
      <trkpt lat="43.45211" lon="6.58133">
        <ele>182.3</ele>
        <time>2020-10-07T15:57:08Z</time>
      </trkpt>
      <trkpt lat="43.45207" lon="6.58133">
        <ele>181.7</ele>
        <time>2020-10-07T15:57:13Z</time>
      </trkpt>
      <trkpt lat="43.45203" lon="6.58132">
        <ele>181.4</ele>
        <time>2020-10-07T15:57:18Z</time>
      </trkpt>
      <trkpt lat="43.45199" lon="6.58131">
        <ele>180.5</ele>
        <time>2020-10-07T15:57:26Z</time>
      </trkpt>
      <trkpt lat="43.45196" lon="6.58131">
        <ele>180.3</ele>
        <time>2020-10-07T15:57:32Z</time>
      </trkpt>
      <trkpt lat="43.45192" lon="6.58128">
        <ele>180.2</ele>
        <time>2020-10-07T15:57:37Z</time>
      </trkpt>
      <trkpt lat="43.45189" lon="6.58126">
        <ele>180.1</ele>
        <time>2020-10-07T15:57:40Z</time>
      </trkpt>
      <trkpt lat="43.45185" lon="6.58124">
        <ele>179.4</ele>
        <time>2020-10-07T15:57:43Z</time>
      </trkpt>
      <trkpt lat="43.45183" lon="6.5812">
        <ele>179.1</ele>
        <time>2020-10-07T15:57:46Z</time>
      </trkpt>
      <trkpt lat="43.4518" lon="6.58116">
        <ele>179</ele>
        <time>2020-10-07T15:57:49Z</time>
      </trkpt>
      <trkpt lat="43.45177" lon="6.58112">
        <ele>178.5</ele>
        <time>2020-10-07T15:57:53Z</time>
      </trkpt>
      <trkpt lat="43.45173" lon="6.58109">
        <ele>178.2</ele>
        <time>2020-10-07T15:57:57Z</time>
      </trkpt>
      <trkpt lat="43.45171" lon="6.58105">
        <ele>177.8</ele>
        <time>2020-10-07T15:58:01Z</time>
      </trkpt>
      <trkpt lat="43.4517" lon="6.58104">
        <ele>177.7</ele>
        <time>2020-10-07T15:58:02Z</time>
      </trkpt>
      <trkpt lat="43.45166" lon="6.58097">
        <ele>177.2</ele>
        <time>2020-10-07T15:58:08Z</time>
      </trkpt>
      <trkpt lat="43.45163" lon="6.58094">
        <ele>176.5</ele>
        <time>2020-10-07T15:58:14Z</time>
      </trkpt>
      <trkpt lat="43.45159" lon="6.58091">
        <ele>175.5</ele>
        <time>2020-10-07T15:58:20Z</time>
      </trkpt>
      <trkpt lat="43.45155" lon="6.58088">
        <ele>174.7</ele>
        <time>2020-10-07T15:58:24Z</time>
      </trkpt>
      <trkpt lat="43.45152" lon="6.58086">
        <ele>173.8</ele>
        <time>2020-10-07T15:58:28Z</time>
      </trkpt>
      <trkpt lat="43.45148" lon="6.58083">
        <ele>173.3</ele>
        <time>2020-10-07T15:58:32Z</time>
      </trkpt>
      <trkpt lat="43.45144" lon="6.58081">
        <ele>172.6</ele>
        <time>2020-10-07T15:58:36Z</time>
      </trkpt>
      <trkpt lat="43.4514" lon="6.58079">
        <ele>172.1</ele>
        <time>2020-10-07T15:58:39Z</time>
      </trkpt>
      <trkpt lat="43.45136" lon="6.58077">
        <ele>171.9</ele>
        <time>2020-10-07T15:58:43Z</time>
      </trkpt>
      <trkpt lat="43.45132" lon="6.58074">
        <ele>171.7</ele>
        <time>2020-10-07T15:58:47Z</time>
      </trkpt>
      <trkpt lat="43.45129" lon="6.58072">
        <ele>171.6</ele>
        <time>2020-10-07T15:58:50Z</time>
      </trkpt>
      <trkpt lat="43.45125" lon="6.5807">
        <ele>171.2</ele>
        <time>2020-10-07T15:58:54Z</time>
      </trkpt>
      <trkpt lat="43.45121" lon="6.58068">
        <ele>170.9</ele>
        <time>2020-10-07T15:58:57Z</time>
      </trkpt>
      <trkpt lat="43.45118" lon="6.58066">
        <ele>170.4</ele>
        <time>2020-10-07T15:59:00Z</time>
      </trkpt>
      <trkpt lat="43.45115" lon="6.58064">
        <ele>169.9</ele>
        <time>2020-10-07T15:59:03Z</time>
      </trkpt>
      <trkpt lat="43.45113" lon="6.58063">
        <ele>169.8</ele>
        <time>2020-10-07T15:59:04Z</time>
      </trkpt>
      <trkpt lat="43.45109" lon="6.58056">
        <ele>169.3</ele>
        <time>2020-10-07T15:59:09Z</time>
      </trkpt>
      <trkpt lat="43.45107" lon="6.58052">
        <ele>168.9</ele>
        <time>2020-10-07T15:59:12Z</time>
      </trkpt>
      <trkpt lat="43.45104" lon="6.58048">
        <ele>168.6</ele>
        <time>2020-10-07T15:59:15Z</time>
      </trkpt>
      <trkpt lat="43.45103" lon="6.58044">
        <ele>168.1</ele>
        <time>2020-10-07T15:59:18Z</time>
      </trkpt>
      <trkpt lat="43.45101" lon="6.58039">
        <ele>167.5</ele>
        <time>2020-10-07T15:59:22Z</time>
      </trkpt>
      <trkpt lat="43.45098" lon="6.58036">
        <ele>166.7</ele>
        <time>2020-10-07T15:59:27Z</time>
      </trkpt>
      <trkpt lat="43.45095" lon="6.58033">
        <ele>166</ele>
        <time>2020-10-07T15:59:31Z</time>
      </trkpt>
      <trkpt lat="43.45091" lon="6.58032">
        <ele>165.2</ele>
        <time>2020-10-07T15:59:36Z</time>
      </trkpt>
      <trkpt lat="43.45087" lon="6.58033">
        <ele>164.3</ele>
        <time>2020-10-07T15:59:42Z</time>
      </trkpt>
      <trkpt lat="43.45083" lon="6.58035">
        <ele>163.3</ele>
        <time>2020-10-07T15:59:47Z</time>
      </trkpt>
      <trkpt lat="43.45079" lon="6.58035">
        <ele>161.8</ele>
        <time>2020-10-07T15:59:53Z</time>
      </trkpt>
      <trkpt lat="43.45075" lon="6.58033">
        <ele>161.3</ele>
        <time>2020-10-07T15:59:58Z</time>
      </trkpt>
      <trkpt lat="43.45071" lon="6.58031">
        <ele>160.7</ele>
        <time>2020-10-07T16:00:03Z</time>
      </trkpt>
      <trkpt lat="43.45067" lon="6.58029">
        <ele>160.3</ele>
        <time>2020-10-07T16:00:07Z</time>
      </trkpt>
      <trkpt lat="43.45067" lon="6.58029">
        <ele>160.1</ele>
        <time>2020-10-07T16:00:08Z</time>
      </trkpt>
      <trkpt lat="43.4506" lon="6.58026">
        <ele>159.7</ele>
        <time>2020-10-07T16:00:15Z</time>
      </trkpt>
      <trkpt lat="43.45055" lon="6.58024">
        <ele>159.5</ele>
        <time>2020-10-07T16:00:18Z</time>
      </trkpt>
      <trkpt lat="43.45052" lon="6.58021">
        <ele>159.7</ele>
        <time>2020-10-07T16:00:24Z</time>
      </trkpt>
      <trkpt lat="43.45048" lon="6.58019">
        <ele>159.7</ele>
        <time>2020-10-07T16:00:32Z</time>
      </trkpt>
      <trkpt lat="43.45043" lon="6.58018">
        <ele>160.3</ele>
        <time>2020-10-07T16:00:38Z</time>
      </trkpt>
      <trkpt lat="43.4504" lon="6.58017">
        <ele>160.3</ele>
        <time>2020-10-07T16:00:41Z</time>
      </trkpt>
      <trkpt lat="43.45036" lon="6.58016">
        <ele>160.6</ele>
        <time>2020-10-07T16:00:45Z</time>
      </trkpt>
      <trkpt lat="43.45032" lon="6.58015">
        <ele>160.8</ele>
        <time>2020-10-07T16:00:48Z</time>
      </trkpt>
      <trkpt lat="43.45027" lon="6.58015">
        <ele>161.3</ele>
        <time>2020-10-07T16:00:51Z</time>
      </trkpt>
      <trkpt lat="43.45023" lon="6.58014">
        <ele>161.5</ele>
        <time>2020-10-07T16:00:56Z</time>
      </trkpt>
      <trkpt lat="43.4502" lon="6.58014">
        <ele>161.7</ele>
        <time>2020-10-07T16:00:59Z</time>
      </trkpt>
      <trkpt lat="43.45016" lon="6.58014">
        <ele>161.8</ele>
        <time>2020-10-07T16:01:01Z</time>
      </trkpt>
      <trkpt lat="43.45013" lon="6.58013">
        <ele>161.8</ele>
        <time>2020-10-07T16:01:03Z</time>
      </trkpt>
      <trkpt lat="43.4501" lon="6.58012">
        <ele>162.1</ele>
        <time>2020-10-07T16:01:05Z</time>
      </trkpt>
      <trkpt lat="43.45006" lon="6.58011">
        <ele>161.9</ele>
        <time>2020-10-07T16:01:07Z</time>
      </trkpt>
      <trkpt lat="43.45003" lon="6.58008">
        <ele>161.9</ele>
        <time>2020-10-07T16:01:09Z</time>
      </trkpt>
      <trkpt lat="43.45002" lon="6.58007">
        <ele>162</ele>
        <time>2020-10-07T16:01:10Z</time>
      </trkpt>
      <trkpt lat="43.44998" lon="6.58003">
        <ele>162.6</ele>
        <time>2020-10-07T16:01:13Z</time>
      </trkpt>
      <trkpt lat="43.44995" lon="6.58">
        <ele>163</ele>
        <time>2020-10-07T16:01:16Z</time>
      </trkpt>
      <trkpt lat="43.44992" lon="6.57996">
        <ele>163</ele>
        <time>2020-10-07T16:01:19Z</time>
      </trkpt>
      <trkpt lat="43.4499" lon="6.57992">
        <ele>163.1</ele>
        <time>2020-10-07T16:01:22Z</time>
      </trkpt>
      <trkpt lat="43.44987" lon="6.57987">
        <ele>163.5</ele>
        <time>2020-10-07T16:01:27Z</time>
      </trkpt>
      <trkpt lat="43.44984" lon="6.57983">
        <ele>163.6</ele>
        <time>2020-10-07T16:01:31Z</time>
      </trkpt>
      <trkpt lat="43.44982" lon="6.5798">
        <ele>163.5</ele>
        <time>2020-10-07T16:01:34Z</time>
      </trkpt>
      <trkpt lat="43.44979" lon="6.57976">
        <ele>163.5</ele>
        <time>2020-10-07T16:01:37Z</time>
      </trkpt>
      <trkpt lat="43.44977" lon="6.57972">
        <ele>163.4</ele>
        <time>2020-10-07T16:01:40Z</time>
      </trkpt>
      <trkpt lat="43.44973" lon="6.5797">
        <ele>163.8</ele>
        <time>2020-10-07T16:01:45Z</time>
      </trkpt>
      <trkpt lat="43.44969" lon="6.57972">
        <ele>164.4</ele>
        <time>2020-10-07T16:01:52Z</time>
      </trkpt>
      <trkpt lat="43.44966" lon="6.57973">
        <ele>164.3</ele>
        <time>2020-10-07T16:01:55Z</time>
      </trkpt>
      <trkpt lat="43.44962" lon="6.57975">
        <ele>165</ele>
        <time>2020-10-07T16:01:58Z</time>
      </trkpt>
      <trkpt lat="43.44959" lon="6.57979">
        <ele>165.1</ele>
        <time>2020-10-07T16:02:03Z</time>
      </trkpt>
      <trkpt lat="43.44957" lon="6.57982">
        <ele>165.2</ele>
        <time>2020-10-07T16:02:07Z</time>
      </trkpt>
      <trkpt lat="43.44954" lon="6.57985">
        <ele>165.3</ele>
        <time>2020-10-07T16:02:10Z</time>
      </trkpt>
      <trkpt lat="43.44953" lon="6.57986">
        <ele>165.3</ele>
        <time>2020-10-07T16:02:11Z</time>
      </trkpt>
      <trkpt lat="43.44947" lon="6.57992">
        <ele>165.7</ele>
        <time>2020-10-07T16:02:18Z</time>
      </trkpt>
      <trkpt lat="43.44943" lon="6.57994">
        <ele>166.1</ele>
        <time>2020-10-07T16:02:21Z</time>
      </trkpt>
      <trkpt lat="43.44939" lon="6.57994">
        <ele>166.5</ele>
        <time>2020-10-07T16:02:25Z</time>
      </trkpt>
      <trkpt lat="43.44935" lon="6.57994">
        <ele>166.7</ele>
        <time>2020-10-07T16:02:29Z</time>
      </trkpt>
      <trkpt lat="43.44932" lon="6.57993">
        <ele>166.8</ele>
        <time>2020-10-07T16:02:32Z</time>
      </trkpt>
      <trkpt lat="43.44928" lon="6.57993">
        <ele>166.8</ele>
        <time>2020-10-07T16:02:35Z</time>
      </trkpt>
      <trkpt lat="43.44924" lon="6.57994">
        <ele>167.2</ele>
        <time>2020-10-07T16:02:39Z</time>
      </trkpt>
      <trkpt lat="43.44921" lon="6.57996">
        <ele>167.8</ele>
        <time>2020-10-07T16:02:45Z</time>
      </trkpt>
      <trkpt lat="43.44917" lon="6.57998">
        <ele>167.9</ele>
        <time>2020-10-07T16:02:51Z</time>
      </trkpt>
      <trkpt lat="43.44913" lon="6.57999">
        <ele>168.5</ele>
        <time>2020-10-07T16:03:03Z</time>
      </trkpt>
      <trkpt lat="43.4491" lon="6.58003">
        <ele>168.3</ele>
        <time>2020-10-07T16:03:31Z</time>
      </trkpt>
    </trkseg>
  </trk>
</gpx>